<?xml version="1.0" encoding="UTF-8"?>
<gpx
  version="1.1"
  creator="Runkeeper - http://www.runkeeper.com"
  xmlns:xsi="http://www.w3.org/2001/XMLSchema-instance"
  xmlns="http://www.topografix.com/GPX/1/1"
  xsi:schemaLocation="http://www.topografix.com/GPX/1/1 http://www.topografix.com/GPX/1/1/gpx.xsd"
  xmlns:gpxtpx="http://www.garmin.com/xmlschemas/TrackPointExtension/v1">
<trk>
  <name><![CDATA[Walking 17/4/18 10:42 am]]></name>
  <time>2018-04-17T09:42:35Z</time>
<trkseg>
<trkpt lat="55.009770000" lon="-2.323960000"><ele>224.7</ele><time>2018-04-17T09:42:35Z</time></trkpt>
<trkpt lat="55.009729000" lon="-2.324101000"><ele>224.6</ele><time>2018-04-17T09:43:01Z</time></trkpt>
<trkpt lat="55.009818000" lon="-2.324040000"><ele>224.6</ele><time>2018-04-17T09:46:36Z</time></trkpt>
<trkpt lat="55.009906000" lon="-2.323995000"><ele>224.7</ele><time>2018-04-17T09:47:04Z</time></trkpt>
<trkpt lat="55.009959000" lon="-2.324133000"><ele>224.7</ele><time>2018-04-17T09:47:21Z</time></trkpt>
<trkpt lat="55.009936000" lon="-2.324302000"><ele>224.7</ele><time>2018-04-17T09:47:36Z</time></trkpt>
<trkpt lat="55.009950000" lon="-2.324145000"><ele>224.7</ele><time>2018-04-17T09:48:15Z</time></trkpt>
<trkpt lat="55.009922000" lon="-2.323986000"><ele>224.7</ele><time>2018-04-17T09:48:27Z</time></trkpt>
<trkpt lat="55.009830000" lon="-2.324027000"><ele>224.7</ele><time>2018-04-17T09:48:35Z</time></trkpt>
<trkpt lat="55.009764000" lon="-2.324145000"><ele>224.7</ele><time>2018-04-17T09:48:43Z</time></trkpt>
<trkpt lat="55.009734000" lon="-2.324307000"><ele>224.7</ele><time>2018-04-17T09:49:10Z</time></trkpt>
<trkpt lat="55.009774000" lon="-2.324457000"><ele>224.6</ele><time>2018-04-17T09:49:20Z</time></trkpt>
<trkpt lat="55.009764000" lon="-2.324613000"><ele>224.5</ele><time>2018-04-17T09:49:32Z</time></trkpt>
<trkpt lat="55.009725000" lon="-2.324761000"><ele>224.0</ele><time>2018-04-17T09:49:51Z</time></trkpt>
<trkpt lat="55.009687000" lon="-2.324920000"><ele>223.5</ele><time>2018-04-17T09:49:59Z</time></trkpt>
<trkpt lat="55.009682000" lon="-2.325107000"><ele>223.0</ele><time>2018-04-17T09:50:07Z</time></trkpt>
<trkpt lat="55.009702000" lon="-2.325287000"><ele>222.4</ele><time>2018-04-17T09:50:14Z</time></trkpt>
<trkpt lat="55.009731000" lon="-2.325444000"><ele>221.5</ele><time>2018-04-17T09:50:23Z</time></trkpt>
<trkpt lat="55.009820000" lon="-2.325525000"><ele>220.6</ele><time>2018-04-17T09:50:31Z</time></trkpt>
<trkpt lat="55.009913000" lon="-2.325552000"><ele>219.7</ele><time>2018-04-17T09:50:38Z</time></trkpt>
<trkpt lat="55.010020000" lon="-2.325506000"><ele>218.7</ele><time>2018-04-17T09:50:45Z</time></trkpt>
<trkpt lat="55.010112000" lon="-2.325458000"><ele>217.8</ele><time>2018-04-17T09:51:12Z</time></trkpt>
<trkpt lat="55.010204000" lon="-2.325487000"><ele>217.0</ele><time>2018-04-17T09:51:18Z</time></trkpt>
<trkpt lat="55.010307000" lon="-2.325533000"><ele>216.4</ele><time>2018-04-17T09:51:25Z</time></trkpt>
<trkpt lat="55.010397000" lon="-2.325581000"><ele>215.9</ele><time>2018-04-17T09:51:31Z</time></trkpt>
<trkpt lat="55.010483000" lon="-2.325641000"><ele>215.5</ele><time>2018-04-17T09:51:37Z</time></trkpt>
<trkpt lat="55.010565000" lon="-2.325720000"><ele>215.4</ele><time>2018-04-17T09:51:43Z</time></trkpt>
<trkpt lat="55.010651000" lon="-2.325804000"><ele>215.4</ele><time>2018-04-17T09:51:50Z</time></trkpt>
<trkpt lat="55.010734000" lon="-2.325896000"><ele>215.6</ele><time>2018-04-17T09:51:56Z</time></trkpt>
<trkpt lat="55.010812000" lon="-2.325985000"><ele>216.0</ele><time>2018-04-17T09:52:03Z</time></trkpt>
<trkpt lat="55.010885000" lon="-2.326078000"><ele>216.4</ele><time>2018-04-17T09:52:10Z</time></trkpt>
<trkpt lat="55.010956000" lon="-2.326178000"><ele>216.9</ele><time>2018-04-17T09:52:17Z</time></trkpt>
<trkpt lat="55.011041000" lon="-2.326273000"><ele>217.5</ele><time>2018-04-17T09:52:25Z</time></trkpt>
<trkpt lat="55.011117000" lon="-2.326381000"><ele>218.2</ele><time>2018-04-17T09:52:33Z</time></trkpt>
<trkpt lat="55.011191000" lon="-2.326501000"><ele>218.7</ele><time>2018-04-17T09:52:40Z</time></trkpt>
<trkpt lat="55.011261000" lon="-2.326628000"><ele>219.4</ele><time>2018-04-17T09:52:48Z</time></trkpt>
<trkpt lat="55.011330000" lon="-2.326756000"><ele>219.9</ele><time>2018-04-17T09:52:56Z</time></trkpt>
<trkpt lat="55.011393000" lon="-2.326879000"><ele>220.5</ele><time>2018-04-17T09:53:03Z</time></trkpt>
<trkpt lat="55.011440000" lon="-2.327026000"><ele>221.0</ele><time>2018-04-17T09:53:10Z</time></trkpt>
<trkpt lat="55.011510000" lon="-2.327162000"><ele>221.5</ele><time>2018-04-17T09:53:17Z</time></trkpt>
<trkpt lat="55.011588000" lon="-2.327264000"><ele>222.2</ele><time>2018-04-17T09:53:24Z</time></trkpt>
<trkpt lat="55.011671000" lon="-2.327338000"><ele>222.9</ele><time>2018-04-17T09:53:31Z</time></trkpt>
<trkpt lat="55.011740000" lon="-2.327445000"><ele>223.7</ele><time>2018-04-17T09:53:50Z</time></trkpt>
<trkpt lat="55.011811000" lon="-2.327553000"><ele>224.5</ele><time>2018-04-17T09:53:58Z</time></trkpt>
<trkpt lat="55.011863000" lon="-2.327684000"><ele>225.5</ele><time>2018-04-17T09:54:05Z</time></trkpt>
<trkpt lat="55.011908000" lon="-2.327821000"><ele>226.6</ele><time>2018-04-17T09:54:13Z</time></trkpt>
<trkpt lat="55.011947000" lon="-2.327972000"><ele>227.7</ele><time>2018-04-17T09:54:23Z</time></trkpt>
<trkpt lat="55.011968000" lon="-2.328136000"><ele>228.9</ele><time>2018-04-17T09:54:33Z</time></trkpt>
<trkpt lat="55.011980000" lon="-2.328313000"><ele>230.2</ele><time>2018-04-17T09:54:42Z</time></trkpt>
<trkpt lat="55.012011000" lon="-2.328476000"><ele>231.5</ele><time>2018-04-17T09:54:51Z</time></trkpt>
<trkpt lat="55.012007000" lon="-2.328651000"><ele>232.7</ele><time>2018-04-17T09:55:01Z</time></trkpt>
<trkpt lat="55.012017000" lon="-2.328820000"><ele>234.0</ele><time>2018-04-17T09:55:10Z</time></trkpt>
<trkpt lat="55.012018000" lon="-2.328997000"><ele>235.3</ele><time>2018-04-17T09:55:19Z</time></trkpt>
<trkpt lat="55.012039000" lon="-2.329161000"><ele>236.5</ele><time>2018-04-17T09:55:28Z</time></trkpt>
<trkpt lat="55.012046000" lon="-2.329330000"><ele>237.9</ele><time>2018-04-17T09:55:38Z</time></trkpt>
<trkpt lat="55.012017000" lon="-2.329488000"><ele>239.3</ele><time>2018-04-17T09:55:49Z</time></trkpt>
<trkpt lat="55.011978000" lon="-2.329646000"><ele>240.7</ele><time>2018-04-17T09:55:58Z</time></trkpt>
<trkpt lat="55.011963000" lon="-2.329806000"><ele>242.2</ele><time>2018-04-17T09:56:07Z</time></trkpt>
<trkpt lat="55.011978000" lon="-2.329969000"><ele>243.7</ele><time>2018-04-17T09:56:16Z</time></trkpt>
<trkpt lat="55.012016000" lon="-2.330124000"><ele>245.3</ele><time>2018-04-17T09:56:26Z</time></trkpt>
<trkpt lat="55.012084000" lon="-2.330245000"><ele>246.7</ele><time>2018-04-17T09:56:35Z</time></trkpt>
<trkpt lat="55.012142000" lon="-2.330380000"><ele>248.0</ele><time>2018-04-17T09:56:44Z</time></trkpt>
<trkpt lat="55.012179000" lon="-2.330527000"><ele>249.2</ele><time>2018-04-17T09:56:56Z</time></trkpt>
<trkpt lat="55.012226000" lon="-2.330670000"><ele>250.4</ele><time>2018-04-17T09:57:05Z</time></trkpt>
<trkpt lat="55.012279000" lon="-2.330818000"><ele>251.3</ele><time>2018-04-17T09:57:15Z</time></trkpt>
<trkpt lat="55.012335000" lon="-2.330680000"><ele>252.0</ele><time>2018-04-17T10:00:19Z</time></trkpt>
<trkpt lat="55.012389000" lon="-2.330543000"><ele>252.5</ele><time>2018-04-17T10:00:25Z</time></trkpt>
<trkpt lat="55.012409000" lon="-2.330389000"><ele>252.9</ele><time>2018-04-17T10:00:41Z</time></trkpt>
<trkpt lat="55.012469000" lon="-2.330269000"><ele>253.2</ele><time>2018-04-17T10:00:51Z</time></trkpt>
<trkpt lat="55.012530000" lon="-2.330123000"><ele>253.2</ele><time>2018-04-17T10:01:31Z</time></trkpt>
<trkpt lat="55.012560000" lon="-2.329974000"><ele>253.0</ele><time>2018-04-17T10:01:39Z</time></trkpt>
<trkpt lat="55.012628000" lon="-2.329836000"><ele>252.7</ele><time>2018-04-17T10:01:56Z</time></trkpt>
<trkpt lat="55.012689000" lon="-2.329719000"><ele>252.5</ele><time>2018-04-17T10:02:03Z</time></trkpt>
<trkpt lat="55.012775000" lon="-2.329654000"><ele>252.3</ele><time>2018-04-17T10:02:20Z</time></trkpt>
<trkpt lat="55.012817000" lon="-2.329497000"><ele>251.9</ele><time>2018-04-17T10:02:31Z</time></trkpt>
<trkpt lat="55.012865000" lon="-2.329363000"><ele>251.6</ele><time>2018-04-17T10:02:44Z</time></trkpt>
<trkpt lat="55.012873000" lon="-2.329194000"><ele>251.5</ele><time>2018-04-17T10:02:58Z</time></trkpt>
<trkpt lat="55.012927000" lon="-2.329040000"><ele>251.5</ele><time>2018-04-17T10:03:07Z</time></trkpt>
<trkpt lat="55.012956000" lon="-2.328874000"><ele>251.7</ele><time>2018-04-17T10:03:14Z</time></trkpt>
<trkpt lat="55.012986000" lon="-2.328724000"><ele>252.0</ele><time>2018-04-17T10:03:22Z</time></trkpt>
<trkpt lat="55.013064000" lon="-2.328641000"><ele>252.5</ele><time>2018-04-17T10:03:30Z</time></trkpt>
<trkpt lat="55.013162000" lon="-2.328660000"><ele>253.0</ele><time>2018-04-17T10:03:39Z</time></trkpt>
<trkpt lat="55.013252000" lon="-2.328677000"><ele>253.6</ele><time>2018-04-17T10:03:47Z</time></trkpt>
<trkpt lat="55.013339000" lon="-2.328723000"><ele>254.3</ele><time>2018-04-17T10:03:56Z</time></trkpt>
<trkpt lat="55.013434000" lon="-2.328731000"><ele>254.9</ele><time>2018-04-17T10:04:06Z</time></trkpt>
<trkpt lat="55.013507000" lon="-2.328827000"><ele>255.5</ele><time>2018-04-17T10:04:18Z</time></trkpt>
<trkpt lat="55.013601000" lon="-2.328792000"><ele>255.8</ele><time>2018-04-17T10:04:40Z</time></trkpt>
<trkpt lat="55.013687000" lon="-2.328872000"><ele>255.7</ele><time>2018-04-17T10:04:47Z</time></trkpt>
<trkpt lat="55.013783000" lon="-2.328922000"><ele>255.5</ele><time>2018-04-17T10:04:56Z</time></trkpt>
<trkpt lat="55.013878000" lon="-2.328912000"><ele>254.9</ele><time>2018-04-17T10:05:04Z</time></trkpt>
<trkpt lat="55.013972000" lon="-2.328954000"><ele>254.2</ele><time>2018-04-17T10:05:24Z</time></trkpt>
<trkpt lat="55.014062000" lon="-2.328995000"><ele>253.4</ele><time>2018-04-17T10:05:32Z</time></trkpt>
<trkpt lat="55.014158000" lon="-2.328930000"><ele>252.5</ele><time>2018-04-17T10:05:47Z</time></trkpt>
<trkpt lat="55.014247000" lon="-2.328868000"><ele>251.5</ele><time>2018-04-17T10:05:54Z</time></trkpt>
<trkpt lat="55.014340000" lon="-2.328834000"><ele>250.6</ele><time>2018-04-17T10:06:01Z</time></trkpt>
<trkpt lat="55.014435000" lon="-2.328794000"><ele>249.8</ele><time>2018-04-17T10:06:08Z</time></trkpt>
<trkpt lat="55.014492000" lon="-2.328649000"><ele>249.2</ele><time>2018-04-17T10:06:15Z</time></trkpt>
<trkpt lat="55.014531000" lon="-2.328506000"><ele>248.8</ele><time>2018-04-17T10:06:22Z</time></trkpt>
<trkpt lat="55.014619000" lon="-2.328580000"><ele>248.9</ele><time>2018-04-17T10:06:33Z</time></trkpt>
<trkpt lat="55.014689000" lon="-2.328682000"><ele>249.2</ele><time>2018-04-17T10:07:21Z</time></trkpt>
<trkpt lat="55.014784000" lon="-2.328669000"><ele>249.6</ele><time>2018-04-17T10:07:43Z</time></trkpt>
<trkpt lat="55.014848000" lon="-2.328544000"><ele>250.4</ele><time>2018-04-17T10:07:51Z</time></trkpt>
<trkpt lat="55.014940000" lon="-2.328474000"><ele>251.2</ele><time>2018-04-17T10:07:59Z</time></trkpt>
<trkpt lat="55.015022000" lon="-2.328397000"><ele>252.2</ele><time>2018-04-17T10:08:07Z</time></trkpt>
<trkpt lat="55.015102000" lon="-2.328312000"><ele>253.2</ele><time>2018-04-17T10:08:15Z</time></trkpt>
<trkpt lat="55.015166000" lon="-2.328197000"><ele>254.2</ele><time>2018-04-17T10:08:25Z</time></trkpt>
<trkpt lat="55.015229000" lon="-2.328071000"><ele>255.4</ele><time>2018-04-17T10:08:33Z</time></trkpt>
<trkpt lat="55.015267000" lon="-2.327928000"><ele>256.5</ele><time>2018-04-17T10:08:54Z</time></trkpt>
<trkpt lat="55.015309000" lon="-2.327762000"><ele>257.6</ele><time>2018-04-17T10:09:52Z</time></trkpt>
<trkpt lat="55.015364000" lon="-2.327621000"><ele>258.6</ele><time>2018-04-17T10:09:59Z</time></trkpt>
<trkpt lat="55.015435000" lon="-2.327520000"><ele>259.5</ele><time>2018-04-17T10:10:15Z</time></trkpt>
<trkpt lat="55.015461000" lon="-2.327364000"><ele>260.3</ele><time>2018-04-17T10:10:25Z</time></trkpt>
<trkpt lat="55.015515000" lon="-2.327220000"><ele>260.7</ele><time>2018-04-17T10:10:35Z</time></trkpt>
<trkpt lat="55.015565000" lon="-2.327085000"><ele>261.1</ele><time>2018-04-17T10:10:43Z</time></trkpt>
<trkpt lat="55.015531000" lon="-2.326925000"><ele>261.3</ele><time>2018-04-17T10:12:55Z</time></trkpt>
<trkpt lat="55.015592000" lon="-2.326801000"><ele>261.5</ele><time>2018-04-17T10:13:04Z</time></trkpt>
<trkpt lat="55.015685000" lon="-2.326747000"><ele>261.8</ele><time>2018-04-17T10:13:12Z</time></trkpt>
<trkpt lat="55.015766000" lon="-2.326642000"><ele>262.0</ele><time>2018-04-17T10:13:20Z</time></trkpt>
<trkpt lat="55.015833000" lon="-2.326506000"><ele>262.1</ele><time>2018-04-17T10:13:28Z</time></trkpt>
<trkpt lat="55.015911000" lon="-2.326406000"><ele>262.3</ele><time>2018-04-17T10:13:35Z</time></trkpt>
<trkpt lat="55.015964000" lon="-2.326271000"><ele>262.5</ele><time>2018-04-17T10:13:44Z</time></trkpt>
<trkpt lat="55.016026000" lon="-2.326144000"><ele>262.6</ele><time>2018-04-17T10:13:51Z</time></trkpt>
<trkpt lat="55.016084000" lon="-2.326011000"><ele>262.9</ele><time>2018-04-17T10:13:59Z</time></trkpt>
<trkpt lat="55.016155000" lon="-2.325908000"><ele>263.2</ele><time>2018-04-17T10:14:07Z</time></trkpt>
<trkpt lat="55.016215000" lon="-2.325786000"><ele>263.5</ele><time>2018-04-17T10:14:18Z</time></trkpt>
<trkpt lat="55.016283000" lon="-2.325670000"><ele>263.7</ele><time>2018-04-17T10:14:28Z</time></trkpt>
<trkpt lat="55.016365000" lon="-2.325591000"><ele>263.9</ele><time>2018-04-17T10:15:59Z</time></trkpt>
<trkpt lat="55.016424000" lon="-2.325468000"><ele>264.1</ele><time>2018-04-17T10:18:10Z</time></trkpt>
<trkpt lat="55.016467000" lon="-2.325327000"><ele>264.3</ele><time>2018-04-17T10:18:20Z</time></trkpt>
<trkpt lat="55.016521000" lon="-2.325183000"><ele>264.5</ele><time>2018-04-17T10:18:30Z</time></trkpt>
<trkpt lat="55.016554000" lon="-2.325029000"><ele>264.5</ele><time>2018-04-17T10:19:08Z</time></trkpt>
<trkpt lat="55.016624000" lon="-2.324887000"><ele>264.4</ele><time>2018-04-17T10:19:15Z</time></trkpt>
<trkpt lat="55.016673000" lon="-2.324736000"><ele>264.4</ele><time>2018-04-17T10:19:21Z</time></trkpt>
<trkpt lat="55.016702000" lon="-2.324573000"><ele>264.4</ele><time>2018-04-17T10:19:28Z</time></trkpt>
<trkpt lat="55.016730000" lon="-2.324422000"><ele>264.4</ele><time>2018-04-17T10:19:35Z</time></trkpt>
<trkpt lat="55.016772000" lon="-2.324273000"><ele>264.3</ele><time>2018-04-17T10:19:47Z</time></trkpt>
<trkpt lat="55.016795000" lon="-2.324113000"><ele>264.2</ele><time>2018-04-17T10:19:55Z</time></trkpt>
<trkpt lat="55.016818000" lon="-2.323961000"><ele>264.1</ele><time>2018-04-17T10:20:02Z</time></trkpt>
<trkpt lat="55.016836000" lon="-2.323797000"><ele>264.0</ele><time>2018-04-17T10:20:11Z</time></trkpt>
<trkpt lat="55.016888000" lon="-2.323664000"><ele>263.7</ele><time>2018-04-17T10:20:18Z</time></trkpt>
<trkpt lat="55.016915000" lon="-2.323508000"><ele>263.4</ele><time>2018-04-17T10:20:26Z</time></trkpt>
<trkpt lat="55.016926000" lon="-2.323317000"><ele>263.1</ele><time>2018-04-17T10:21:02Z</time></trkpt>
<trkpt lat="55.016950000" lon="-2.323158000"><ele>262.8</ele><time>2018-04-17T10:21:13Z</time></trkpt>
<trkpt lat="55.016935000" lon="-2.322991000"><ele>262.5</ele><time>2018-04-17T10:21:22Z</time></trkpt>
<trkpt lat="55.016991000" lon="-2.322851000"><ele>262.1</ele><time>2018-04-17T10:21:31Z</time></trkpt>
<trkpt lat="55.017014000" lon="-2.322688000"><ele>261.8</ele><time>2018-04-17T10:21:39Z</time></trkpt>
<trkpt lat="55.017061000" lon="-2.322551000"><ele>261.7</ele><time>2018-04-17T10:21:48Z</time></trkpt>
<trkpt lat="55.017070000" lon="-2.322389000"><ele>261.6</ele><time>2018-04-17T10:22:01Z</time></trkpt>
<trkpt lat="55.017093000" lon="-2.322236000"><ele>261.5</ele><time>2018-04-17T10:22:20Z</time></trkpt>
<trkpt lat="55.017125000" lon="-2.322088000"><ele>261.5</ele><time>2018-04-17T10:22:32Z</time></trkpt>
<trkpt lat="55.017189000" lon="-2.321976000"><ele>261.5</ele><time>2018-04-17T10:22:42Z</time></trkpt>
<trkpt lat="55.017201000" lon="-2.321805000"><ele>261.6</ele><time>2018-04-17T10:22:51Z</time></trkpt>
<trkpt lat="55.017218000" lon="-2.321651000"><ele>261.8</ele><time>2018-04-17T10:22:59Z</time></trkpt>
<trkpt lat="55.017215000" lon="-2.321485000"><ele>262.2</ele><time>2018-04-17T10:23:47Z</time></trkpt>
<trkpt lat="55.017272000" lon="-2.321338000"><ele>262.6</ele><time>2018-04-17T10:23:55Z</time></trkpt>
<trkpt lat="55.017334000" lon="-2.321199000"><ele>263.3</ele><time>2018-04-17T10:24:02Z</time></trkpt>
<trkpt lat="55.017389000" lon="-2.321059000"><ele>264.1</ele><time>2018-04-17T10:24:10Z</time></trkpt>
<trkpt lat="55.017425000" lon="-2.320899000"><ele>265.0</ele><time>2018-04-17T10:24:23Z</time></trkpt>
<trkpt lat="55.017456000" lon="-2.320747000"><ele>266.1</ele><time>2018-04-17T10:24:38Z</time></trkpt>
<trkpt lat="55.017487000" lon="-2.320590000"><ele>267.4</ele><time>2018-04-17T10:24:54Z</time></trkpt>
<trkpt lat="55.017504000" lon="-2.320418000"><ele>268.8</ele><time>2018-04-17T10:25:19Z</time></trkpt>
<trkpt lat="55.017509000" lon="-2.320258000"><ele>270.5</ele><time>2018-04-17T10:25:32Z</time></trkpt>
<trkpt lat="55.017510000" lon="-2.320094000"><ele>272.2</ele><time>2018-04-17T10:25:58Z</time></trkpt>
<trkpt lat="55.017529000" lon="-2.319938000"><ele>273.9</ele><time>2018-04-17T10:26:10Z</time></trkpt>
<trkpt lat="55.017548000" lon="-2.319772000"><ele>275.5</ele><time>2018-04-17T10:26:31Z</time></trkpt>
<trkpt lat="55.017602000" lon="-2.319638000"><ele>276.9</ele><time>2018-04-17T10:26:39Z</time></trkpt>
<trkpt lat="55.017678000" lon="-2.319553000"><ele>278.4</ele><time>2018-04-17T10:26:48Z</time></trkpt>
<trkpt lat="55.017739000" lon="-2.319433000"><ele>279.6</ele><time>2018-04-17T10:26:55Z</time></trkpt>
<trkpt lat="55.017798000" lon="-2.319290000"><ele>280.8</ele><time>2018-04-17T10:27:03Z</time></trkpt>
<trkpt lat="55.017868000" lon="-2.319176000"><ele>281.8</ele><time>2018-04-17T10:27:11Z</time></trkpt>
<trkpt lat="55.017943000" lon="-2.319069000"><ele>282.7</ele><time>2018-04-17T10:27:20Z</time></trkpt>
<trkpt lat="55.017985000" lon="-2.318927000"><ele>283.5</ele><time>2018-04-17T10:27:31Z</time></trkpt>
<trkpt lat="55.018030000" lon="-2.318785000"><ele>283.9</ele><time>2018-04-17T10:27:40Z</time></trkpt>
<trkpt lat="55.018048000" lon="-2.318624000"><ele>284.2</ele><time>2018-04-17T10:28:45Z</time></trkpt>
<trkpt lat="55.018072000" lon="-2.318461000"><ele>284.5</ele><time>2018-04-17T10:29:11Z</time></trkpt>
<trkpt lat="55.018080000" lon="-2.318287000"><ele>284.7</ele><time>2018-04-17T10:29:19Z</time></trkpt>
<trkpt lat="55.018108000" lon="-2.318128000"><ele>285.0</ele><time>2018-04-17T10:29:44Z</time></trkpt>
<trkpt lat="55.018162000" lon="-2.317992000"><ele>285.0</ele><time>2018-04-17T10:29:54Z</time></trkpt>
<trkpt lat="55.018213000" lon="-2.317855000"><ele>284.8</ele><time>2018-04-17T10:30:01Z</time></trkpt>
<trkpt lat="55.018261000" lon="-2.317713000"><ele>284.4</ele><time>2018-04-17T10:30:09Z</time></trkpt>
<trkpt lat="55.018323000" lon="-2.317579000"><ele>283.7</ele><time>2018-04-17T10:30:28Z</time></trkpt>
<trkpt lat="55.018345000" lon="-2.317421000"><ele>282.9</ele><time>2018-04-17T10:30:40Z</time></trkpt>
<trkpt lat="55.018375000" lon="-2.317269000"><ele>281.9</ele><time>2018-04-17T10:30:50Z</time></trkpt>
<trkpt lat="55.018443000" lon="-2.317155000"><ele>280.9</ele><time>2018-04-17T10:31:00Z</time></trkpt>
<trkpt lat="55.018511000" lon="-2.317048000"><ele>279.8</ele><time>2018-04-17T10:31:10Z</time></trkpt>
<trkpt lat="55.018606000" lon="-2.317074000"><ele>278.6</ele><time>2018-04-17T10:31:52Z</time></trkpt>
<trkpt lat="55.018688000" lon="-2.316965000"><ele>277.4</ele><time>2018-04-17T10:32:15Z</time></trkpt>
<trkpt lat="55.018777000" lon="-2.316926000"><ele>276.1</ele><time>2018-04-17T10:32:23Z</time></trkpt>
<trkpt lat="55.018873000" lon="-2.316870000"><ele>274.8</ele><time>2018-04-17T10:32:31Z</time></trkpt>
<trkpt lat="55.018969000" lon="-2.316833000"><ele>273.7</ele><time>2018-04-17T10:32:40Z</time></trkpt>
<trkpt lat="55.019056000" lon="-2.316787000"><ele>272.8</ele><time>2018-04-17T10:32:53Z</time></trkpt>
<trkpt lat="55.019145000" lon="-2.316745000"><ele>272.2</ele><time>2018-04-17T10:33:00Z</time></trkpt>
<trkpt lat="55.019238000" lon="-2.316709000"><ele>271.6</ele><time>2018-04-17T10:33:08Z</time></trkpt>
<trkpt lat="55.019321000" lon="-2.316639000"><ele>271.3</ele><time>2018-04-17T10:33:16Z</time></trkpt>
<trkpt lat="55.019413000" lon="-2.316577000"><ele>271.1</ele><time>2018-04-17T10:33:24Z</time></trkpt>
<trkpt lat="55.019502000" lon="-2.316548000"><ele>271.0</ele><time>2018-04-17T10:33:32Z</time></trkpt>
<trkpt lat="55.019596000" lon="-2.316517000"><ele>271.0</ele><time>2018-04-17T10:33:40Z</time></trkpt>
<trkpt lat="55.019685000" lon="-2.316469000"><ele>271.1</ele><time>2018-04-17T10:33:46Z</time></trkpt>
<trkpt lat="55.019789000" lon="-2.316422000"><ele>271.2</ele><time>2018-04-17T10:33:54Z</time></trkpt>
<trkpt lat="55.019885000" lon="-2.316378000"><ele>271.4</ele><time>2018-04-17T10:34:02Z</time></trkpt>
<trkpt lat="55.019979000" lon="-2.316322000"><ele>271.6</ele><time>2018-04-17T10:34:10Z</time></trkpt>
<trkpt lat="55.020069000" lon="-2.316275000"><ele>271.9</ele><time>2018-04-17T10:34:17Z</time></trkpt>
<trkpt lat="55.020164000" lon="-2.316220000"><ele>272.1</ele><time>2018-04-17T10:34:27Z</time></trkpt>
<trkpt lat="55.020265000" lon="-2.316188000"><ele>272.4</ele><time>2018-04-17T10:34:33Z</time></trkpt>
<trkpt lat="55.020354000" lon="-2.316145000"><ele>272.7</ele><time>2018-04-17T10:34:41Z</time></trkpt>
<trkpt lat="55.020447000" lon="-2.316128000"><ele>273.1</ele><time>2018-04-17T10:34:49Z</time></trkpt>
<trkpt lat="55.020536000" lon="-2.316087000"><ele>273.5</ele><time>2018-04-17T10:35:13Z</time></trkpt>
<trkpt lat="55.020616000" lon="-2.316002000"><ele>274.1</ele><time>2018-04-17T10:35:24Z</time></trkpt>
<trkpt lat="55.020701000" lon="-2.315924000"><ele>274.7</ele><time>2018-04-17T10:35:36Z</time></trkpt>
<trkpt lat="55.020789000" lon="-2.315893000"><ele>275.5</ele><time>2018-04-17T10:35:46Z</time></trkpt>
<trkpt lat="55.020885000" lon="-2.315912000"><ele>276.3</ele><time>2018-04-17T10:36:00Z</time></trkpt>
<trkpt lat="55.020977000" lon="-2.315889000"><ele>277.0</ele><time>2018-04-17T10:36:12Z</time></trkpt>
<trkpt lat="55.021068000" lon="-2.315932000"><ele>277.8</ele><time>2018-04-17T10:36:21Z</time></trkpt>
<trkpt lat="55.021162000" lon="-2.315941000"><ele>278.6</ele><time>2018-04-17T10:36:33Z</time></trkpt>
<trkpt lat="55.021251000" lon="-2.315960000"><ele>279.5</ele><time>2018-04-17T10:36:43Z</time></trkpt>
<trkpt lat="55.021343000" lon="-2.315954000"><ele>280.3</ele><time>2018-04-17T10:36:53Z</time></trkpt>
<trkpt lat="55.021423000" lon="-2.316026000"><ele>281.2</ele><time>2018-04-17T10:37:30Z</time></trkpt>
<trkpt lat="55.021519000" lon="-2.316048000"><ele>282.1</ele><time>2018-04-17T10:37:57Z</time></trkpt>
<trkpt lat="55.021613000" lon="-2.316014000"><ele>283.0</ele><time>2018-04-17T10:38:06Z</time></trkpt>
<trkpt lat="55.021698000" lon="-2.315935000"><ele>284.0</ele><time>2018-04-17T10:38:13Z</time></trkpt>
<trkpt lat="55.021794000" lon="-2.315856000"><ele>285.0</ele><time>2018-04-17T10:38:22Z</time></trkpt>
<trkpt lat="55.021888000" lon="-2.315803000"><ele>286.0</ele><time>2018-04-17T10:38:32Z</time></trkpt>
<trkpt lat="55.021978000" lon="-2.315762000"><ele>287.0</ele><time>2018-04-17T10:38:41Z</time></trkpt>
<trkpt lat="55.022064000" lon="-2.315695000"><ele>288.0</ele><time>2018-04-17T10:38:51Z</time></trkpt>
<trkpt lat="55.022148000" lon="-2.315627000"><ele>289.1</ele><time>2018-04-17T10:39:02Z</time></trkpt>
<trkpt lat="55.022236000" lon="-2.315551000"><ele>290.3</ele><time>2018-04-17T10:39:13Z</time></trkpt>
<trkpt lat="55.022327000" lon="-2.315498000"><ele>291.5</ele><time>2018-04-17T10:39:23Z</time></trkpt>
<trkpt lat="55.022417000" lon="-2.315443000"><ele>292.5</ele><time>2018-04-17T10:39:31Z</time></trkpt>
<trkpt lat="55.022513000" lon="-2.315412000"><ele>293.6</ele><time>2018-04-17T10:39:40Z</time></trkpt>
<trkpt lat="55.022600000" lon="-2.315308000"><ele>294.7</ele><time>2018-04-17T10:39:48Z</time></trkpt>
<trkpt lat="55.022688000" lon="-2.315243000"><ele>295.7</ele><time>2018-04-17T10:39:58Z</time></trkpt>
<trkpt lat="55.022779000" lon="-2.315231000"><ele>296.7</ele><time>2018-04-17T10:40:07Z</time></trkpt>
<trkpt lat="55.022866000" lon="-2.315196000"><ele>297.8</ele><time>2018-04-17T10:40:17Z</time></trkpt>
<trkpt lat="55.022963000" lon="-2.315232000"><ele>299.1</ele><time>2018-04-17T10:40:26Z</time></trkpt>
<trkpt lat="55.023061000" lon="-2.315216000"><ele>300.5</ele><time>2018-04-17T10:40:36Z</time></trkpt>
<trkpt lat="55.023157000" lon="-2.315191000"><ele>302.0</ele><time>2018-04-17T10:40:48Z</time></trkpt>
<trkpt lat="55.023250000" lon="-2.315152000"><ele>303.5</ele><time>2018-04-17T10:40:58Z</time></trkpt>
<trkpt lat="55.023340000" lon="-2.315122000"><ele>304.9</ele><time>2018-04-17T10:41:07Z</time></trkpt>
<trkpt lat="55.023426000" lon="-2.315072000"><ele>306.2</ele><time>2018-04-17T10:41:17Z</time></trkpt>
<trkpt lat="55.023518000" lon="-2.315037000"><ele>307.5</ele><time>2018-04-17T10:41:27Z</time></trkpt>
<trkpt lat="55.023615000" lon="-2.315046000"><ele>308.5</ele><time>2018-04-17T10:41:39Z</time></trkpt>
<trkpt lat="55.023707000" lon="-2.315047000"><ele>309.6</ele><time>2018-04-17T10:41:51Z</time></trkpt>
<trkpt lat="55.023798000" lon="-2.315039000"><ele>310.5</ele><time>2018-04-17T10:42:01Z</time></trkpt>
<trkpt lat="55.023879000" lon="-2.315133000"><ele>311.3</ele><time>2018-04-17T10:44:07Z</time></trkpt>
<trkpt lat="55.023970000" lon="-2.315078000"><ele>311.9</ele><time>2018-04-17T10:44:13Z</time></trkpt>
<trkpt lat="55.024060000" lon="-2.315099000"><ele>312.4</ele><time>2018-04-17T10:44:20Z</time></trkpt>
<trkpt lat="55.024150000" lon="-2.315040000"><ele>312.7</ele><time>2018-04-17T10:44:48Z</time></trkpt>
<trkpt lat="55.024244000" lon="-2.314979000"><ele>312.9</ele><time>2018-04-17T10:44:55Z</time></trkpt>
<trkpt lat="55.024321000" lon="-2.314879000"><ele>313.0</ele><time>2018-04-17T10:45:15Z</time></trkpt>
<trkpt lat="55.024348000" lon="-2.314728000"><ele>313.2</ele><time>2018-04-17T10:45:22Z</time></trkpt>
<trkpt lat="55.024409000" lon="-2.314609000"><ele>313.3</ele><time>2018-04-17T10:45:30Z</time></trkpt>
<trkpt lat="55.024478000" lon="-2.314489000"><ele>313.5</ele><time>2018-04-17T10:45:46Z</time></trkpt>
<trkpt lat="55.024533000" lon="-2.314345000"><ele>313.5</ele><time>2018-04-17T10:45:53Z</time></trkpt>
<trkpt lat="55.024568000" lon="-2.314193000"><ele>313.8</ele><time>2018-04-17T10:46:00Z</time></trkpt>
<trkpt lat="55.024587000" lon="-2.314033000"><ele>313.9</ele><time>2018-04-17T10:46:14Z</time></trkpt>
<trkpt lat="55.024654000" lon="-2.313925000"><ele>313.9</ele><time>2018-04-17T10:47:44Z</time></trkpt>
<trkpt lat="55.024653000" lon="-2.313761000"><ele>313.8</ele><time>2018-04-17T10:47:57Z</time></trkpt>
<trkpt lat="55.024683000" lon="-2.313610000"><ele>313.8</ele><time>2018-04-17T10:48:05Z</time></trkpt>
<trkpt lat="55.024716000" lon="-2.313458000"><ele>313.8</ele><time>2018-04-17T10:48:11Z</time></trkpt>
<trkpt lat="55.024769000" lon="-2.313325000"><ele>313.7</ele><time>2018-04-17T10:48:18Z</time></trkpt>
<trkpt lat="55.024798000" lon="-2.313172000"><ele>313.5</ele><time>2018-04-17T10:48:25Z</time></trkpt>
<trkpt lat="55.024792000" lon="-2.313014000"><ele>313.3</ele><time>2018-04-17T10:48:33Z</time></trkpt>
<trkpt lat="55.024775000" lon="-2.312844000"><ele>312.9</ele><time>2018-04-17T10:49:11Z</time></trkpt>
<trkpt lat="55.024792000" lon="-2.312689000"><ele>312.5</ele><time>2018-04-17T10:49:49Z</time></trkpt>
<trkpt lat="55.024818000" lon="-2.312535000"><ele>312.0</ele><time>2018-04-17T10:49:58Z</time></trkpt>
<trkpt lat="55.024888000" lon="-2.312424000"><ele>311.9</ele><time>2018-04-17T10:50:04Z</time></trkpt>
<trkpt lat="55.024955000" lon="-2.312306000"><ele>311.5</ele><time>2018-04-17T10:50:10Z</time></trkpt>
<trkpt lat="55.025020000" lon="-2.312176000"><ele>311.0</ele><time>2018-04-17T10:50:18Z</time></trkpt>
<trkpt lat="55.025033000" lon="-2.312011000"><ele>310.3</ele><time>2018-04-17T10:50:27Z</time></trkpt>
<trkpt lat="55.025039000" lon="-2.311833000"><ele>309.5</ele><time>2018-04-17T10:50:52Z</time></trkpt>
<trkpt lat="55.024997000" lon="-2.311686000"><ele>308.6</ele><time>2018-04-17T10:51:04Z</time></trkpt>
<trkpt lat="55.025067000" lon="-2.311578000"><ele>307.8</ele><time>2018-04-17T10:51:14Z</time></trkpt>
<trkpt lat="55.025103000" lon="-2.311424000"><ele>307.2</ele><time>2018-04-17T10:51:34Z</time></trkpt>
<trkpt lat="55.025132000" lon="-2.311273000"><ele>306.7</ele><time>2018-04-17T10:51:42Z</time></trkpt>
<trkpt lat="55.025167000" lon="-2.311110000"><ele>306.5</ele><time>2018-04-17T10:51:53Z</time></trkpt>
<trkpt lat="55.025217000" lon="-2.310958000"><ele>306.0</ele><time>2018-04-17T10:52:03Z</time></trkpt>
<trkpt lat="55.025241000" lon="-2.310791000"><ele>305.5</ele><time>2018-04-17T10:52:11Z</time></trkpt>
<trkpt lat="55.025249000" lon="-2.310634000"><ele>304.9</ele><time>2018-04-17T10:52:21Z</time></trkpt>
<trkpt lat="55.025238000" lon="-2.310477000"><ele>304.5</ele><time>2018-04-17T10:52:29Z</time></trkpt>
<trkpt lat="55.025279000" lon="-2.310329000"><ele>304.1</ele><time>2018-04-17T10:52:41Z</time></trkpt>
<trkpt lat="55.025311000" lon="-2.310174000"><ele>303.5</ele><time>2018-04-17T10:53:03Z</time></trkpt>
<trkpt lat="55.025314000" lon="-2.310017000"><ele>303.1</ele><time>2018-04-17T10:53:13Z</time></trkpt>
<trkpt lat="55.025371000" lon="-2.309868000"><ele>302.6</ele><time>2018-04-17T10:54:17Z</time></trkpt>
<trkpt lat="55.025387000" lon="-2.309704000"><ele>302.1</ele><time>2018-04-17T10:54:24Z</time></trkpt>
<trkpt lat="55.025426000" lon="-2.309540000"><ele>301.4</ele><time>2018-04-17T10:54:31Z</time></trkpt>
<trkpt lat="55.025480000" lon="-2.309397000"><ele>300.5</ele><time>2018-04-17T10:54:42Z</time></trkpt>
<trkpt lat="55.025491000" lon="-2.309231000"><ele>299.6</ele><time>2018-04-17T10:54:51Z</time></trkpt>
<trkpt lat="55.025534000" lon="-2.309063000"><ele>298.7</ele><time>2018-04-17T10:55:00Z</time></trkpt>
<trkpt lat="55.025562000" lon="-2.308906000"><ele>298.0</ele><time>2018-04-17T10:55:07Z</time></trkpt>
<trkpt lat="55.025579000" lon="-2.308738000"><ele>297.3</ele><time>2018-04-17T10:55:16Z</time></trkpt>
<trkpt lat="55.025602000" lon="-2.308564000"><ele>296.8</ele><time>2018-04-17T10:55:26Z</time></trkpt>
<trkpt lat="55.025621000" lon="-2.308410000"><ele>296.5</ele><time>2018-04-17T10:55:32Z</time></trkpt>
<trkpt lat="55.025626000" lon="-2.308246000"><ele>296.2</ele><time>2018-04-17T10:55:40Z</time></trkpt>
<trkpt lat="55.025663000" lon="-2.308074000"><ele>296.0</ele><time>2018-04-17T10:55:49Z</time></trkpt>
<trkpt lat="55.025690000" lon="-2.307905000"><ele>295.9</ele><time>2018-04-17T10:55:57Z</time></trkpt>
<trkpt lat="55.025720000" lon="-2.307743000"><ele>295.9</ele><time>2018-04-17T10:56:04Z</time></trkpt>
<trkpt lat="55.025751000" lon="-2.307575000"><ele>296.1</ele><time>2018-04-17T10:56:12Z</time></trkpt>
<trkpt lat="55.025773000" lon="-2.307407000"><ele>296.2</ele><time>2018-04-17T10:56:29Z</time></trkpt>
<trkpt lat="55.025796000" lon="-2.307239000"><ele>296.3</ele><time>2018-04-17T10:56:36Z</time></trkpt>
<trkpt lat="55.025812000" lon="-2.307071000"><ele>296.5</ele><time>2018-04-17T10:56:50Z</time></trkpt>
<trkpt lat="55.025823000" lon="-2.306908000"><ele>296.4</ele><time>2018-04-17T10:56:58Z</time></trkpt>
<trkpt lat="55.025833000" lon="-2.306742000"><ele>296.0</ele><time>2018-04-17T10:57:09Z</time></trkpt>
<trkpt lat="55.025843000" lon="-2.306584000"><ele>295.6</ele><time>2018-04-17T10:57:17Z</time></trkpt>
<trkpt lat="55.025851000" lon="-2.306425000"><ele>295.1</ele><time>2018-04-17T10:57:51Z</time></trkpt>
<trkpt lat="55.025856000" lon="-2.306259000"><ele>294.5</ele><time>2018-04-17T10:58:01Z</time></trkpt>
<trkpt lat="55.025912000" lon="-2.306110000"><ele>293.8</ele><time>2018-04-17T10:58:09Z</time></trkpt>
<trkpt lat="55.025962000" lon="-2.305957000"><ele>293.0</ele><time>2018-04-17T10:58:17Z</time></trkpt>
<trkpt lat="55.025992000" lon="-2.305803000"><ele>292.0</ele><time>2018-04-17T10:58:25Z</time></trkpt>
<trkpt lat="55.026016000" lon="-2.305646000"><ele>291.1</ele><time>2018-04-17T10:58:34Z</time></trkpt>
<trkpt lat="55.026023000" lon="-2.305476000"><ele>290.2</ele><time>2018-04-17T10:59:05Z</time></trkpt>
<trkpt lat="55.026048000" lon="-2.305308000"><ele>289.1</ele><time>2018-04-17T10:59:14Z</time></trkpt>
<trkpt lat="55.026058000" lon="-2.305124000"><ele>288.3</ele><time>2018-04-17T10:59:28Z</time></trkpt>
<trkpt lat="55.026063000" lon="-2.304957000"><ele>287.5</ele><time>2018-04-17T10:59:34Z</time></trkpt>
<trkpt lat="55.026086000" lon="-2.304792000"><ele>286.9</ele><time>2018-04-17T10:59:41Z</time></trkpt>
<trkpt lat="55.026110000" lon="-2.304614000"><ele>286.4</ele><time>2018-04-17T10:59:48Z</time></trkpt>
<trkpt lat="55.026127000" lon="-2.304447000"><ele>285.9</ele><time>2018-04-17T10:59:55Z</time></trkpt>
<trkpt lat="55.026129000" lon="-2.304283000"><ele>285.5</ele><time>2018-04-17T11:00:04Z</time></trkpt>
<trkpt lat="55.026169000" lon="-2.304121000"><ele>285.3</ele><time>2018-04-17T11:00:33Z</time></trkpt>
<trkpt lat="55.026210000" lon="-2.303955000"><ele>285.0</ele><time>2018-04-17T11:00:39Z</time></trkpt>
<trkpt lat="55.026223000" lon="-2.303796000"><ele>284.6</ele><time>2018-04-17T11:00:45Z</time></trkpt>
<trkpt lat="55.026222000" lon="-2.303632000"><ele>284.4</ele><time>2018-04-17T11:00:53Z</time></trkpt>
<trkpt lat="55.026255000" lon="-2.303470000"><ele>284.3</ele><time>2018-04-17T11:01:04Z</time></trkpt>
<trkpt lat="55.026265000" lon="-2.303314000"><ele>284.3</ele><time>2018-04-17T11:01:34Z</time></trkpt>
<trkpt lat="55.026339000" lon="-2.303220000"><ele>284.5</ele><time>2018-04-17T11:02:04Z</time></trkpt>
<trkpt lat="55.026364000" lon="-2.303057000"><ele>284.6</ele><time>2018-04-17T11:02:13Z</time></trkpt>
<trkpt lat="55.026345000" lon="-2.302897000"><ele>284.7</ele><time>2018-04-17T11:02:20Z</time></trkpt>
<trkpt lat="55.026347000" lon="-2.302733000"><ele>284.7</ele><time>2018-04-17T11:02:29Z</time></trkpt>
<trkpt lat="55.026347000" lon="-2.302574000"><ele>284.6</ele><time>2018-04-17T11:02:41Z</time></trkpt>
<trkpt lat="55.026343000" lon="-2.302394000"><ele>284.4</ele><time>2018-04-17T11:02:51Z</time></trkpt>
<trkpt lat="55.026401000" lon="-2.302255000"><ele>284.1</ele><time>2018-04-17T11:02:59Z</time></trkpt>
<trkpt lat="55.026439000" lon="-2.302082000"><ele>283.9</ele><time>2018-04-17T11:03:07Z</time></trkpt>
<trkpt lat="55.026465000" lon="-2.301921000"><ele>283.6</ele><time>2018-04-17T11:03:16Z</time></trkpt>
<trkpt lat="55.026506000" lon="-2.301777000"><ele>283.5</ele><time>2018-04-17T11:03:26Z</time></trkpt>
<trkpt lat="55.026587000" lon="-2.301672000"><ele>283.1</ele><time>2018-04-17T11:03:37Z</time></trkpt>
<trkpt lat="55.026648000" lon="-2.301533000"><ele>282.5</ele><time>2018-04-17T11:03:45Z</time></trkpt>
<trkpt lat="55.026676000" lon="-2.301367000"><ele>282.0</ele><time>2018-04-17T11:03:54Z</time></trkpt>
<trkpt lat="55.026704000" lon="-2.301215000"><ele>281.5</ele><time>2018-04-17T11:04:03Z</time></trkpt>
<trkpt lat="55.026676000" lon="-2.301051000"><ele>280.8</ele><time>2018-04-17T11:04:32Z</time></trkpt>
<trkpt lat="55.026681000" lon="-2.300881000"><ele>280.2</ele><time>2018-04-17T11:04:49Z</time></trkpt>
<trkpt lat="55.026689000" lon="-2.300709000"><ele>279.6</ele><time>2018-04-17T11:04:59Z</time></trkpt>
<trkpt lat="55.026707000" lon="-2.300544000"><ele>279.2</ele><time>2018-04-17T11:05:09Z</time></trkpt>
<trkpt lat="55.026736000" lon="-2.300380000"><ele>278.6</ele><time>2018-04-17T11:05:17Z</time></trkpt>
<trkpt lat="55.026751000" lon="-2.300211000"><ele>278.0</ele><time>2018-04-17T11:05:24Z</time></trkpt>
<trkpt lat="55.026750000" lon="-2.300052000"><ele>277.3</ele><time>2018-04-17T11:05:31Z</time></trkpt>
<trkpt lat="55.026762000" lon="-2.299887000"><ele>276.5</ele><time>2018-04-17T11:05:39Z</time></trkpt>
<trkpt lat="55.026786000" lon="-2.299724000"><ele>275.8</ele><time>2018-04-17T11:05:48Z</time></trkpt>
<trkpt lat="55.026793000" lon="-2.299560000"><ele>275.1</ele><time>2018-04-17T11:05:55Z</time></trkpt>
<trkpt lat="55.026810000" lon="-2.299394000"><ele>274.5</ele><time>2018-04-17T11:06:05Z</time></trkpt>
<trkpt lat="55.026812000" lon="-2.299233000"><ele>273.9</ele><time>2018-04-17T11:06:12Z</time></trkpt>
<trkpt lat="55.026799000" lon="-2.299063000"><ele>273.4</ele><time>2018-04-17T11:06:20Z</time></trkpt>
<trkpt lat="55.026816000" lon="-2.298901000"><ele>272.9</ele><time>2018-04-17T11:06:30Z</time></trkpt>
<trkpt lat="55.026851000" lon="-2.298743000"><ele>272.4</ele><time>2018-04-17T11:06:38Z</time></trkpt>
<trkpt lat="55.026879000" lon="-2.298582000"><ele>271.8</ele><time>2018-04-17T11:06:45Z</time></trkpt>
<trkpt lat="55.026890000" lon="-2.298413000"><ele>271.2</ele><time>2018-04-17T11:06:54Z</time></trkpt>
<trkpt lat="55.026905000" lon="-2.298242000"><ele>270.5</ele><time>2018-04-17T11:07:01Z</time></trkpt>
<trkpt lat="55.026915000" lon="-2.298079000"><ele>269.6</ele><time>2018-04-17T11:07:10Z</time></trkpt>
<trkpt lat="55.026957000" lon="-2.297926000"><ele>268.8</ele><time>2018-04-17T11:07:17Z</time></trkpt>
<trkpt lat="55.026890000" lon="-2.297805000"><ele>267.8</ele><time>2018-04-17T11:07:52Z</time></trkpt>
<trkpt lat="55.026912000" lon="-2.297630000"><ele>266.7</ele><time>2018-04-17T11:08:20Z</time></trkpt>
<trkpt lat="55.026948000" lon="-2.297482000"><ele>265.5</ele><time>2018-04-17T11:08:27Z</time></trkpt>
<trkpt lat="55.026943000" lon="-2.297316000"><ele>264.5</ele><time>2018-04-17T11:08:34Z</time></trkpt>
<trkpt lat="55.026939000" lon="-2.297157000"><ele>263.3</ele><time>2018-04-17T11:08:41Z</time></trkpt>
<trkpt lat="55.026947000" lon="-2.296981000"><ele>262.2</ele><time>2018-04-17T11:08:49Z</time></trkpt>
<trkpt lat="55.027016000" lon="-2.296867000"><ele>261.1</ele><time>2018-04-17T11:08:58Z</time></trkpt>
<trkpt lat="55.027079000" lon="-2.296717000"><ele>260.1</ele><time>2018-04-17T11:09:06Z</time></trkpt>
<trkpt lat="55.027091000" lon="-2.296560000"><ele>259.2</ele><time>2018-04-17T11:09:14Z</time></trkpt>
<trkpt lat="55.027186000" lon="-2.296499000"><ele>258.5</ele><time>2018-04-17T11:09:28Z</time></trkpt>
<trkpt lat="55.027264000" lon="-2.296421000"><ele>257.8</ele><time>2018-04-17T11:09:36Z</time></trkpt>
<trkpt lat="55.027327000" lon="-2.296306000"><ele>257.4</ele><time>2018-04-17T11:09:45Z</time></trkpt>
<trkpt lat="55.027346000" lon="-2.296152000"><ele>257.0</ele><time>2018-04-17T11:09:54Z</time></trkpt>
<trkpt lat="55.027384000" lon="-2.295994000"><ele>256.7</ele><time>2018-04-17T11:10:03Z</time></trkpt>
<trkpt lat="55.027448000" lon="-2.295873000"><ele>256.5</ele><time>2018-04-17T11:10:11Z</time></trkpt>
<trkpt lat="55.027471000" lon="-2.295713000"><ele>256.2</ele><time>2018-04-17T11:10:20Z</time></trkpt>
<trkpt lat="55.027552000" lon="-2.295609000"><ele>255.8</ele><time>2018-04-17T11:10:28Z</time></trkpt>
<trkpt lat="55.027610000" lon="-2.295489000"><ele>255.5</ele><time>2018-04-17T11:10:35Z</time></trkpt>
<trkpt lat="55.027675000" lon="-2.295345000"><ele>255.2</ele><time>2018-04-17T11:10:43Z</time></trkpt>
<trkpt lat="55.027721000" lon="-2.295209000"><ele>254.8</ele><time>2018-04-17T11:10:50Z</time></trkpt>
<trkpt lat="55.027783000" lon="-2.295090000"><ele>254.5</ele><time>2018-04-17T11:10:57Z</time></trkpt>
<trkpt lat="55.027826000" lon="-2.294950000"><ele>254.3</ele><time>2018-04-17T11:11:04Z</time></trkpt>
<trkpt lat="55.027882000" lon="-2.294805000"><ele>254.0</ele><time>2018-04-17T11:11:12Z</time></trkpt>
<trkpt lat="55.027918000" lon="-2.294647000"><ele>253.7</ele><time>2018-04-17T11:11:21Z</time></trkpt>
<trkpt lat="55.027985000" lon="-2.294516000"><ele>253.5</ele><time>2018-04-17T11:11:29Z</time></trkpt>
<trkpt lat="55.028025000" lon="-2.294359000"><ele>253.1</ele><time>2018-04-17T11:11:38Z</time></trkpt>
<trkpt lat="55.028007000" lon="-2.294202000"><ele>252.7</ele><time>2018-04-17T11:12:27Z</time></trkpt>
<trkpt lat="55.028063000" lon="-2.294059000"><ele>252.5</ele><time>2018-04-17T11:12:46Z</time></trkpt>
<trkpt lat="55.028086000" lon="-2.293901000"><ele>252.2</ele><time>2018-04-17T11:12:52Z</time></trkpt>
<trkpt lat="55.028103000" lon="-2.293730000"><ele>251.9</ele><time>2018-04-17T11:13:01Z</time></trkpt>
<trkpt lat="55.028116000" lon="-2.293567000"><ele>251.8</ele><time>2018-04-17T11:13:09Z</time></trkpt>
<trkpt lat="55.028171000" lon="-2.293439000"><ele>251.6</ele><time>2018-04-17T11:13:18Z</time></trkpt>
<trkpt lat="55.028174000" lon="-2.293271000"><ele>251.4</ele><time>2018-04-17T11:13:25Z</time></trkpt>
<trkpt lat="55.028207000" lon="-2.293102000"><ele>251.2</ele><time>2018-04-17T11:13:35Z</time></trkpt>
<trkpt lat="55.028223000" lon="-2.292943000"><ele>250.9</ele><time>2018-04-17T11:13:43Z</time></trkpt>
<trkpt lat="55.028216000" lon="-2.292785000"><ele>250.6</ele><time>2018-04-17T11:13:51Z</time></trkpt>
<trkpt lat="55.028226000" lon="-2.292619000"><ele>250.4</ele><time>2018-04-17T11:13:58Z</time></trkpt>
<trkpt lat="55.028243000" lon="-2.292449000"><ele>250.1</ele><time>2018-04-17T11:14:07Z</time></trkpt>
<trkpt lat="55.028237000" lon="-2.292291000"><ele>249.8</ele><time>2018-04-17T11:14:14Z</time></trkpt>
<trkpt lat="55.028250000" lon="-2.292122000"><ele>249.5</ele><time>2018-04-17T11:14:22Z</time></trkpt>
<trkpt lat="55.028255000" lon="-2.291954000"><ele>249.3</ele><time>2018-04-17T11:14:31Z</time></trkpt>
<trkpt lat="55.028285000" lon="-2.291783000"><ele>248.8</ele><time>2018-04-17T11:14:39Z</time></trkpt>
<trkpt lat="55.028302000" lon="-2.291615000"><ele>248.4</ele><time>2018-04-17T11:14:46Z</time></trkpt>
<trkpt lat="55.028325000" lon="-2.291462000"><ele>247.9</ele><time>2018-04-17T11:14:53Z</time></trkpt>
<trkpt lat="55.028354000" lon="-2.291294000"><ele>247.3</ele><time>2018-04-17T11:15:01Z</time></trkpt>
<trkpt lat="55.028371000" lon="-2.291118000"><ele>246.7</ele><time>2018-04-17T11:15:09Z</time></trkpt>
<trkpt lat="55.028406000" lon="-2.290961000"><ele>246.1</ele><time>2018-04-17T11:15:17Z</time></trkpt>
<trkpt lat="55.028447000" lon="-2.290802000"><ele>245.5</ele><time>2018-04-17T11:15:23Z</time></trkpt>
<trkpt lat="55.028483000" lon="-2.290653000"><ele>245.0</ele><time>2018-04-17T11:15:32Z</time></trkpt>
<trkpt lat="55.028529000" lon="-2.290502000"><ele>244.5</ele><time>2018-04-17T11:15:42Z</time></trkpt>
<trkpt lat="55.028564000" lon="-2.290349000"><ele>244.0</ele><time>2018-04-17T11:15:50Z</time></trkpt>
<trkpt lat="55.028577000" lon="-2.290189000"><ele>243.5</ele><time>2018-04-17T11:15:57Z</time></trkpt>
<trkpt lat="55.028606000" lon="-2.290020000"><ele>243.0</ele><time>2018-04-17T11:16:06Z</time></trkpt>
<trkpt lat="55.028628000" lon="-2.289865000"><ele>242.5</ele><time>2018-04-17T11:16:12Z</time></trkpt>
<trkpt lat="55.028636000" lon="-2.289691000"><ele>242.2</ele><time>2018-04-17T11:16:20Z</time></trkpt>
<trkpt lat="55.028668000" lon="-2.289532000"><ele>241.9</ele><time>2018-04-17T11:16:28Z</time></trkpt>
<trkpt lat="55.028688000" lon="-2.289377000"><ele>241.5</ele><time>2018-04-17T11:16:35Z</time></trkpt>
<trkpt lat="55.028718000" lon="-2.289205000"><ele>241.3</ele><time>2018-04-17T11:16:43Z</time></trkpt>
<trkpt lat="55.028735000" lon="-2.289045000"><ele>241.0</ele><time>2018-04-17T11:16:51Z</time></trkpt>
<trkpt lat="55.028737000" lon="-2.288855000"><ele>240.8</ele><time>2018-04-17T11:17:00Z</time></trkpt>
<trkpt lat="55.028769000" lon="-2.288703000"><ele>240.6</ele><time>2018-04-17T11:17:20Z</time></trkpt>
<trkpt lat="55.028777000" lon="-2.288533000"><ele>240.5</ele><time>2018-04-17T11:17:28Z</time></trkpt>
<trkpt lat="55.028773000" lon="-2.288371000"><ele>240.4</ele><time>2018-04-17T11:17:34Z</time></trkpt>
<trkpt lat="55.028780000" lon="-2.288207000"><ele>240.3</ele><time>2018-04-17T11:17:46Z</time></trkpt>
<trkpt lat="55.028805000" lon="-2.288055000"><ele>240.2</ele><time>2018-04-17T11:17:54Z</time></trkpt>
<trkpt lat="55.028816000" lon="-2.287899000"><ele>240.0</ele><time>2018-04-17T11:18:02Z</time></trkpt>
<trkpt lat="55.028802000" lon="-2.287730000"><ele>239.8</ele><time>2018-04-17T11:18:44Z</time></trkpt>
<trkpt lat="55.028804000" lon="-2.287571000"><ele>239.6</ele><time>2018-04-17T11:18:51Z</time></trkpt>
<trkpt lat="55.028785000" lon="-2.287402000"><ele>239.5</ele><time>2018-04-17T11:18:59Z</time></trkpt>
<trkpt lat="55.028777000" lon="-2.287225000"><ele>239.2</ele><time>2018-04-17T11:19:06Z</time></trkpt>
<trkpt lat="55.028813000" lon="-2.287064000"><ele>238.8</ele><time>2018-04-17T11:19:13Z</time></trkpt>
<trkpt lat="55.028837000" lon="-2.286889000"><ele>238.5</ele><time>2018-04-17T11:19:21Z</time></trkpt>
<trkpt lat="55.028830000" lon="-2.286715000"><ele>238.0</ele><time>2018-04-17T11:19:28Z</time></trkpt>
<trkpt lat="55.028865000" lon="-2.286567000"><ele>237.5</ele><time>2018-04-17T11:19:34Z</time></trkpt>
<trkpt lat="55.028892000" lon="-2.286403000"><ele>236.9</ele><time>2018-04-17T11:19:48Z</time></trkpt>
<trkpt lat="55.028897000" lon="-2.286233000"><ele>236.4</ele><time>2018-04-17T11:19:59Z</time></trkpt>
<trkpt lat="55.028915000" lon="-2.286075000"><ele>235.9</ele><time>2018-04-17T11:20:17Z</time></trkpt>
<trkpt lat="55.028929000" lon="-2.285893000"><ele>235.5</ele><time>2018-04-17T11:20:24Z</time></trkpt>
<trkpt lat="55.028938000" lon="-2.285726000"><ele>235.1</ele><time>2018-04-17T11:20:31Z</time></trkpt>
<trkpt lat="55.028932000" lon="-2.285564000"><ele>234.7</ele><time>2018-04-17T11:20:38Z</time></trkpt>
<trkpt lat="55.028927000" lon="-2.285401000"><ele>234.5</ele><time>2018-04-17T11:20:45Z</time></trkpt>
<trkpt lat="55.028946000" lon="-2.285243000"><ele>234.3</ele><time>2018-04-17T11:20:55Z</time></trkpt>
<trkpt lat="55.028941000" lon="-2.285068000"><ele>234.1</ele><time>2018-04-17T11:21:05Z</time></trkpt>
<trkpt lat="55.028928000" lon="-2.284912000"><ele>234.0</ele><time>2018-04-17T11:21:15Z</time></trkpt>
<trkpt lat="55.028936000" lon="-2.284749000"><ele>233.9</ele><time>2018-04-17T11:21:24Z</time></trkpt>
<trkpt lat="55.028950000" lon="-2.284588000"><ele>233.8</ele><time>2018-04-17T11:21:32Z</time></trkpt>
<trkpt lat="55.028966000" lon="-2.284416000"><ele>233.7</ele><time>2018-04-17T11:21:40Z</time></trkpt>
<trkpt lat="55.028965000" lon="-2.284256000"><ele>233.6</ele><time>2018-04-17T11:21:48Z</time></trkpt>
<trkpt lat="55.028958000" lon="-2.284080000"><ele>233.5</ele><time>2018-04-17T11:21:56Z</time></trkpt>
<trkpt lat="55.028994000" lon="-2.283922000"><ele>233.3</ele><time>2018-04-17T11:22:05Z</time></trkpt>
<trkpt lat="55.029014000" lon="-2.283763000"><ele>233.2</ele><time>2018-04-17T11:22:13Z</time></trkpt>
<trkpt lat="55.029029000" lon="-2.283599000"><ele>233.1</ele><time>2018-04-17T11:22:20Z</time></trkpt>
<trkpt lat="55.029040000" lon="-2.283428000"><ele>233.0</ele><time>2018-04-17T11:22:27Z</time></trkpt>
<trkpt lat="55.029031000" lon="-2.283259000"><ele>232.9</ele><time>2018-04-17T11:22:36Z</time></trkpt>
<trkpt lat="55.029032000" lon="-2.283084000"><ele>232.8</ele><time>2018-04-17T11:22:45Z</time></trkpt>
<trkpt lat="55.029057000" lon="-2.282929000"><ele>232.8</ele><time>2018-04-17T11:22:56Z</time></trkpt>
<trkpt lat="55.029060000" lon="-2.282770000"><ele>232.8</ele><time>2018-04-17T11:23:05Z</time></trkpt>
<trkpt lat="55.029069000" lon="-2.282613000"><ele>232.8</ele><time>2018-04-17T11:23:15Z</time></trkpt>
<trkpt lat="55.029085000" lon="-2.282443000"><ele>232.8</ele><time>2018-04-17T11:23:25Z</time></trkpt>
<trkpt lat="55.029081000" lon="-2.282272000"><ele>232.9</ele><time>2018-04-17T11:23:34Z</time></trkpt>
<trkpt lat="55.029081000" lon="-2.282102000"><ele>232.9</ele><time>2018-04-17T11:23:44Z</time></trkpt>
<trkpt lat="55.029098000" lon="-2.281932000"><ele>232.7</ele><time>2018-04-17T11:23:52Z</time></trkpt>
<trkpt lat="55.029076000" lon="-2.281765000"><ele>232.5</ele><time>2018-04-17T11:24:01Z</time></trkpt>
<trkpt lat="55.029080000" lon="-2.281598000"><ele>232.4</ele><time>2018-04-17T11:24:09Z</time></trkpt>
<trkpt lat="55.029093000" lon="-2.281424000"><ele>232.2</ele><time>2018-04-17T11:24:17Z</time></trkpt>
<trkpt lat="55.029135000" lon="-2.281265000"><ele>232.0</ele><time>2018-04-17T11:24:27Z</time></trkpt>
<trkpt lat="55.029140000" lon="-2.281108000"><ele>231.8</ele><time>2018-04-17T11:25:22Z</time></trkpt>
<trkpt lat="55.029193000" lon="-2.280970000"><ele>231.6</ele><time>2018-04-17T11:25:37Z</time></trkpt>
<trkpt lat="55.029181000" lon="-2.281131000"><ele>231.5</ele><time>2018-04-17T11:25:53Z</time></trkpt>
<trkpt lat="55.029194000" lon="-2.280964000"><ele>231.3</ele><time>2018-04-17T11:26:05Z</time></trkpt>
<trkpt lat="55.029117000" lon="-2.281042000"><ele>231.1</ele><time>2018-04-17T11:38:28Z</time></trkpt>
<trkpt lat="55.029097000" lon="-2.280873000"><ele>230.9</ele><time>2018-04-17T11:39:50Z</time></trkpt>
<trkpt lat="55.029084000" lon="-2.280713000"><ele>230.8</ele><time>2018-04-17T11:39:56Z</time></trkpt>
<trkpt lat="55.029089000" lon="-2.280533000"><ele>230.7</ele><time>2018-04-17T11:40:04Z</time></trkpt>
<trkpt lat="55.029091000" lon="-2.280347000"><ele>230.6</ele><time>2018-04-17T11:40:09Z</time></trkpt>
<trkpt lat="55.029115000" lon="-2.280191000"><ele>230.5</ele><time>2018-04-17T11:40:14Z</time></trkpt>
<trkpt lat="55.029132000" lon="-2.280021000"><ele>230.5</ele><time>2018-04-17T11:40:21Z</time></trkpt>
<trkpt lat="55.029167000" lon="-2.279870000"><ele>230.4</ele><time>2018-04-17T11:40:27Z</time></trkpt>
<trkpt lat="55.029199000" lon="-2.279723000"><ele>230.3</ele><time>2018-04-17T11:40:34Z</time></trkpt>
<trkpt lat="55.029224000" lon="-2.279558000"><ele>230.2</ele><time>2018-04-17T11:40:42Z</time></trkpt>
<trkpt lat="55.029238000" lon="-2.279397000"><ele>230.1</ele><time>2018-04-17T11:40:50Z</time></trkpt>
<trkpt lat="55.029275000" lon="-2.279235000"><ele>230.1</ele><time>2018-04-17T11:40:57Z</time></trkpt>
<trkpt lat="55.029310000" lon="-2.279071000"><ele>230.2</ele><time>2018-04-17T11:41:05Z</time></trkpt>
<trkpt lat="55.029339000" lon="-2.278914000"><ele>230.3</ele><time>2018-04-17T11:41:12Z</time></trkpt>
<trkpt lat="55.029347000" lon="-2.278754000"><ele>230.4</ele><time>2018-04-17T11:41:22Z</time></trkpt>
<trkpt lat="55.029348000" lon="-2.278583000"><ele>230.5</ele><time>2018-04-17T11:41:31Z</time></trkpt>
<trkpt lat="55.029364000" lon="-2.278423000"><ele>230.5</ele><time>2018-04-17T11:41:39Z</time></trkpt>
<trkpt lat="55.029373000" lon="-2.278262000"><ele>230.6</ele><time>2018-04-17T11:41:48Z</time></trkpt>
<trkpt lat="55.029367000" lon="-2.278093000"><ele>230.8</ele><time>2018-04-17T11:42:12Z</time></trkpt>
<trkpt lat="55.029378000" lon="-2.277937000"><ele>231.0</ele><time>2018-04-17T11:42:23Z</time></trkpt>
<trkpt lat="55.029389000" lon="-2.277776000"><ele>231.3</ele><time>2018-04-17T11:42:31Z</time></trkpt>
<trkpt lat="55.029416000" lon="-2.277594000"><ele>231.5</ele><time>2018-04-17T11:42:38Z</time></trkpt>
<trkpt lat="55.029446000" lon="-2.277426000"><ele>231.7</ele><time>2018-04-17T11:42:46Z</time></trkpt>
<trkpt lat="55.029471000" lon="-2.277247000"><ele>231.9</ele><time>2018-04-17T11:42:53Z</time></trkpt>
<trkpt lat="55.029504000" lon="-2.277082000"><ele>232.1</ele><time>2018-04-17T11:43:00Z</time></trkpt>
<trkpt lat="55.029540000" lon="-2.276931000"><ele>232.3</ele><time>2018-04-17T11:43:06Z</time></trkpt>
<trkpt lat="55.029574000" lon="-2.276776000"><ele>232.5</ele><time>2018-04-17T11:43:13Z</time></trkpt>
<trkpt lat="55.029614000" lon="-2.276618000"><ele>232.6</ele><time>2018-04-17T11:43:20Z</time></trkpt>
<trkpt lat="55.029644000" lon="-2.276457000"><ele>232.8</ele><time>2018-04-17T11:43:28Z</time></trkpt>
<trkpt lat="55.029669000" lon="-2.276300000"><ele>232.9</ele><time>2018-04-17T11:43:35Z</time></trkpt>
<trkpt lat="55.029703000" lon="-2.276132000"><ele>233.0</ele><time>2018-04-17T11:43:43Z</time></trkpt>
<trkpt lat="55.029728000" lon="-2.275960000"><ele>233.0</ele><time>2018-04-17T11:43:51Z</time></trkpt>
<trkpt lat="55.029756000" lon="-2.275794000"><ele>232.9</ele><time>2018-04-17T11:43:59Z</time></trkpt>
<trkpt lat="55.029773000" lon="-2.275632000"><ele>232.8</ele><time>2018-04-17T11:44:08Z</time></trkpt>
<trkpt lat="55.029789000" lon="-2.275468000"><ele>232.7</ele><time>2018-04-17T11:44:27Z</time></trkpt>
<trkpt lat="55.029810000" lon="-2.275305000"><ele>232.6</ele><time>2018-04-17T11:44:38Z</time></trkpt>
<trkpt lat="55.029833000" lon="-2.275150000"><ele>232.5</ele><time>2018-04-17T11:44:48Z</time></trkpt>
<trkpt lat="55.029868000" lon="-2.275005000"><ele>232.5</ele><time>2018-04-17T11:44:54Z</time></trkpt>
<trkpt lat="55.029908000" lon="-2.274845000"><ele>232.5</ele><time>2018-04-17T11:45:04Z</time></trkpt>
<trkpt lat="55.029933000" lon="-2.274676000"><ele>232.5</ele><time>2018-04-17T11:45:13Z</time></trkpt>
<trkpt lat="55.029965000" lon="-2.274515000"><ele>232.5</ele><time>2018-04-17T11:45:22Z</time></trkpt>
<trkpt lat="55.030010000" lon="-2.274367000"><ele>232.5</ele><time>2018-04-17T11:45:29Z</time></trkpt>
<trkpt lat="55.030050000" lon="-2.274219000"><ele>232.5</ele><time>2018-04-17T11:45:36Z</time></trkpt>
<trkpt lat="55.030078000" lon="-2.274064000"><ele>232.7</ele><time>2018-04-17T11:45:43Z</time></trkpt>
<trkpt lat="55.030097000" lon="-2.273910000"><ele>233.0</ele><time>2018-04-17T11:45:51Z</time></trkpt>
<trkpt lat="55.030129000" lon="-2.273755000"><ele>233.3</ele><time>2018-04-17T11:45:58Z</time></trkpt>
<trkpt lat="55.030141000" lon="-2.273598000"><ele>233.6</ele><time>2018-04-17T11:46:05Z</time></trkpt>
<trkpt lat="55.030177000" lon="-2.273441000"><ele>234.0</ele><time>2018-04-17T11:46:13Z</time></trkpt>
<trkpt lat="55.030195000" lon="-2.273272000"><ele>234.5</ele><time>2018-04-17T11:46:21Z</time></trkpt>
<trkpt lat="55.030231000" lon="-2.273117000"><ele>234.8</ele><time>2018-04-17T11:46:28Z</time></trkpt>
<trkpt lat="55.030257000" lon="-2.272961000"><ele>235.2</ele><time>2018-04-17T11:46:35Z</time></trkpt>
<trkpt lat="55.030297000" lon="-2.272806000"><ele>235.5</ele><time>2018-04-17T11:46:43Z</time></trkpt>
<trkpt lat="55.030317000" lon="-2.272652000"><ele>235.9</ele><time>2018-04-17T11:46:49Z</time></trkpt>
<trkpt lat="55.030319000" lon="-2.272477000"><ele>236.2</ele><time>2018-04-17T11:46:58Z</time></trkpt>
<trkpt lat="55.030325000" lon="-2.272316000"><ele>236.5</ele><time>2018-04-17T11:47:05Z</time></trkpt>
<trkpt lat="55.030353000" lon="-2.272152000"><ele>236.6</ele><time>2018-04-17T11:47:13Z</time></trkpt>
<trkpt lat="55.030386000" lon="-2.271993000"><ele>236.8</ele><time>2018-04-17T11:47:20Z</time></trkpt>
<trkpt lat="55.030417000" lon="-2.271823000"><ele>236.9</ele><time>2018-04-17T11:47:28Z</time></trkpt>
<trkpt lat="55.030445000" lon="-2.271653000"><ele>237.0</ele><time>2018-04-17T11:47:35Z</time></trkpt>
<trkpt lat="55.030479000" lon="-2.271491000"><ele>236.9</ele><time>2018-04-17T11:47:43Z</time></trkpt>
<trkpt lat="55.030514000" lon="-2.271330000"><ele>236.9</ele><time>2018-04-17T11:47:51Z</time></trkpt>
<trkpt lat="55.030538000" lon="-2.271161000"><ele>236.9</ele><time>2018-04-17T11:47:58Z</time></trkpt>
<trkpt lat="55.030589000" lon="-2.271029000"><ele>236.9</ele><time>2018-04-17T11:48:06Z</time></trkpt>
<trkpt lat="55.030617000" lon="-2.270872000"><ele>237.0</ele><time>2018-04-17T11:48:13Z</time></trkpt>
<trkpt lat="55.030650000" lon="-2.270704000"><ele>237.1</ele><time>2018-04-17T11:48:21Z</time></trkpt>
<trkpt lat="55.030668000" lon="-2.270540000"><ele>237.2</ele><time>2018-04-17T11:48:29Z</time></trkpt>
<trkpt lat="55.030692000" lon="-2.270384000"><ele>237.3</ele><time>2018-04-17T11:48:36Z</time></trkpt>
<trkpt lat="55.030730000" lon="-2.270229000"><ele>237.4</ele><time>2018-04-17T11:48:45Z</time></trkpt>
<trkpt lat="55.030743000" lon="-2.270072000"><ele>237.5</ele><time>2018-04-17T11:48:54Z</time></trkpt>
<trkpt lat="55.030757000" lon="-2.269912000"><ele>237.5</ele><time>2018-04-17T11:49:02Z</time></trkpt>
<trkpt lat="55.030798000" lon="-2.269754000"><ele>237.6</ele><time>2018-04-17T11:49:11Z</time></trkpt>
<trkpt lat="55.030809000" lon="-2.269592000"><ele>237.6</ele><time>2018-04-17T11:49:21Z</time></trkpt>
<trkpt lat="55.030822000" lon="-2.269432000"><ele>237.6</ele><time>2018-04-17T11:49:29Z</time></trkpt>
<trkpt lat="55.030841000" lon="-2.269269000"><ele>237.6</ele><time>2018-04-17T11:49:38Z</time></trkpt>
<trkpt lat="55.030841000" lon="-2.269099000"><ele>237.5</ele><time>2018-04-17T11:49:46Z</time></trkpt>
<trkpt lat="55.030846000" lon="-2.268938000"><ele>237.5</ele><time>2018-04-17T11:49:53Z</time></trkpt>
<trkpt lat="55.030858000" lon="-2.268779000"><ele>237.4</ele><time>2018-04-17T11:50:01Z</time></trkpt>
<trkpt lat="55.030866000" lon="-2.268620000"><ele>237.4</ele><time>2018-04-17T11:50:10Z</time></trkpt>
<trkpt lat="55.030865000" lon="-2.268458000"><ele>237.4</ele><time>2018-04-17T11:50:20Z</time></trkpt>
<trkpt lat="55.030883000" lon="-2.268282000"><ele>237.4</ele><time>2018-04-17T11:50:37Z</time></trkpt>
<trkpt lat="55.030895000" lon="-2.268123000"><ele>237.4</ele><time>2018-04-17T11:50:44Z</time></trkpt>
<trkpt lat="55.030915000" lon="-2.267966000"><ele>237.5</ele><time>2018-04-17T11:50:52Z</time></trkpt>
<trkpt lat="55.030918000" lon="-2.267794000"><ele>237.5</ele><time>2018-04-17T11:51:00Z</time></trkpt>
<trkpt lat="55.030932000" lon="-2.267619000"><ele>237.6</ele><time>2018-04-17T11:51:07Z</time></trkpt>
<trkpt lat="55.030942000" lon="-2.267462000"><ele>237.8</ele><time>2018-04-17T11:51:14Z</time></trkpt>
<trkpt lat="55.030927000" lon="-2.267294000"><ele>238.0</ele><time>2018-04-17T11:51:22Z</time></trkpt>
<trkpt lat="55.030937000" lon="-2.267123000"><ele>238.2</ele><time>2018-04-17T11:51:30Z</time></trkpt>
<trkpt lat="55.030945000" lon="-2.266953000"><ele>238.5</ele><time>2018-04-17T11:51:39Z</time></trkpt>
<trkpt lat="55.030961000" lon="-2.266795000"><ele>238.6</ele><time>2018-04-17T11:51:47Z</time></trkpt>
<trkpt lat="55.030971000" lon="-2.266618000"><ele>238.9</ele><time>2018-04-17T11:51:55Z</time></trkpt>
<trkpt lat="55.030975000" lon="-2.266461000"><ele>239.3</ele><time>2018-04-17T11:52:03Z</time></trkpt>
<trkpt lat="55.030961000" lon="-2.266305000"><ele>239.6</ele><time>2018-04-17T11:52:13Z</time></trkpt>
<trkpt lat="55.030984000" lon="-2.266131000"><ele>240.0</ele><time>2018-04-17T11:53:03Z</time></trkpt>
<trkpt lat="55.031023000" lon="-2.265979000"><ele>240.4</ele><time>2018-04-17T11:53:17Z</time></trkpt>
<trkpt lat="55.031041000" lon="-2.265822000"><ele>240.6</ele><time>2018-04-17T11:53:24Z</time></trkpt>
<trkpt lat="55.031037000" lon="-2.265658000"><ele>240.8</ele><time>2018-04-17T11:53:32Z</time></trkpt>
<trkpt lat="55.031063000" lon="-2.265506000"><ele>241.0</ele><time>2018-04-17T11:53:41Z</time></trkpt>
<trkpt lat="55.031091000" lon="-2.265347000"><ele>241.2</ele><time>2018-04-17T11:53:49Z</time></trkpt>
<trkpt lat="55.031111000" lon="-2.265192000"><ele>241.3</ele><time>2018-04-17T11:53:57Z</time></trkpt>
<trkpt lat="55.031120000" lon="-2.265023000"><ele>241.4</ele><time>2018-04-17T11:54:04Z</time></trkpt>
<trkpt lat="55.031130000" lon="-2.264867000"><ele>241.4</ele><time>2018-04-17T11:54:11Z</time></trkpt>
<trkpt lat="55.031132000" lon="-2.264705000"><ele>241.4</ele><time>2018-04-17T11:54:27Z</time></trkpt>
<trkpt lat="55.031139000" lon="-2.264546000"><ele>241.5</ele><time>2018-04-17T11:54:36Z</time></trkpt>
<trkpt lat="55.031155000" lon="-2.264382000"><ele>241.5</ele><time>2018-04-17T11:54:44Z</time></trkpt>
<trkpt lat="55.031143000" lon="-2.264215000"><ele>241.6</ele><time>2018-04-17T11:54:52Z</time></trkpt>
<trkpt lat="55.031126000" lon="-2.264048000"><ele>241.9</ele><time>2018-04-17T11:55:00Z</time></trkpt>
<trkpt lat="55.031142000" lon="-2.263889000"><ele>242.2</ele><time>2018-04-17T11:55:13Z</time></trkpt>
<trkpt lat="55.031120000" lon="-2.263724000"><ele>242.4</ele><time>2018-04-17T11:55:20Z</time></trkpt>
<trkpt lat="55.031144000" lon="-2.263572000"><ele>242.5</ele><time>2018-04-17T11:55:27Z</time></trkpt>
<trkpt lat="55.031161000" lon="-2.263391000"><ele>242.7</ele><time>2018-04-17T11:55:35Z</time></trkpt>
<trkpt lat="55.031160000" lon="-2.263213000"><ele>242.9</ele><time>2018-04-17T11:55:43Z</time></trkpt>
<trkpt lat="55.031172000" lon="-2.263055000"><ele>243.2</ele><time>2018-04-17T11:55:50Z</time></trkpt>
<trkpt lat="55.031199000" lon="-2.262892000"><ele>243.4</ele><time>2018-04-17T11:55:58Z</time></trkpt>
<trkpt lat="55.031192000" lon="-2.262715000"><ele>243.5</ele><time>2018-04-17T11:56:06Z</time></trkpt>
<trkpt lat="55.031234000" lon="-2.262558000"><ele>243.5</ele><time>2018-04-17T11:56:14Z</time></trkpt>
<trkpt lat="55.031231000" lon="-2.262392000"><ele>243.6</ele><time>2018-04-17T11:56:21Z</time></trkpt>
<trkpt lat="55.031233000" lon="-2.262234000"><ele>243.6</ele><time>2018-04-17T11:56:29Z</time></trkpt>
<trkpt lat="55.031231000" lon="-2.262074000"><ele>243.7</ele><time>2018-04-17T11:56:36Z</time></trkpt>
<trkpt lat="55.031251000" lon="-2.261919000"><ele>243.9</ele><time>2018-04-17T11:56:44Z</time></trkpt>
<trkpt lat="55.031247000" lon="-2.261754000"><ele>244.1</ele><time>2018-04-17T11:56:51Z</time></trkpt>
<trkpt lat="55.031263000" lon="-2.261588000"><ele>244.3</ele><time>2018-04-17T11:57:13Z</time></trkpt>
<trkpt lat="55.031290000" lon="-2.261421000"><ele>244.4</ele><time>2018-04-17T11:57:20Z</time></trkpt>
<trkpt lat="55.031295000" lon="-2.261259000"><ele>244.4</ele><time>2018-04-17T11:57:28Z</time></trkpt>
<trkpt lat="55.031285000" lon="-2.261096000"><ele>244.4</ele><time>2018-04-17T11:57:35Z</time></trkpt>
<trkpt lat="55.031330000" lon="-2.260954000"><ele>244.3</ele><time>2018-04-17T11:57:44Z</time></trkpt>
<trkpt lat="55.031413000" lon="-2.260873000"><ele>244.1</ele><time>2018-04-17T11:57:54Z</time></trkpt>
<trkpt lat="55.031462000" lon="-2.260727000"><ele>243.8</ele><time>2018-04-17T11:58:04Z</time></trkpt>
<trkpt lat="55.031470000" lon="-2.260552000"><ele>243.5</ele><time>2018-04-17T11:58:12Z</time></trkpt>
<trkpt lat="55.031486000" lon="-2.260390000"><ele>243.2</ele><time>2018-04-17T11:58:19Z</time></trkpt>
<trkpt lat="55.031510000" lon="-2.260218000"><ele>242.9</ele><time>2018-04-17T11:58:27Z</time></trkpt>
<trkpt lat="55.031543000" lon="-2.260071000"><ele>242.5</ele><time>2018-04-17T11:58:39Z</time></trkpt>
<trkpt lat="55.031563000" lon="-2.259903000"><ele>242.2</ele><time>2018-04-17T11:58:47Z</time></trkpt>
<trkpt lat="55.031594000" lon="-2.259736000"><ele>242.0</ele><time>2018-04-17T11:58:54Z</time></trkpt>
<trkpt lat="55.031621000" lon="-2.259585000"><ele>241.7</ele><time>2018-04-17T11:59:01Z</time></trkpt>
<trkpt lat="55.031619000" lon="-2.259417000"><ele>241.4</ele><time>2018-04-17T11:59:07Z</time></trkpt>
<trkpt lat="55.031627000" lon="-2.259244000"><ele>241.0</ele><time>2018-04-17T11:59:14Z</time></trkpt>
<trkpt lat="55.031665000" lon="-2.259087000"><ele>240.6</ele><time>2018-04-17T11:59:23Z</time></trkpt>
<trkpt lat="55.031672000" lon="-2.258924000"><ele>240.4</ele><time>2018-04-17T11:59:32Z</time></trkpt>
<trkpt lat="55.031707000" lon="-2.258757000"><ele>240.1</ele><time>2018-04-17T11:59:39Z</time></trkpt>
<trkpt lat="55.031737000" lon="-2.258607000"><ele>239.8</ele><time>2018-04-17T11:59:46Z</time></trkpt>
<trkpt lat="55.031772000" lon="-2.258458000"><ele>239.5</ele><time>2018-04-17T11:59:53Z</time></trkpt>
<trkpt lat="55.031798000" lon="-2.258294000"><ele>239.2</ele><time>2018-04-17T12:00:00Z</time></trkpt>
<trkpt lat="55.031817000" lon="-2.258123000"><ele>238.8</ele><time>2018-04-17T12:00:08Z</time></trkpt>
<trkpt lat="55.031832000" lon="-2.257953000"><ele>238.3</ele><time>2018-04-17T12:00:15Z</time></trkpt>
<trkpt lat="55.031850000" lon="-2.257785000"><ele>237.8</ele><time>2018-04-17T12:00:23Z</time></trkpt>
<trkpt lat="55.031862000" lon="-2.257606000"><ele>237.5</ele><time>2018-04-17T12:00:33Z</time></trkpt>
<trkpt lat="55.031840000" lon="-2.257435000"><ele>237.2</ele><time>2018-04-17T12:00:41Z</time></trkpt>
<trkpt lat="55.031865000" lon="-2.257265000"><ele>237.0</ele><time>2018-04-17T12:00:49Z</time></trkpt>
<trkpt lat="55.031904000" lon="-2.257117000"><ele>236.8</ele><time>2018-04-17T12:01:01Z</time></trkpt>
<trkpt lat="55.031903000" lon="-2.256959000"><ele>236.6</ele><time>2018-04-17T12:01:08Z</time></trkpt>
<trkpt lat="55.031936000" lon="-2.256811000"><ele>236.5</ele><time>2018-04-17T12:01:15Z</time></trkpt>
<trkpt lat="55.031947000" lon="-2.256637000"><ele>236.4</ele><time>2018-04-17T12:01:23Z</time></trkpt>
<trkpt lat="55.031959000" lon="-2.256459000"><ele>236.2</ele><time>2018-04-17T12:01:30Z</time></trkpt>
<trkpt lat="55.031982000" lon="-2.256304000"><ele>236.1</ele><time>2018-04-17T12:01:37Z</time></trkpt>
<trkpt lat="55.032006000" lon="-2.256134000"><ele>236.1</ele><time>2018-04-17T12:01:44Z</time></trkpt>
<trkpt lat="55.032009000" lon="-2.255956000"><ele>236.1</ele><time>2018-04-17T12:01:53Z</time></trkpt>
<trkpt lat="55.032042000" lon="-2.255793000"><ele>236.1</ele><time>2018-04-17T12:02:01Z</time></trkpt>
<trkpt lat="55.032074000" lon="-2.255637000"><ele>236.1</ele><time>2018-04-17T12:02:08Z</time></trkpt>
<trkpt lat="55.032108000" lon="-2.255488000"><ele>236.1</ele><time>2018-04-17T12:02:15Z</time></trkpt>
<trkpt lat="55.032143000" lon="-2.255337000"><ele>236.1</ele><time>2018-04-17T12:02:24Z</time></trkpt>
<trkpt lat="55.032178000" lon="-2.255191000"><ele>236.1</ele><time>2018-04-17T12:02:34Z</time></trkpt>
<trkpt lat="55.032169000" lon="-2.255031000"><ele>236.0</ele><time>2018-04-17T12:02:41Z</time></trkpt>
<trkpt lat="55.032164000" lon="-2.254869000"><ele>236.0</ele><time>2018-04-17T12:02:48Z</time></trkpt>
<trkpt lat="55.032164000" lon="-2.254699000"><ele>236.1</ele><time>2018-04-17T12:02:55Z</time></trkpt>
<trkpt lat="55.032189000" lon="-2.254536000"><ele>236.2</ele><time>2018-04-17T12:03:03Z</time></trkpt>
<trkpt lat="55.032205000" lon="-2.254367000"><ele>236.3</ele><time>2018-04-17T12:03:09Z</time></trkpt>
<trkpt lat="55.032237000" lon="-2.254211000"><ele>236.4</ele><time>2018-04-17T12:03:16Z</time></trkpt>
<trkpt lat="55.032259000" lon="-2.254040000"><ele>236.5</ele><time>2018-04-17T12:03:23Z</time></trkpt>
<trkpt lat="55.032278000" lon="-2.253865000"><ele>236.5</ele><time>2018-04-17T12:03:31Z</time></trkpt>
<trkpt lat="55.032290000" lon="-2.253696000"><ele>236.6</ele><time>2018-04-17T12:03:38Z</time></trkpt>
<trkpt lat="55.032290000" lon="-2.253533000"><ele>236.7</ele><time>2018-04-17T12:03:46Z</time></trkpt>
<trkpt lat="55.032327000" lon="-2.253387000"><ele>236.8</ele><time>2018-04-17T12:03:54Z</time></trkpt>
<trkpt lat="55.032355000" lon="-2.253232000"><ele>236.9</ele><time>2018-04-17T12:04:01Z</time></trkpt>
<trkpt lat="55.032385000" lon="-2.253076000"><ele>237.0</ele><time>2018-04-17T12:04:07Z</time></trkpt>
<trkpt lat="55.032392000" lon="-2.252907000"><ele>237.0</ele><time>2018-04-17T12:04:14Z</time></trkpt>
<trkpt lat="55.032416000" lon="-2.252748000"><ele>237.0</ele><time>2018-04-17T12:04:21Z</time></trkpt>
<trkpt lat="55.032428000" lon="-2.252583000"><ele>237.1</ele><time>2018-04-17T12:04:28Z</time></trkpt>
<trkpt lat="55.032455000" lon="-2.252415000"><ele>237.2</ele><time>2018-04-17T12:04:36Z</time></trkpt>
<trkpt lat="55.032473000" lon="-2.252249000"><ele>237.3</ele><time>2018-04-17T12:04:43Z</time></trkpt>
<trkpt lat="55.032506000" lon="-2.252085000"><ele>237.4</ele><time>2018-04-17T12:04:51Z</time></trkpt>
<trkpt lat="55.032515000" lon="-2.251915000"><ele>237.5</ele><time>2018-04-17T12:04:58Z</time></trkpt>
<trkpt lat="55.032508000" lon="-2.251731000"><ele>237.5</ele><time>2018-04-17T12:05:05Z</time></trkpt>
<trkpt lat="55.032523000" lon="-2.251558000"><ele>237.5</ele><time>2018-04-17T12:05:12Z</time></trkpt>
<trkpt lat="55.032550000" lon="-2.251384000"><ele>237.6</ele><time>2018-04-17T12:05:19Z</time></trkpt>
<trkpt lat="55.032574000" lon="-2.251231000"><ele>237.7</ele><time>2018-04-17T12:05:25Z</time></trkpt>
<trkpt lat="55.032646000" lon="-2.251097000"><ele>237.9</ele><time>2018-04-17T12:05:36Z</time></trkpt>
<trkpt lat="55.032622000" lon="-2.250930000"><ele>238.1</ele><time>2018-04-17T12:05:47Z</time></trkpt>
<trkpt lat="55.032658000" lon="-2.250782000"><ele>238.3</ele><time>2018-04-17T12:05:55Z</time></trkpt>
<trkpt lat="55.032679000" lon="-2.250625000"><ele>238.5</ele><time>2018-04-17T12:06:03Z</time></trkpt>
<trkpt lat="55.032750000" lon="-2.250504000"><ele>238.6</ele><time>2018-04-17T12:06:12Z</time></trkpt>
<trkpt lat="55.032750000" lon="-2.250346000"><ele>238.8</ele><time>2018-04-17T12:06:23Z</time></trkpt>
<trkpt lat="55.032748000" lon="-2.250185000"><ele>239.0</ele><time>2018-04-17T12:06:34Z</time></trkpt>
<trkpt lat="55.032723000" lon="-2.250030000"><ele>239.3</ele><time>2018-04-17T12:06:42Z</time></trkpt>
<trkpt lat="55.032732000" lon="-2.249851000"><ele>239.5</ele><time>2018-04-17T12:07:02Z</time></trkpt>
<trkpt lat="55.032766000" lon="-2.249698000"><ele>239.6</ele><time>2018-04-17T12:07:13Z</time></trkpt>
<trkpt lat="55.032786000" lon="-2.249537000"><ele>239.8</ele><time>2018-04-17T12:07:23Z</time></trkpt>
<trkpt lat="55.032810000" lon="-2.249363000"><ele>239.9</ele><time>2018-04-17T12:07:31Z</time></trkpt>
<trkpt lat="55.032844000" lon="-2.249217000"><ele>240.0</ele><time>2018-04-17T12:07:39Z</time></trkpt>
<trkpt lat="55.032839000" lon="-2.249037000"><ele>240.0</ele><time>2018-04-17T12:07:49Z</time></trkpt>
<trkpt lat="55.032850000" lon="-2.248869000"><ele>240.0</ele><time>2018-04-17T12:07:58Z</time></trkpt>
<trkpt lat="55.032864000" lon="-2.248714000"><ele>239.9</ele><time>2018-04-17T12:08:05Z</time></trkpt>
<trkpt lat="55.032885000" lon="-2.248537000"><ele>239.8</ele><time>2018-04-17T12:08:13Z</time></trkpt>
<trkpt lat="55.032912000" lon="-2.248365000"><ele>239.7</ele><time>2018-04-17T12:08:20Z</time></trkpt>
<trkpt lat="55.032917000" lon="-2.248208000"><ele>239.6</ele><time>2018-04-17T12:08:29Z</time></trkpt>
<trkpt lat="55.032939000" lon="-2.248049000"><ele>239.6</ele><time>2018-04-17T12:08:57Z</time></trkpt>
<trkpt lat="55.032942000" lon="-2.247886000"><ele>239.6</ele><time>2018-04-17T12:09:13Z</time></trkpt>
<trkpt lat="55.032993000" lon="-2.247743000"><ele>239.6</ele><time>2018-04-17T12:09:23Z</time></trkpt>
<trkpt lat="55.033012000" lon="-2.247584000"><ele>239.6</ele><time>2018-04-17T12:09:31Z</time></trkpt>
<trkpt lat="55.033035000" lon="-2.247432000"><ele>239.6</ele><time>2018-04-17T12:09:38Z</time></trkpt>
<trkpt lat="55.033049000" lon="-2.247274000"><ele>239.6</ele><time>2018-04-17T12:09:45Z</time></trkpt>
<trkpt lat="55.033099000" lon="-2.247119000"><ele>239.6</ele><time>2018-04-17T12:09:56Z</time></trkpt>
<trkpt lat="55.033105000" lon="-2.246959000"><ele>239.7</ele><time>2018-04-17T12:10:04Z</time></trkpt>
<trkpt lat="55.033188000" lon="-2.246862000"><ele>239.8</ele><time>2018-04-17T12:10:14Z</time></trkpt>
<trkpt lat="55.033147000" lon="-2.246719000"><ele>239.9</ele><time>2018-04-17T12:10:36Z</time></trkpt>
<trkpt lat="55.033148000" lon="-2.246557000"><ele>239.9</ele><time>2018-04-17T12:10:44Z</time></trkpt>
<trkpt lat="55.033193000" lon="-2.246419000"><ele>239.8</ele><time>2018-04-17T12:10:56Z</time></trkpt>
<trkpt lat="55.033193000" lon="-2.246249000"><ele>239.7</ele><time>2018-04-17T12:11:20Z</time></trkpt>
<trkpt lat="55.033223000" lon="-2.246093000"><ele>239.6</ele><time>2018-04-17T12:11:28Z</time></trkpt>
<trkpt lat="55.033214000" lon="-2.245913000"><ele>239.5</ele><time>2018-04-17T12:11:35Z</time></trkpt>
<trkpt lat="55.033205000" lon="-2.245730000"><ele>239.5</ele><time>2018-04-17T12:11:42Z</time></trkpt>
<trkpt lat="55.033224000" lon="-2.245577000"><ele>239.4</ele><time>2018-04-17T12:11:49Z</time></trkpt>
<trkpt lat="55.033253000" lon="-2.245409000"><ele>239.3</ele><time>2018-04-17T12:11:57Z</time></trkpt>
<trkpt lat="55.033288000" lon="-2.245242000"><ele>239.2</ele><time>2018-04-17T12:12:05Z</time></trkpt>
<trkpt lat="55.033308000" lon="-2.245081000"><ele>239.2</ele><time>2018-04-17T12:12:12Z</time></trkpt>
<trkpt lat="55.033339000" lon="-2.244920000"><ele>239.2</ele><time>2018-04-17T12:12:20Z</time></trkpt>
<trkpt lat="55.033371000" lon="-2.244769000"><ele>239.3</ele><time>2018-04-17T12:12:26Z</time></trkpt>
<trkpt lat="55.033397000" lon="-2.244607000"><ele>239.4</ele><time>2018-04-17T12:12:33Z</time></trkpt>
<trkpt lat="55.033420000" lon="-2.244454000"><ele>239.5</ele><time>2018-04-17T12:12:40Z</time></trkpt>
<trkpt lat="55.033481000" lon="-2.244319000"><ele>239.5</ele><time>2018-04-17T12:12:48Z</time></trkpt>
<trkpt lat="55.033525000" lon="-2.244174000"><ele>239.6</ele><time>2018-04-17T12:12:56Z</time></trkpt>
<trkpt lat="55.033560000" lon="-2.244012000"><ele>239.7</ele><time>2018-04-17T12:13:02Z</time></trkpt>
<trkpt lat="55.033604000" lon="-2.243860000"><ele>239.9</ele><time>2018-04-17T12:13:10Z</time></trkpt>
<trkpt lat="55.033644000" lon="-2.243701000"><ele>240.1</ele><time>2018-04-17T12:13:18Z</time></trkpt>
<trkpt lat="55.033685000" lon="-2.243559000"><ele>240.3</ele><time>2018-04-17T12:13:25Z</time></trkpt>
<trkpt lat="55.033704000" lon="-2.243402000"><ele>240.4</ele><time>2018-04-17T12:13:32Z</time></trkpt>
<trkpt lat="55.033737000" lon="-2.243245000"><ele>240.5</ele><time>2018-04-17T12:13:39Z</time></trkpt>
<trkpt lat="55.033769000" lon="-2.243092000"><ele>240.5</ele><time>2018-04-17T12:13:46Z</time></trkpt>
<trkpt lat="55.033815000" lon="-2.242946000"><ele>240.6</ele><time>2018-04-17T12:13:54Z</time></trkpt>
<trkpt lat="55.033844000" lon="-2.242794000"><ele>240.7</ele><time>2018-04-17T12:14:01Z</time></trkpt>
<trkpt lat="55.033858000" lon="-2.242635000"><ele>240.9</ele><time>2018-04-17T12:14:08Z</time></trkpt>
<trkpt lat="55.033896000" lon="-2.242492000"><ele>241.1</ele><time>2018-04-17T12:14:15Z</time></trkpt>
<trkpt lat="55.033934000" lon="-2.242325000"><ele>241.3</ele><time>2018-04-17T12:14:23Z</time></trkpt>
<trkpt lat="55.033960000" lon="-2.242154000"><ele>241.4</ele><time>2018-04-17T12:14:30Z</time></trkpt>
<trkpt lat="55.033985000" lon="-2.241984000"><ele>241.5</ele><time>2018-04-17T12:14:38Z</time></trkpt>
<trkpt lat="55.034021000" lon="-2.241836000"><ele>241.7</ele><time>2018-04-17T12:14:46Z</time></trkpt>
<trkpt lat="55.034040000" lon="-2.241678000"><ele>241.9</ele><time>2018-04-17T12:14:53Z</time></trkpt>
<trkpt lat="55.034071000" lon="-2.241529000"><ele>242.1</ele><time>2018-04-17T12:15:00Z</time></trkpt>
<trkpt lat="55.034097000" lon="-2.241360000"><ele>242.3</ele><time>2018-04-17T12:15:07Z</time></trkpt>
<trkpt lat="55.034135000" lon="-2.241215000"><ele>242.5</ele><time>2018-04-17T12:15:15Z</time></trkpt>
<trkpt lat="55.034161000" lon="-2.241044000"><ele>242.6</ele><time>2018-04-17T12:15:24Z</time></trkpt>
<trkpt lat="55.034197000" lon="-2.240876000"><ele>242.7</ele><time>2018-04-17T12:15:31Z</time></trkpt>
<trkpt lat="55.034232000" lon="-2.240728000"><ele>242.9</ele><time>2018-04-17T12:15:39Z</time></trkpt>
<trkpt lat="55.034260000" lon="-2.240571000"><ele>243.1</ele><time>2018-04-17T12:15:46Z</time></trkpt>
<trkpt lat="55.034278000" lon="-2.240415000"><ele>243.3</ele><time>2018-04-17T12:15:52Z</time></trkpt>
<trkpt lat="55.034320000" lon="-2.240264000"><ele>243.4</ele><time>2018-04-17T12:16:00Z</time></trkpt>
<trkpt lat="55.034349000" lon="-2.240112000"><ele>243.5</ele><time>2018-04-17T12:16:07Z</time></trkpt>
<trkpt lat="55.034371000" lon="-2.239939000"><ele>243.5</ele><time>2018-04-17T12:16:15Z</time></trkpt>
<trkpt lat="55.034386000" lon="-2.239770000"><ele>243.6</ele><time>2018-04-17T12:16:22Z</time></trkpt>
<trkpt lat="55.034412000" lon="-2.239609000"><ele>243.7</ele><time>2018-04-17T12:16:30Z</time></trkpt>
<trkpt lat="55.034439000" lon="-2.239441000"><ele>243.9</ele><time>2018-04-17T12:16:37Z</time></trkpt>
<trkpt lat="55.034467000" lon="-2.239272000"><ele>244.0</ele><time>2018-04-17T12:16:45Z</time></trkpt>
<trkpt lat="55.034497000" lon="-2.239102000"><ele>244.1</ele><time>2018-04-17T12:16:53Z</time></trkpt>
<trkpt lat="55.034531000" lon="-2.238946000"><ele>244.1</ele><time>2018-04-17T12:17:01Z</time></trkpt>
<trkpt lat="55.034545000" lon="-2.238787000"><ele>244.0</ele><time>2018-04-17T12:17:11Z</time></trkpt>
<trkpt lat="55.034574000" lon="-2.238625000"><ele>243.8</ele><time>2018-04-17T12:17:30Z</time></trkpt>
<trkpt lat="55.034591000" lon="-2.238453000"><ele>243.6</ele><time>2018-04-17T12:17:41Z</time></trkpt>
<trkpt lat="55.034618000" lon="-2.238280000"><ele>243.5</ele><time>2018-04-17T12:17:56Z</time></trkpt>
<trkpt lat="55.034644000" lon="-2.238103000"><ele>243.3</ele><time>2018-04-17T12:18:05Z</time></trkpt>
<trkpt lat="55.034649000" lon="-2.237944000"><ele>243.1</ele><time>2018-04-17T12:18:14Z</time></trkpt>
<trkpt lat="55.034677000" lon="-2.237787000"><ele>242.9</ele><time>2018-04-17T12:18:21Z</time></trkpt>
<trkpt lat="55.034678000" lon="-2.237627000"><ele>242.7</ele><time>2018-04-17T12:18:27Z</time></trkpt>
<trkpt lat="55.034724000" lon="-2.237470000"><ele>242.6</ele><time>2018-04-17T12:18:35Z</time></trkpt>
<trkpt lat="55.034756000" lon="-2.237320000"><ele>242.5</ele><time>2018-04-17T12:18:44Z</time></trkpt>
<trkpt lat="55.034761000" lon="-2.237155000"><ele>242.3</ele><time>2018-04-17T12:18:53Z</time></trkpt>
<trkpt lat="55.034773000" lon="-2.236999000"><ele>242.1</ele><time>2018-04-17T12:19:02Z</time></trkpt>
<trkpt lat="55.034784000" lon="-2.236830000"><ele>242.0</ele><time>2018-04-17T12:19:09Z</time></trkpt>
<trkpt lat="55.034816000" lon="-2.236679000"><ele>241.9</ele><time>2018-04-17T12:19:27Z</time></trkpt>
<trkpt lat="55.034837000" lon="-2.236510000"><ele>241.7</ele><time>2018-04-17T12:19:35Z</time></trkpt>
<trkpt lat="55.034837000" lon="-2.236346000"><ele>241.5</ele><time>2018-04-17T12:19:57Z</time></trkpt>
<trkpt lat="55.034856000" lon="-2.236176000"><ele>241.1</ele><time>2018-04-17T12:20:05Z</time></trkpt>
<trkpt lat="55.034840000" lon="-2.236013000"><ele>240.7</ele><time>2018-04-17T12:20:13Z</time></trkpt>
<trkpt lat="55.034775000" lon="-2.235887000"><ele>240.2</ele><time>2018-04-17T12:20:25Z</time></trkpt>
<trkpt lat="55.034751000" lon="-2.235728000"><ele>239.6</ele><time>2018-04-17T12:20:34Z</time></trkpt>
<trkpt lat="55.034727000" lon="-2.235573000"><ele>239.2</ele><time>2018-04-17T12:20:42Z</time></trkpt>
<trkpt lat="55.034734000" lon="-2.235411000"><ele>238.7</ele><time>2018-04-17T12:20:50Z</time></trkpt>
<trkpt lat="55.034706000" lon="-2.235243000"><ele>238.4</ele><time>2018-04-17T12:20:58Z</time></trkpt>
<trkpt lat="55.034689000" lon="-2.235078000"><ele>238.0</ele><time>2018-04-17T12:21:05Z</time></trkpt>
<trkpt lat="55.034677000" lon="-2.234901000"><ele>237.6</ele><time>2018-04-17T12:21:13Z</time></trkpt>
<trkpt lat="55.034655000" lon="-2.234749000"><ele>237.3</ele><time>2018-04-17T12:21:20Z</time></trkpt>
<trkpt lat="55.034655000" lon="-2.234582000"><ele>237.0</ele><time>2018-04-17T12:21:28Z</time></trkpt>
<trkpt lat="55.034662000" lon="-2.234411000"><ele>236.8</ele><time>2018-04-17T12:21:35Z</time></trkpt>
<trkpt lat="55.034668000" lon="-2.234251000"><ele>236.6</ele><time>2018-04-17T12:21:42Z</time></trkpt>
<trkpt lat="55.034674000" lon="-2.234085000"><ele>236.5</ele><time>2018-04-17T12:21:49Z</time></trkpt>
<trkpt lat="55.034695000" lon="-2.233910000"><ele>236.5</ele><time>2018-04-17T12:21:57Z</time></trkpt>
<trkpt lat="55.034695000" lon="-2.233749000"><ele>236.4</ele><time>2018-04-17T12:22:08Z</time></trkpt>
<trkpt lat="55.034705000" lon="-2.233572000"><ele>236.3</ele><time>2018-04-17T12:22:16Z</time></trkpt>
<trkpt lat="55.034729000" lon="-2.233421000"><ele>236.2</ele><time>2018-04-17T12:22:23Z</time></trkpt>
<trkpt lat="55.034751000" lon="-2.233254000"><ele>236.1</ele><time>2018-04-17T12:22:30Z</time></trkpt>
<trkpt lat="55.034742000" lon="-2.233074000"><ele>236.0</ele><time>2018-04-17T12:22:37Z</time></trkpt>
<trkpt lat="55.034754000" lon="-2.232910000"><ele>236.0</ele><time>2018-04-17T12:22:45Z</time></trkpt>
<trkpt lat="55.034763000" lon="-2.232740000"><ele>236.0</ele><time>2018-04-17T12:22:53Z</time></trkpt>
<trkpt lat="55.034762000" lon="-2.232564000"><ele>236.0</ele><time>2018-04-17T12:23:00Z</time></trkpt>
<trkpt lat="55.034774000" lon="-2.232402000"><ele>235.9</ele><time>2018-04-17T12:23:08Z</time></trkpt>
<trkpt lat="55.034795000" lon="-2.232246000"><ele>235.8</ele><time>2018-04-17T12:23:14Z</time></trkpt>
<trkpt lat="55.034817000" lon="-2.232080000"><ele>235.6</ele><time>2018-04-17T12:23:22Z</time></trkpt>
<trkpt lat="55.034827000" lon="-2.231909000"><ele>235.4</ele><time>2018-04-17T12:23:30Z</time></trkpt>
<trkpt lat="55.034838000" lon="-2.231733000"><ele>235.1</ele><time>2018-04-17T12:23:38Z</time></trkpt>
<trkpt lat="55.034846000" lon="-2.231577000"><ele>234.8</ele><time>2018-04-17T12:23:45Z</time></trkpt>
<trkpt lat="55.034866000" lon="-2.231423000"><ele>234.5</ele><time>2018-04-17T12:23:52Z</time></trkpt>
<trkpt lat="55.034864000" lon="-2.231246000"><ele>234.1</ele><time>2018-04-17T12:24:00Z</time></trkpt>
<trkpt lat="55.034879000" lon="-2.231078000"><ele>233.6</ele><time>2018-04-17T12:24:07Z</time></trkpt>
<trkpt lat="55.034879000" lon="-2.230905000"><ele>233.1</ele><time>2018-04-17T12:24:14Z</time></trkpt>
<trkpt lat="55.034893000" lon="-2.230748000"><ele>232.5</ele><time>2018-04-17T12:24:21Z</time></trkpt>
<trkpt lat="55.034908000" lon="-2.230589000"><ele>231.8</ele><time>2018-04-17T12:24:28Z</time></trkpt>
<trkpt lat="55.034925000" lon="-2.230432000"><ele>231.1</ele><time>2018-04-17T12:24:35Z</time></trkpt>
<trkpt lat="55.034932000" lon="-2.230264000"><ele>230.4</ele><time>2018-04-17T12:24:43Z</time></trkpt>
<trkpt lat="55.034945000" lon="-2.230088000"><ele>229.6</ele><time>2018-04-17T12:24:52Z</time></trkpt>
<trkpt lat="55.034967000" lon="-2.229934000"><ele>228.9</ele><time>2018-04-17T12:24:59Z</time></trkpt>
<trkpt lat="55.034994000" lon="-2.229767000"><ele>228.1</ele><time>2018-04-17T12:25:06Z</time></trkpt>
<trkpt lat="55.035027000" lon="-2.229611000"><ele>227.4</ele><time>2018-04-17T12:25:13Z</time></trkpt>
<trkpt lat="55.035047000" lon="-2.229444000"><ele>226.6</ele><time>2018-04-17T12:25:21Z</time></trkpt>
<trkpt lat="55.035052000" lon="-2.229284000"><ele>225.9</ele><time>2018-04-17T12:25:27Z</time></trkpt>
<trkpt lat="55.035069000" lon="-2.229128000"><ele>225.2</ele><time>2018-04-17T12:25:34Z</time></trkpt>
<trkpt lat="55.035070000" lon="-2.228956000"><ele>224.5</ele><time>2018-04-17T12:25:41Z</time></trkpt>
<trkpt lat="55.035087000" lon="-2.228780000"><ele>224.0</ele><time>2018-04-17T12:25:48Z</time></trkpt>
<trkpt lat="55.035099000" lon="-2.228620000"><ele>223.5</ele><time>2018-04-17T12:25:56Z</time></trkpt>
<trkpt lat="55.035139000" lon="-2.228451000"><ele>223.2</ele><time>2018-04-17T12:26:04Z</time></trkpt>
<trkpt lat="55.035142000" lon="-2.228294000"><ele>222.8</ele><time>2018-04-17T12:26:11Z</time></trkpt>
<trkpt lat="55.035153000" lon="-2.228128000"><ele>222.4</ele><time>2018-04-17T12:26:18Z</time></trkpt>
<trkpt lat="55.035190000" lon="-2.227962000"><ele>222.0</ele><time>2018-04-17T12:26:26Z</time></trkpt>
<trkpt lat="55.035214000" lon="-2.227798000"><ele>221.5</ele><time>2018-04-17T12:26:33Z</time></trkpt>
<trkpt lat="55.035244000" lon="-2.227646000"><ele>221.1</ele><time>2018-04-17T12:26:41Z</time></trkpt>
<trkpt lat="55.035287000" lon="-2.227501000"><ele>220.7</ele><time>2018-04-17T12:26:49Z</time></trkpt>
<trkpt lat="55.035291000" lon="-2.227324000"><ele>220.4</ele><time>2018-04-17T12:26:57Z</time></trkpt>
<trkpt lat="55.035313000" lon="-2.227162000"><ele>220.0</ele><time>2018-04-17T12:27:04Z</time></trkpt>
<trkpt lat="55.035329000" lon="-2.227006000"><ele>219.5</ele><time>2018-04-17T12:27:12Z</time></trkpt>
<trkpt lat="55.035284000" lon="-2.226868000"><ele>219.1</ele><time>2018-04-17T12:27:54Z</time></trkpt>
<trkpt lat="55.035206000" lon="-2.226783000"><ele>218.6</ele><time>2018-04-17T12:28:01Z</time></trkpt>
<trkpt lat="55.035121000" lon="-2.226700000"><ele>218.2</ele><time>2018-04-17T12:28:18Z</time></trkpt>
<trkpt lat="55.035093000" lon="-2.226531000"><ele>217.9</ele><time>2018-04-17T12:29:01Z</time></trkpt>
<trkpt lat="55.035037000" lon="-2.226405000"><ele>217.5</ele><time>2018-04-17T12:29:10Z</time></trkpt>
<trkpt lat="55.034981000" lon="-2.226256000"><ele>217.3</ele><time>2018-04-17T12:29:20Z</time></trkpt>
<trkpt lat="55.034893000" lon="-2.226203000"><ele>217.0</ele><time>2018-04-17T12:29:29Z</time></trkpt>
<trkpt lat="55.034872000" lon="-2.226038000"><ele>216.7</ele><time>2018-04-17T12:29:37Z</time></trkpt>
<trkpt lat="55.034851000" lon="-2.225884000"><ele>216.5</ele><time>2018-04-17T12:29:56Z</time></trkpt>
<trkpt lat="55.034865000" lon="-2.225712000"><ele>216.4</ele><time>2018-04-17T12:30:06Z</time></trkpt>
<trkpt lat="55.034847000" lon="-2.225548000"><ele>216.3</ele><time>2018-04-17T12:30:13Z</time></trkpt>
<trkpt lat="55.034810000" lon="-2.225386000"><ele>216.3</ele><time>2018-04-17T12:30:21Z</time></trkpt>
<trkpt lat="55.034752000" lon="-2.225250000"><ele>216.2</ele><time>2018-04-17T12:30:28Z</time></trkpt>
<trkpt lat="55.034712000" lon="-2.225108000"><ele>216.2</ele><time>2018-04-17T12:30:35Z</time></trkpt>
<trkpt lat="55.034678000" lon="-2.224960000"><ele>216.1</ele><time>2018-04-17T12:30:43Z</time></trkpt>
<trkpt lat="55.034594000" lon="-2.224877000"><ele>216.2</ele><time>2018-04-17T12:30:50Z</time></trkpt>
<trkpt lat="55.034515000" lon="-2.224781000"><ele>216.3</ele><time>2018-04-17T12:30:57Z</time></trkpt>
<trkpt lat="55.034476000" lon="-2.224614000"><ele>216.4</ele><time>2018-04-17T12:31:08Z</time></trkpt>
<trkpt lat="55.034420000" lon="-2.224478000"><ele>216.4</ele><time>2018-04-17T12:31:16Z</time></trkpt>
<trkpt lat="55.034378000" lon="-2.224323000"><ele>216.4</ele><time>2018-04-17T12:31:26Z</time></trkpt>
<trkpt lat="55.034295000" lon="-2.224221000"><ele>216.4</ele><time>2018-04-17T12:31:35Z</time></trkpt>
<trkpt lat="55.034212000" lon="-2.224156000"><ele>216.4</ele><time>2018-04-17T12:31:45Z</time></trkpt>
<trkpt lat="55.034143000" lon="-2.224036000"><ele>216.3</ele><time>2018-04-17T12:31:55Z</time></trkpt>
<trkpt lat="55.034058000" lon="-2.223979000"><ele>216.2</ele><time>2018-04-17T12:32:04Z</time></trkpt>
<trkpt lat="55.034002000" lon="-2.223854000"><ele>216.1</ele><time>2018-04-17T12:32:16Z</time></trkpt>
<trkpt lat="55.033948000" lon="-2.223726000"><ele>216.0</ele><time>2018-04-17T12:32:23Z</time></trkpt>
<trkpt lat="55.033866000" lon="-2.223621000"><ele>215.8</ele><time>2018-04-17T12:32:33Z</time></trkpt>
<trkpt lat="55.033793000" lon="-2.223529000"><ele>215.5</ele><time>2018-04-17T12:32:41Z</time></trkpt>
<trkpt lat="55.033786000" lon="-2.223367000"><ele>215.4</ele><time>2018-04-17T12:32:51Z</time></trkpt>
<trkpt lat="55.033751000" lon="-2.223219000"><ele>215.4</ele><time>2018-04-17T12:33:03Z</time></trkpt>
<trkpt lat="55.033819000" lon="-2.223100000"><ele>215.4</ele><time>2018-04-17T12:33:36Z</time></trkpt>
<trkpt lat="55.033881000" lon="-2.222984000"><ele>215.4</ele><time>2018-04-17T12:35:30Z</time></trkpt>
<trkpt lat="55.033900000" lon="-2.222829000"><ele>215.3</ele><time>2018-04-17T12:35:45Z</time></trkpt>
<trkpt lat="55.033967000" lon="-2.222708000"><ele>215.2</ele><time>2018-04-17T12:35:54Z</time></trkpt>
<trkpt lat="55.033992000" lon="-2.222546000"><ele>215.2</ele><time>2018-04-17T12:36:05Z</time></trkpt>
<trkpt lat="55.033931000" lon="-2.222412000"><ele>215.3</ele><time>2018-04-17T12:36:15Z</time></trkpt>
<trkpt lat="55.033870000" lon="-2.222290000"><ele>215.5</ele><time>2018-04-17T12:36:22Z</time></trkpt>
<trkpt lat="55.033823000" lon="-2.222439000"><ele>215.6</ele><time>2018-04-17T12:36:59Z</time></trkpt>
<trkpt lat="55.033884000" lon="-2.222559000"><ele>216.0</ele><time>2018-04-17T12:37:11Z</time></trkpt>
<trkpt lat="55.033885000" lon="-2.222400000"><ele>216.4</ele><time>2018-04-17T12:38:54Z</time></trkpt>
<trkpt lat="55.033857000" lon="-2.222246000"><ele>216.7</ele><time>2018-04-17T12:40:07Z</time></trkpt>
<trkpt lat="55.033945000" lon="-2.222157000"><ele>217.1</ele><time>2018-04-17T12:40:17Z</time></trkpt>
<trkpt lat="55.034020000" lon="-2.222061000"><ele>217.5</ele><time>2018-04-17T12:40:26Z</time></trkpt>
<trkpt lat="55.034072000" lon="-2.221927000"><ele>218.0</ele><time>2018-04-17T12:40:38Z</time></trkpt>
<trkpt lat="55.034111000" lon="-2.221775000"><ele>218.6</ele><time>2018-04-17T12:40:46Z</time></trkpt>
<trkpt lat="55.034161000" lon="-2.221638000"><ele>219.3</ele><time>2018-04-17T12:40:54Z</time></trkpt>
<trkpt lat="55.034190000" lon="-2.221479000"><ele>219.9</ele><time>2018-04-17T12:41:04Z</time></trkpt>
<trkpt lat="55.034190000" lon="-2.221313000"><ele>220.5</ele><time>2018-04-17T12:41:13Z</time></trkpt>
<trkpt lat="55.034223000" lon="-2.221163000"><ele>221.0</ele><time>2018-04-17T12:41:22Z</time></trkpt>
<trkpt lat="55.034268000" lon="-2.221025000"><ele>221.5</ele><time>2018-04-17T12:41:30Z</time></trkpt>
<trkpt lat="55.034291000" lon="-2.220861000"><ele>222.1</ele><time>2018-04-17T12:41:39Z</time></trkpt>
<trkpt lat="55.034381000" lon="-2.220825000"><ele>222.5</ele><time>2018-04-17T12:41:54Z</time></trkpt>
<trkpt lat="55.034435000" lon="-2.220955000"><ele>223.0</ele><time>2018-04-17T12:42:02Z</time></trkpt>
<trkpt lat="55.034502000" lon="-2.221071000"><ele>223.5</ele><time>2018-04-17T12:42:36Z</time></trkpt>
<trkpt lat="55.034601000" lon="-2.221043000"><ele>223.8</ele><time>2018-04-17T12:42:47Z</time></trkpt>
<trkpt lat="55.034696000" lon="-2.221108000"><ele>224.1</ele><time>2018-04-17T12:42:54Z</time></trkpt>
<trkpt lat="55.034792000" lon="-2.221131000"><ele>224.4</ele><time>2018-04-17T12:43:09Z</time></trkpt>
<trkpt lat="55.034890000" lon="-2.221127000"><ele>224.5</ele><time>2018-04-17T12:43:17Z</time></trkpt>
<trkpt lat="55.034979000" lon="-2.221196000"><ele>224.8</ele><time>2018-04-17T12:43:25Z</time></trkpt>
<trkpt lat="55.035077000" lon="-2.221218000"><ele>225.1</ele><time>2018-04-17T12:43:34Z</time></trkpt>
<trkpt lat="55.035177000" lon="-2.221213000"><ele>225.4</ele><time>2018-04-17T12:43:43Z</time></trkpt>
<trkpt lat="55.035236000" lon="-2.221083000"><ele>225.5</ele><time>2018-04-17T12:43:53Z</time></trkpt>
<trkpt lat="55.035291000" lon="-2.220958000"><ele>225.5</ele><time>2018-04-17T12:44:06Z</time></trkpt>
<trkpt lat="55.035388000" lon="-2.220948000"><ele>225.6</ele><time>2018-04-17T12:45:09Z</time></trkpt>
<trkpt lat="55.035439000" lon="-2.220796000"><ele>225.8</ele><time>2018-04-17T12:45:25Z</time></trkpt>
<trkpt lat="55.035458000" lon="-2.220635000"><ele>226.0</ele><time>2018-04-17T13:03:24Z</time></trkpt>
<trkpt lat="55.035451000" lon="-2.220796000"><ele>226.2</ele><time>2018-04-17T13:10:11Z</time></trkpt>
<trkpt lat="55.035414000" lon="-2.220949000"><ele>226.4</ele><time>2018-04-17T13:12:59Z</time></trkpt>
<trkpt lat="55.035373000" lon="-2.220790000"><ele>226.5</ele><time>2018-04-17T13:13:21Z</time></trkpt>
<trkpt lat="55.035395000" lon="-2.220614000"><ele>226.6</ele><time>2018-04-17T13:13:28Z</time></trkpt>
<trkpt lat="55.035422000" lon="-2.220459000"><ele>226.7</ele><time>2018-04-17T13:13:35Z</time></trkpt>
<trkpt lat="55.035435000" lon="-2.220300000"><ele>226.7</ele><time>2018-04-17T13:13:42Z</time></trkpt>
<trkpt lat="55.035447000" lon="-2.220136000"><ele>226.9</ele><time>2018-04-17T13:13:50Z</time></trkpt>
<trkpt lat="55.035464000" lon="-2.219957000"><ele>227.1</ele><time>2018-04-17T13:13:58Z</time></trkpt>
<trkpt lat="55.035499000" lon="-2.219803000"><ele>227.3</ele><time>2018-04-17T13:14:05Z</time></trkpt>
<trkpt lat="55.035541000" lon="-2.219660000"><ele>227.5</ele><time>2018-04-17T13:14:12Z</time></trkpt>
<trkpt lat="55.035600000" lon="-2.219524000"><ele>227.7</ele><time>2018-04-17T13:14:19Z</time></trkpt>
<trkpt lat="55.035653000" lon="-2.219378000"><ele>228.0</ele><time>2018-04-17T13:14:26Z</time></trkpt>
<trkpt lat="55.035720000" lon="-2.219246000"><ele>228.4</ele><time>2018-04-17T13:14:35Z</time></trkpt>
<trkpt lat="55.035772000" lon="-2.219097000"><ele>228.7</ele><time>2018-04-17T13:14:43Z</time></trkpt>
<trkpt lat="55.035799000" lon="-2.218930000"><ele>229.1</ele><time>2018-04-17T13:14:58Z</time></trkpt>
<trkpt lat="55.035842000" lon="-2.218764000"><ele>229.5</ele><time>2018-04-17T13:15:07Z</time></trkpt>
<trkpt lat="55.035847000" lon="-2.218595000"><ele>230.0</ele><time>2018-04-17T13:15:14Z</time></trkpt>
<trkpt lat="55.035853000" lon="-2.218428000"><ele>230.4</ele><time>2018-04-17T13:15:21Z</time></trkpt>
<trkpt lat="55.035852000" lon="-2.218261000"><ele>230.7</ele><time>2018-04-17T13:15:29Z</time></trkpt>
<trkpt lat="55.035841000" lon="-2.218082000"><ele>231.1</ele><time>2018-04-17T13:15:37Z</time></trkpt>
<trkpt lat="55.035865000" lon="-2.217926000"><ele>231.4</ele><time>2018-04-17T13:15:45Z</time></trkpt>
<trkpt lat="55.035886000" lon="-2.217759000"><ele>231.5</ele><time>2018-04-17T13:15:54Z</time></trkpt>
<trkpt lat="55.035912000" lon="-2.217604000"><ele>231.7</ele><time>2018-04-17T13:16:01Z</time></trkpt>
<trkpt lat="55.035956000" lon="-2.217462000"><ele>231.8</ele><time>2018-04-17T13:16:09Z</time></trkpt>
<trkpt lat="55.036000000" lon="-2.217325000"><ele>231.9</ele><time>2018-04-17T13:16:16Z</time></trkpt>
<trkpt lat="55.036017000" lon="-2.217161000"><ele>232.0</ele><time>2018-04-17T13:16:25Z</time></trkpt>
<trkpt lat="55.036007000" lon="-2.216989000"><ele>232.1</ele><time>2018-04-17T13:16:33Z</time></trkpt>
<trkpt lat="55.036029000" lon="-2.216836000"><ele>232.2</ele><time>2018-04-17T13:16:40Z</time></trkpt>
<trkpt lat="55.036043000" lon="-2.216672000"><ele>232.4</ele><time>2018-04-17T13:16:49Z</time></trkpt>
<trkpt lat="55.036046000" lon="-2.216515000"><ele>232.5</ele><time>2018-04-17T13:16:56Z</time></trkpt>
<trkpt lat="55.036056000" lon="-2.216354000"><ele>232.8</ele><time>2018-04-17T13:17:03Z</time></trkpt>
<trkpt lat="55.036067000" lon="-2.216197000"><ele>233.1</ele><time>2018-04-17T13:17:10Z</time></trkpt>
<trkpt lat="55.036088000" lon="-2.216033000"><ele>233.4</ele><time>2018-04-17T13:17:17Z</time></trkpt>
<trkpt lat="55.036091000" lon="-2.215865000"><ele>233.6</ele><time>2018-04-17T13:17:26Z</time></trkpt>
<trkpt lat="55.036107000" lon="-2.215697000"><ele>234.0</ele><time>2018-04-17T13:17:33Z</time></trkpt>
<trkpt lat="55.036114000" lon="-2.215533000"><ele>234.4</ele><time>2018-04-17T13:17:41Z</time></trkpt>
<trkpt lat="55.036134000" lon="-2.215354000"><ele>234.8</ele><time>2018-04-17T13:17:50Z</time></trkpt>
<trkpt lat="55.036144000" lon="-2.215165000"><ele>235.2</ele><time>2018-04-17T13:17:59Z</time></trkpt>
<trkpt lat="55.036170000" lon="-2.214996000"><ele>235.5</ele><time>2018-04-17T13:18:06Z</time></trkpt>
<trkpt lat="55.036206000" lon="-2.214841000"><ele>235.8</ele><time>2018-04-17T13:18:14Z</time></trkpt>
<trkpt lat="55.036221000" lon="-2.214683000"><ele>236.2</ele><time>2018-04-17T13:18:20Z</time></trkpt>
<trkpt lat="55.036245000" lon="-2.214524000"><ele>236.5</ele><time>2018-04-17T13:18:28Z</time></trkpt>
<trkpt lat="55.036272000" lon="-2.214364000"><ele>236.8</ele><time>2018-04-17T13:18:35Z</time></trkpt>
<trkpt lat="55.036333000" lon="-2.214501000"><ele>237.2</ele><time>2018-04-17T13:19:30Z</time></trkpt>
<trkpt lat="55.036372000" lon="-2.214645000"><ele>237.5</ele><time>2018-04-17T13:19:37Z</time></trkpt>
<trkpt lat="55.036461000" lon="-2.214692000"><ele>237.9</ele><time>2018-04-17T13:20:19Z</time></trkpt>
<trkpt lat="55.036527000" lon="-2.214577000"><ele>238.3</ele><time>2018-04-17T13:20:35Z</time></trkpt>
<trkpt lat="55.036555000" lon="-2.214414000"><ele>238.5</ele><time>2018-04-17T13:20:42Z</time></trkpt>
<trkpt lat="55.036584000" lon="-2.214259000"><ele>238.8</ele><time>2018-04-17T13:20:47Z</time></trkpt>
<trkpt lat="55.036598000" lon="-2.214096000"><ele>239.1</ele><time>2018-04-17T13:20:54Z</time></trkpt>
<trkpt lat="55.036595000" lon="-2.213936000"><ele>239.4</ele><time>2018-04-17T13:21:00Z</time></trkpt>
<trkpt lat="55.036592000" lon="-2.213765000"><ele>239.5</ele><time>2018-04-17T13:21:07Z</time></trkpt>
<trkpt lat="55.036586000" lon="-2.213596000"><ele>239.6</ele><time>2018-04-17T13:21:14Z</time></trkpt>
<trkpt lat="55.036607000" lon="-2.213426000"><ele>239.6</ele><time>2018-04-17T13:21:21Z</time></trkpt>
<trkpt lat="55.036619000" lon="-2.213267000"><ele>239.6</ele><time>2018-04-17T13:21:27Z</time></trkpt>
<trkpt lat="55.036628000" lon="-2.213082000"><ele>239.6</ele><time>2018-04-17T13:21:34Z</time></trkpt>
<trkpt lat="55.036664000" lon="-2.212917000"><ele>239.5</ele><time>2018-04-17T13:21:41Z</time></trkpt>
<trkpt lat="55.036674000" lon="-2.212746000"><ele>239.5</ele><time>2018-04-17T13:21:47Z</time></trkpt>
<trkpt lat="55.036685000" lon="-2.212588000"><ele>239.4</ele><time>2018-04-17T13:21:54Z</time></trkpt>
<trkpt lat="55.036729000" lon="-2.212435000"><ele>239.3</ele><time>2018-04-17T13:22:02Z</time></trkpt>
<trkpt lat="55.036737000" lon="-2.212278000"><ele>239.2</ele><time>2018-04-17T13:22:11Z</time></trkpt>
<trkpt lat="55.036751000" lon="-2.212122000"><ele>239.2</ele><time>2018-04-17T13:22:22Z</time></trkpt>
<trkpt lat="55.036803000" lon="-2.211978000"><ele>239.2</ele><time>2018-04-17T13:22:31Z</time></trkpt>
<trkpt lat="55.036808000" lon="-2.211806000"><ele>239.4</ele><time>2018-04-17T13:22:39Z</time></trkpt>
<trkpt lat="55.036813000" lon="-2.211637000"><ele>239.5</ele><time>2018-04-17T13:22:47Z</time></trkpt>
<trkpt lat="55.036819000" lon="-2.211479000"><ele>239.7</ele><time>2018-04-17T13:22:54Z</time></trkpt>
<trkpt lat="55.036829000" lon="-2.211313000"><ele>239.9</ele><time>2018-04-17T13:23:02Z</time></trkpt>
<trkpt lat="55.036827000" lon="-2.211145000"><ele>240.1</ele><time>2018-04-17T13:23:09Z</time></trkpt>
<trkpt lat="55.036846000" lon="-2.210990000"><ele>240.3</ele><time>2018-04-17T13:23:16Z</time></trkpt>
<trkpt lat="55.036875000" lon="-2.210828000"><ele>240.5</ele><time>2018-04-17T13:23:24Z</time></trkpt>
<trkpt lat="55.036887000" lon="-2.210671000"><ele>240.6</ele><time>2018-04-17T13:23:30Z</time></trkpt>
<trkpt lat="55.036890000" lon="-2.210510000"><ele>240.7</ele><time>2018-04-17T13:23:36Z</time></trkpt>
<trkpt lat="55.036903000" lon="-2.210334000"><ele>240.7</ele><time>2018-04-17T13:23:43Z</time></trkpt>
<trkpt lat="55.036921000" lon="-2.210161000"><ele>240.6</ele><time>2018-04-17T13:23:51Z</time></trkpt>
<trkpt lat="55.036938000" lon="-2.209989000"><ele>240.5</ele><time>2018-04-17T13:23:58Z</time></trkpt>
<trkpt lat="55.036966000" lon="-2.209830000"><ele>240.3</ele><time>2018-04-17T13:24:05Z</time></trkpt>
<trkpt lat="55.036984000" lon="-2.209659000"><ele>240.1</ele><time>2018-04-17T13:24:12Z</time></trkpt>
<trkpt lat="55.037003000" lon="-2.209489000"><ele>239.9</ele><time>2018-04-17T13:24:19Z</time></trkpt>
<trkpt lat="55.037035000" lon="-2.209342000"><ele>239.7</ele><time>2018-04-17T13:24:26Z</time></trkpt>
<trkpt lat="55.037032000" lon="-2.209167000"><ele>239.5</ele><time>2018-04-17T13:24:34Z</time></trkpt>
<trkpt lat="55.037084000" lon="-2.209036000"><ele>239.2</ele><time>2018-04-17T13:24:40Z</time></trkpt>
<trkpt lat="55.037109000" lon="-2.208872000"><ele>238.8</ele><time>2018-04-17T13:24:48Z</time></trkpt>
<trkpt lat="55.037105000" lon="-2.208696000"><ele>238.5</ele><time>2018-04-17T13:24:56Z</time></trkpt>
<trkpt lat="55.037088000" lon="-2.208534000"><ele>238.1</ele><time>2018-04-17T13:25:18Z</time></trkpt>
<trkpt lat="55.037111000" lon="-2.208358000"><ele>237.7</ele><time>2018-04-17T13:25:25Z</time></trkpt>
<trkpt lat="55.037133000" lon="-2.208188000"><ele>237.3</ele><time>2018-04-17T13:25:31Z</time></trkpt>
<trkpt lat="55.037150000" lon="-2.208022000"><ele>236.8</ele><time>2018-04-17T13:25:38Z</time></trkpt>
<trkpt lat="55.037171000" lon="-2.207851000"><ele>236.3</ele><time>2018-04-17T13:25:46Z</time></trkpt>
<trkpt lat="55.037178000" lon="-2.207678000"><ele>235.7</ele><time>2018-04-17T13:25:53Z</time></trkpt>
<trkpt lat="55.037207000" lon="-2.207523000"><ele>235.1</ele><time>2018-04-17T13:26:00Z</time></trkpt>
<trkpt lat="55.037236000" lon="-2.207358000"><ele>234.5</ele><time>2018-04-17T13:26:09Z</time></trkpt>
<trkpt lat="55.037252000" lon="-2.207194000"><ele>234.0</ele><time>2018-04-17T13:26:16Z</time></trkpt>
<trkpt lat="55.037267000" lon="-2.207016000"><ele>233.5</ele><time>2018-04-17T13:26:24Z</time></trkpt>
<trkpt lat="55.037270000" lon="-2.206849000"><ele>233.2</ele><time>2018-04-17T13:26:33Z</time></trkpt>
<trkpt lat="55.037276000" lon="-2.206681000"><ele>232.7</ele><time>2018-04-17T13:26:41Z</time></trkpt>
<trkpt lat="55.037281000" lon="-2.206513000"><ele>232.5</ele><time>2018-04-17T13:26:48Z</time></trkpt>
<trkpt lat="55.037309000" lon="-2.206352000"><ele>232.3</ele><time>2018-04-17T13:26:56Z</time></trkpt>
<trkpt lat="55.037322000" lon="-2.206190000"><ele>232.1</ele><time>2018-04-17T13:27:04Z</time></trkpt>
<trkpt lat="55.037347000" lon="-2.206020000"><ele>232.0</ele><time>2018-04-17T13:27:12Z</time></trkpt>
<trkpt lat="55.037361000" lon="-2.205853000"><ele>231.9</ele><time>2018-04-17T13:27:19Z</time></trkpt>
<trkpt lat="55.037378000" lon="-2.205692000"><ele>231.8</ele><time>2018-04-17T13:27:25Z</time></trkpt>
<trkpt lat="55.037393000" lon="-2.205534000"><ele>231.7</ele><time>2018-04-17T13:27:32Z</time></trkpt>
<trkpt lat="55.037409000" lon="-2.205374000"><ele>231.6</ele><time>2018-04-17T13:27:39Z</time></trkpt>
<trkpt lat="55.037427000" lon="-2.205211000"><ele>231.5</ele><time>2018-04-17T13:27:46Z</time></trkpt>
<trkpt lat="55.037448000" lon="-2.205055000"><ele>231.5</ele><time>2018-04-17T13:27:52Z</time></trkpt>
<trkpt lat="55.037459000" lon="-2.204884000"><ele>231.5</ele><time>2018-04-17T13:27:59Z</time></trkpt>
<trkpt lat="55.037476000" lon="-2.204720000"><ele>231.4</ele><time>2018-04-17T13:28:07Z</time></trkpt>
<trkpt lat="55.037498000" lon="-2.204564000"><ele>231.3</ele><time>2018-04-17T13:28:16Z</time></trkpt>
<trkpt lat="55.037528000" lon="-2.204409000"><ele>231.2</ele><time>2018-04-17T13:28:51Z</time></trkpt>
<trkpt lat="55.037491000" lon="-2.204263000"><ele>231.2</ele><time>2018-04-17T13:29:02Z</time></trkpt>
<trkpt lat="55.037510000" lon="-2.204096000"><ele>231.2</ele><time>2018-04-17T13:29:18Z</time></trkpt>
<trkpt lat="55.037521000" lon="-2.203924000"><ele>231.3</ele><time>2018-04-17T13:29:25Z</time></trkpt>
<trkpt lat="55.037533000" lon="-2.203764000"><ele>231.5</ele><time>2018-04-17T13:29:31Z</time></trkpt>
<trkpt lat="55.037556000" lon="-2.203594000"><ele>231.7</ele><time>2018-04-17T13:29:38Z</time></trkpt>
<trkpt lat="55.037571000" lon="-2.203430000"><ele>232.0</ele><time>2018-04-17T13:29:45Z</time></trkpt>
<trkpt lat="55.037595000" lon="-2.203256000"><ele>232.3</ele><time>2018-04-17T13:29:53Z</time></trkpt>
<trkpt lat="55.037610000" lon="-2.203098000"><ele>232.6</ele><time>2018-04-17T13:30:01Z</time></trkpt>
<trkpt lat="55.037622000" lon="-2.202931000"><ele>233.0</ele><time>2018-04-17T13:30:09Z</time></trkpt>
<trkpt lat="55.037637000" lon="-2.202764000"><ele>233.4</ele><time>2018-04-17T13:30:16Z</time></trkpt>
<trkpt lat="55.037660000" lon="-2.202601000"><ele>233.7</ele><time>2018-04-17T13:30:23Z</time></trkpt>
<trkpt lat="55.037667000" lon="-2.202436000"><ele>234.1</ele><time>2018-04-17T13:30:31Z</time></trkpt>
<trkpt lat="55.037687000" lon="-2.202268000"><ele>234.5</ele><time>2018-04-17T13:30:38Z</time></trkpt>
<trkpt lat="55.037713000" lon="-2.202101000"><ele>234.8</ele><time>2018-04-17T13:30:45Z</time></trkpt>
<trkpt lat="55.037728000" lon="-2.201929000"><ele>235.2</ele><time>2018-04-17T13:30:54Z</time></trkpt>
<trkpt lat="55.037735000" lon="-2.201749000"><ele>235.4</ele><time>2018-04-17T13:31:02Z</time></trkpt>
<trkpt lat="55.037754000" lon="-2.201580000"><ele>235.5</ele><time>2018-04-17T13:31:09Z</time></trkpt>
<trkpt lat="55.037776000" lon="-2.201425000"><ele>235.8</ele><time>2018-04-17T13:31:16Z</time></trkpt>
<trkpt lat="55.037795000" lon="-2.201267000"><ele>236.0</ele><time>2018-04-17T13:31:23Z</time></trkpt>
<trkpt lat="55.037804000" lon="-2.201100000"><ele>236.2</ele><time>2018-04-17T13:31:30Z</time></trkpt>
<trkpt lat="55.037834000" lon="-2.200946000"><ele>236.4</ele><time>2018-04-17T13:31:36Z</time></trkpt>
<trkpt lat="55.037857000" lon="-2.200785000"><ele>236.6</ele><time>2018-04-17T13:31:43Z</time></trkpt>
<trkpt lat="55.037863000" lon="-2.200621000"><ele>236.8</ele><time>2018-04-17T13:31:51Z</time></trkpt>
<trkpt lat="55.037889000" lon="-2.200452000"><ele>237.0</ele><time>2018-04-17T13:31:58Z</time></trkpt>
<trkpt lat="55.037912000" lon="-2.200299000"><ele>237.2</ele><time>2018-04-17T13:32:06Z</time></trkpt>
<trkpt lat="55.037921000" lon="-2.200132000"><ele>237.4</ele><time>2018-04-17T13:32:43Z</time></trkpt>
<trkpt lat="55.037983000" lon="-2.199993000"><ele>237.7</ele><time>2018-04-17T13:32:54Z</time></trkpt>
<trkpt lat="55.038029000" lon="-2.199831000"><ele>238.1</ele><time>2018-04-17T13:33:01Z</time></trkpt>
<trkpt lat="55.038062000" lon="-2.199670000"><ele>238.5</ele><time>2018-04-17T13:33:08Z</time></trkpt>
<trkpt lat="55.038102000" lon="-2.199522000"><ele>238.8</ele><time>2018-04-17T13:33:15Z</time></trkpt>
<trkpt lat="55.038129000" lon="-2.199358000"><ele>239.3</ele><time>2018-04-17T13:33:24Z</time></trkpt>
<trkpt lat="55.038110000" lon="-2.199196000"><ele>239.7</ele><time>2018-04-17T13:33:37Z</time></trkpt>
<trkpt lat="55.038161000" lon="-2.199051000"><ele>240.1</ele><time>2018-04-17T13:33:44Z</time></trkpt>
<trkpt lat="55.038218000" lon="-2.198922000"><ele>240.5</ele><time>2018-04-17T13:33:51Z</time></trkpt>
<trkpt lat="55.038282000" lon="-2.198792000"><ele>241.0</ele><time>2018-04-17T13:33:59Z</time></trkpt>
<trkpt lat="55.038321000" lon="-2.198635000"><ele>241.5</ele><time>2018-04-17T13:34:15Z</time></trkpt>
<trkpt lat="55.038388000" lon="-2.198526000"><ele>242.1</ele><time>2018-04-17T13:34:22Z</time></trkpt>
<trkpt lat="55.038445000" lon="-2.198380000"><ele>242.5</ele><time>2018-04-17T13:34:30Z</time></trkpt>
<trkpt lat="55.038506000" lon="-2.198242000"><ele>243.0</ele><time>2018-04-17T13:34:37Z</time></trkpt>
<trkpt lat="55.038539000" lon="-2.198092000"><ele>243.5</ele><time>2018-04-17T13:34:44Z</time></trkpt>
<trkpt lat="55.038520000" lon="-2.197923000"><ele>243.9</ele><time>2018-04-17T13:34:53Z</time></trkpt>
<trkpt lat="55.038558000" lon="-2.197775000"><ele>244.3</ele><time>2018-04-17T13:35:05Z</time></trkpt>
<trkpt lat="55.038572000" lon="-2.197617000"><ele>244.5</ele><time>2018-04-17T13:35:13Z</time></trkpt>
<trkpt lat="55.038590000" lon="-2.197453000"><ele>244.8</ele><time>2018-04-17T13:35:21Z</time></trkpt>
<trkpt lat="55.038615000" lon="-2.197287000"><ele>245.0</ele><time>2018-04-17T13:35:29Z</time></trkpt>
<trkpt lat="55.038629000" lon="-2.197128000"><ele>245.2</ele><time>2018-04-17T13:35:36Z</time></trkpt>
<trkpt lat="55.038631000" lon="-2.196956000"><ele>245.3</ele><time>2018-04-17T13:35:45Z</time></trkpt>
<trkpt lat="55.038646000" lon="-2.196800000"><ele>245.3</ele><time>2018-04-17T13:35:52Z</time></trkpt>
<trkpt lat="55.038663000" lon="-2.196630000"><ele>245.3</ele><time>2018-04-17T13:36:00Z</time></trkpt>
<trkpt lat="55.038682000" lon="-2.196472000"><ele>245.3</ele><time>2018-04-17T13:36:08Z</time></trkpt>
<trkpt lat="55.038697000" lon="-2.196303000"><ele>245.3</ele><time>2018-04-17T13:36:17Z</time></trkpt>
<trkpt lat="55.038727000" lon="-2.196148000"><ele>245.2</ele><time>2018-04-17T13:36:26Z</time></trkpt>
<trkpt lat="55.038739000" lon="-2.195992000"><ele>245.1</ele><time>2018-04-17T13:36:34Z</time></trkpt>
<trkpt lat="55.038761000" lon="-2.195815000"><ele>245.1</ele><time>2018-04-17T13:36:42Z</time></trkpt>
<trkpt lat="55.038793000" lon="-2.195668000"><ele>245.2</ele><time>2018-04-17T13:36:49Z</time></trkpt>
<trkpt lat="55.038813000" lon="-2.195512000"><ele>245.3</ele><time>2018-04-17T13:36:56Z</time></trkpt>
<trkpt lat="55.038847000" lon="-2.195351000"><ele>245.5</ele><time>2018-04-17T13:37:04Z</time></trkpt>
<trkpt lat="55.038864000" lon="-2.195178000"><ele>245.7</ele><time>2018-04-17T13:37:12Z</time></trkpt>
<trkpt lat="55.038885000" lon="-2.195024000"><ele>246.0</ele><time>2018-04-17T13:37:19Z</time></trkpt>
<trkpt lat="55.038876000" lon="-2.194863000"><ele>246.3</ele><time>2018-04-17T13:37:27Z</time></trkpt>
<trkpt lat="55.038878000" lon="-2.194690000"><ele>246.6</ele><time>2018-04-17T13:38:07Z</time></trkpt>
<trkpt lat="55.038866000" lon="-2.194533000"><ele>246.9</ele><time>2018-04-17T13:38:14Z</time></trkpt>
<trkpt lat="55.038818000" lon="-2.194395000"><ele>247.4</ele><time>2018-04-17T13:38:22Z</time></trkpt>
<trkpt lat="55.038794000" lon="-2.194238000"><ele>247.8</ele><time>2018-04-17T13:38:30Z</time></trkpt>
<trkpt lat="55.038759000" lon="-2.194085000"><ele>248.4</ele><time>2018-04-17T13:38:37Z</time></trkpt>
<trkpt lat="55.038734000" lon="-2.193912000"><ele>248.7</ele><time>2018-04-17T13:38:44Z</time></trkpt>
<trkpt lat="55.038696000" lon="-2.193765000"><ele>249.1</ele><time>2018-04-17T13:39:08Z</time></trkpt>
<trkpt lat="55.038658000" lon="-2.193619000"><ele>249.4</ele><time>2018-04-17T13:39:14Z</time></trkpt>
<trkpt lat="55.038611000" lon="-2.193484000"><ele>249.5</ele><time>2018-04-17T13:39:23Z</time></trkpt>
<trkpt lat="55.038579000" lon="-2.193337000"><ele>249.5</ele><time>2018-04-17T13:39:44Z</time></trkpt>
<trkpt lat="55.038557000" lon="-2.193167000"><ele>249.5</ele><time>2018-04-17T13:39:52Z</time></trkpt>
<trkpt lat="55.038501000" lon="-2.193031000"><ele>249.3</ele><time>2018-04-17T13:40:01Z</time></trkpt>
<trkpt lat="55.038431000" lon="-2.192930000"><ele>249.1</ele><time>2018-04-17T13:40:12Z</time></trkpt>
<trkpt lat="55.038431000" lon="-2.192761000"><ele>248.7</ele><time>2018-04-17T13:41:26Z</time></trkpt>
<trkpt lat="55.038415000" lon="-2.192594000"><ele>248.4</ele><time>2018-04-17T13:41:37Z</time></trkpt>
<trkpt lat="55.038369000" lon="-2.192425000"><ele>247.8</ele><time>2018-04-17T13:41:43Z</time></trkpt>
<trkpt lat="55.038327000" lon="-2.192273000"><ele>247.4</ele><time>2018-04-17T13:41:49Z</time></trkpt>
<trkpt lat="55.038293000" lon="-2.192104000"><ele>246.8</ele><time>2018-04-17T13:41:56Z</time></trkpt>
<trkpt lat="55.038246000" lon="-2.191957000"><ele>246.3</ele><time>2018-04-17T13:42:02Z</time></trkpt>
<trkpt lat="55.038211000" lon="-2.191784000"><ele>245.7</ele><time>2018-04-17T13:42:10Z</time></trkpt>
<trkpt lat="55.038176000" lon="-2.191628000"><ele>245.3</ele><time>2018-04-17T13:42:17Z</time></trkpt>
<trkpt lat="55.038138000" lon="-2.191481000"><ele>244.8</ele><time>2018-04-17T13:42:24Z</time></trkpt>
<trkpt lat="55.038106000" lon="-2.191327000"><ele>244.4</ele><time>2018-04-17T13:42:31Z</time></trkpt>
<trkpt lat="55.038054000" lon="-2.191193000"><ele>243.8</ele><time>2018-04-17T13:42:39Z</time></trkpt>
<trkpt lat="55.038007000" lon="-2.191037000"><ele>243.4</ele><time>2018-04-17T13:42:47Z</time></trkpt>
<trkpt lat="55.037978000" lon="-2.190883000"><ele>242.9</ele><time>2018-04-17T13:42:55Z</time></trkpt>
<trkpt lat="55.037983000" lon="-2.190715000"><ele>242.5</ele><time>2018-04-17T13:43:02Z</time></trkpt>
<trkpt lat="55.037947000" lon="-2.190566000"><ele>241.9</ele><time>2018-04-17T13:43:09Z</time></trkpt>
<trkpt lat="55.037889000" lon="-2.190407000"><ele>241.4</ele><time>2018-04-17T13:43:17Z</time></trkpt>
<trkpt lat="55.037810000" lon="-2.190314000"><ele>240.7</ele><time>2018-04-17T13:43:26Z</time></trkpt>
<trkpt lat="55.037799000" lon="-2.190141000"><ele>240.1</ele><time>2018-04-17T13:43:33Z</time></trkpt>
<trkpt lat="55.037753000" lon="-2.189999000"><ele>239.5</ele><time>2018-04-17T13:43:40Z</time></trkpt>
<trkpt lat="55.037709000" lon="-2.189843000"><ele>238.8</ele><time>2018-04-17T13:43:48Z</time></trkpt>
<trkpt lat="55.037684000" lon="-2.189686000"><ele>238.2</ele><time>2018-04-17T13:44:45Z</time></trkpt>
<trkpt lat="55.037644000" lon="-2.189525000"><ele>237.5</ele><time>2018-04-17T13:44:53Z</time></trkpt>
<trkpt lat="55.037608000" lon="-2.189374000"><ele>236.9</ele><time>2018-04-17T13:45:00Z</time></trkpt>
<trkpt lat="55.037581000" lon="-2.189224000"><ele>236.2</ele><time>2018-04-17T13:45:07Z</time></trkpt>
<trkpt lat="55.037533000" lon="-2.189072000"><ele>235.5</ele><time>2018-04-17T13:45:14Z</time></trkpt>
<trkpt lat="55.037485000" lon="-2.188927000"><ele>234.9</ele><time>2018-04-17T13:45:22Z</time></trkpt>
<trkpt lat="55.037432000" lon="-2.188790000"><ele>234.4</ele><time>2018-04-17T13:45:30Z</time></trkpt>
<trkpt lat="55.037436000" lon="-2.188625000"><ele>233.8</ele><time>2018-04-17T13:46:04Z</time></trkpt>
<trkpt lat="55.037439000" lon="-2.188465000"><ele>233.4</ele><time>2018-04-17T13:46:20Z</time></trkpt>
<trkpt lat="55.037384000" lon="-2.188337000"><ele>232.8</ele><time>2018-04-17T13:46:26Z</time></trkpt>
<trkpt lat="55.037352000" lon="-2.188190000"><ele>232.2</ele><time>2018-04-17T13:46:32Z</time></trkpt>
<trkpt lat="55.037334000" lon="-2.188025000"><ele>231.5</ele><time>2018-04-17T13:46:48Z</time></trkpt>
<trkpt lat="55.037312000" lon="-2.187870000"><ele>230.9</ele><time>2018-04-17T13:47:07Z</time></trkpt>
<trkpt lat="55.037260000" lon="-2.187726000"><ele>230.3</ele><time>2018-04-17T13:47:14Z</time></trkpt>
<trkpt lat="55.037219000" lon="-2.187569000"><ele>229.5</ele><time>2018-04-17T13:47:21Z</time></trkpt>
<trkpt lat="55.037188000" lon="-2.187412000"><ele>228.7</ele><time>2018-04-17T13:47:28Z</time></trkpt>
<trkpt lat="55.037149000" lon="-2.187263000"><ele>227.9</ele><time>2018-04-17T13:47:35Z</time></trkpt>
<trkpt lat="55.037105000" lon="-2.187110000"><ele>227.1</ele><time>2018-04-17T13:47:41Z</time></trkpt>
<trkpt lat="55.037074000" lon="-2.186959000"><ele>226.2</ele><time>2018-04-17T13:47:48Z</time></trkpt>
<trkpt lat="55.037041000" lon="-2.186807000"><ele>225.2</ele><time>2018-04-17T13:47:55Z</time></trkpt>
<trkpt lat="55.037003000" lon="-2.186642000"><ele>224.3</ele><time>2018-04-17T13:48:02Z</time></trkpt>
<trkpt lat="55.036959000" lon="-2.186492000"><ele>223.4</ele><time>2018-04-17T13:48:09Z</time></trkpt>
<trkpt lat="55.036931000" lon="-2.186331000"><ele>222.5</ele><time>2018-04-17T13:48:16Z</time></trkpt>
<trkpt lat="55.036892000" lon="-2.186175000"><ele>221.6</ele><time>2018-04-17T13:48:23Z</time></trkpt>
<trkpt lat="55.036854000" lon="-2.186012000"><ele>220.7</ele><time>2018-04-17T13:48:30Z</time></trkpt>
<trkpt lat="55.036821000" lon="-2.185859000"><ele>219.8</ele><time>2018-04-17T13:48:37Z</time></trkpt>
<trkpt lat="55.036779000" lon="-2.185719000"><ele>218.9</ele><time>2018-04-17T13:49:07Z</time></trkpt>
<trkpt lat="55.036736000" lon="-2.185573000"><ele>218.0</ele><time>2018-04-17T13:49:16Z</time></trkpt>
<trkpt lat="55.036702000" lon="-2.185426000"><ele>217.0</ele><time>2018-04-17T13:49:23Z</time></trkpt>
<trkpt lat="55.036663000" lon="-2.185259000"><ele>216.1</ele><time>2018-04-17T13:49:31Z</time></trkpt>
<trkpt lat="55.036618000" lon="-2.185107000"><ele>215.2</ele><time>2018-04-17T13:49:38Z</time></trkpt>
<trkpt lat="55.036571000" lon="-2.184956000"><ele>214.3</ele><time>2018-04-17T13:49:46Z</time></trkpt>
<trkpt lat="55.036531000" lon="-2.184791000"><ele>213.5</ele><time>2018-04-17T13:49:53Z</time></trkpt>
<trkpt lat="55.036491000" lon="-2.184625000"><ele>212.6</ele><time>2018-04-17T13:50:01Z</time></trkpt>
<trkpt lat="55.036446000" lon="-2.184463000"><ele>211.7</ele><time>2018-04-17T13:50:08Z</time></trkpt>
<trkpt lat="55.036432000" lon="-2.184305000"><ele>210.8</ele><time>2018-04-17T13:50:15Z</time></trkpt>
<trkpt lat="55.036382000" lon="-2.184160000"><ele>210.0</ele><time>2018-04-17T13:50:24Z</time></trkpt>
<trkpt lat="55.036332000" lon="-2.184020000"><ele>209.3</ele><time>2018-04-17T13:51:17Z</time></trkpt>
<trkpt lat="55.036332000" lon="-2.183839000"><ele>208.5</ele><time>2018-04-17T13:51:39Z</time></trkpt>
<trkpt lat="55.036295000" lon="-2.183687000"><ele>207.8</ele><time>2018-04-17T13:51:45Z</time></trkpt>
<trkpt lat="55.036251000" lon="-2.183532000"><ele>207.1</ele><time>2018-04-17T13:51:53Z</time></trkpt>
<trkpt lat="55.036222000" lon="-2.183367000"><ele>206.5</ele><time>2018-04-17T13:52:01Z</time></trkpt>
<trkpt lat="55.036188000" lon="-2.183214000"><ele>205.8</ele><time>2018-04-17T13:52:09Z</time></trkpt>
<trkpt lat="55.036166000" lon="-2.183051000"><ele>205.2</ele><time>2018-04-17T13:52:17Z</time></trkpt>
<trkpt lat="55.036130000" lon="-2.182887000"><ele>204.5</ele><time>2018-04-17T13:52:28Z</time></trkpt>
<trkpt lat="55.036099000" lon="-2.182735000"><ele>204.0</ele><time>2018-04-17T13:52:35Z</time></trkpt>
<trkpt lat="55.036062000" lon="-2.182588000"><ele>203.5</ele><time>2018-04-17T13:52:41Z</time></trkpt>
<trkpt lat="55.036026000" lon="-2.182427000"><ele>202.9</ele><time>2018-04-17T13:52:49Z</time></trkpt>
<trkpt lat="55.035934000" lon="-2.182443000"><ele>202.3</ele><time>2018-04-17T13:52:58Z</time></trkpt>
<trkpt lat="55.035899000" lon="-2.182296000"><ele>201.7</ele><time>2018-04-17T13:53:41Z</time></trkpt>
<trkpt lat="55.035843000" lon="-2.182112000"><ele>201.2</ele><time>2018-04-17T13:53:50Z</time></trkpt>
<trkpt lat="55.035799000" lon="-2.181960000"><ele>200.6</ele><time>2018-04-17T13:53:55Z</time></trkpt>
<trkpt lat="55.035772000" lon="-2.181800000"><ele>200.0</ele><time>2018-04-17T13:54:01Z</time></trkpt>
<trkpt lat="55.035732000" lon="-2.181648000"><ele>199.4</ele><time>2018-04-17T13:54:07Z</time></trkpt>
<trkpt lat="55.035669000" lon="-2.181536000"><ele>198.7</ele><time>2018-04-17T13:54:13Z</time></trkpt>
<trkpt lat="55.035597000" lon="-2.181415000"><ele>198.2</ele><time>2018-04-17T13:54:21Z</time></trkpt>
<trkpt lat="55.035559000" lon="-2.181272000"><ele>197.5</ele><time>2018-04-17T13:54:28Z</time></trkpt>
<trkpt lat="55.035514000" lon="-2.181124000"><ele>197.0</ele><time>2018-04-17T13:54:36Z</time></trkpt>
<trkpt lat="55.035478000" lon="-2.180970000"><ele>196.5</ele><time>2018-04-17T13:54:44Z</time></trkpt>
<trkpt lat="55.035420000" lon="-2.180840000"><ele>196.2</ele><time>2018-04-17T13:54:50Z</time></trkpt>
<trkpt lat="55.035359000" lon="-2.180717000"><ele>195.8</ele><time>2018-04-17T13:54:56Z</time></trkpt>
<trkpt lat="55.035306000" lon="-2.180576000"><ele>195.5</ele><time>2018-04-17T13:55:04Z</time></trkpt>
<trkpt lat="55.035258000" lon="-2.180422000"><ele>195.4</ele><time>2018-04-17T13:55:12Z</time></trkpt>
<trkpt lat="55.035219000" lon="-2.180276000"><ele>195.3</ele><time>2018-04-17T13:55:21Z</time></trkpt>
<trkpt lat="55.035166000" lon="-2.180148000"><ele>195.3</ele><time>2018-04-17T13:56:17Z</time></trkpt>
<trkpt lat="55.035114000" lon="-2.180009000"><ele>195.4</ele><time>2018-04-17T13:56:34Z</time></trkpt>
<trkpt lat="55.035092000" lon="-2.179852000"><ele>195.5</ele><time>2018-04-17T13:56:41Z</time></trkpt>
<trkpt lat="55.035064000" lon="-2.179700000"><ele>195.7</ele><time>2018-04-17T13:56:51Z</time></trkpt>
<trkpt lat="55.035058000" lon="-2.179538000"><ele>196.0</ele><time>2018-04-17T13:57:03Z</time></trkpt>
<trkpt lat="55.035028000" lon="-2.179387000"><ele>196.3</ele><time>2018-04-17T13:57:10Z</time></trkpt>
<trkpt lat="55.034979000" lon="-2.179255000"><ele>196.5</ele><time>2018-04-17T13:57:17Z</time></trkpt>
<trkpt lat="55.034967000" lon="-2.179095000"><ele>196.8</ele><time>2018-04-17T13:57:23Z</time></trkpt>
<trkpt lat="55.034929000" lon="-2.178947000"><ele>197.2</ele><time>2018-04-17T13:57:29Z</time></trkpt>
<trkpt lat="55.034883000" lon="-2.178788000"><ele>197.5</ele><time>2018-04-17T13:57:37Z</time></trkpt>
<trkpt lat="55.034848000" lon="-2.178639000"><ele>197.8</ele><time>2018-04-17T13:57:45Z</time></trkpt>
<trkpt lat="55.034826000" lon="-2.178480000"><ele>198.0</ele><time>2018-04-17T13:57:53Z</time></trkpt>
<trkpt lat="55.034791000" lon="-2.178326000"><ele>198.2</ele><time>2018-04-17T13:58:02Z</time></trkpt>
<trkpt lat="55.034762000" lon="-2.178167000"><ele>198.4</ele><time>2018-04-17T13:58:09Z</time></trkpt>
<trkpt lat="55.034719000" lon="-2.178014000"><ele>198.4</ele><time>2018-04-17T13:58:17Z</time></trkpt>
<trkpt lat="55.034730000" lon="-2.177840000"><ele>198.5</ele><time>2018-04-17T13:58:28Z</time></trkpt>
<trkpt lat="55.034702000" lon="-2.177688000"><ele>198.5</ele><time>2018-04-17T13:58:36Z</time></trkpt>
<trkpt lat="55.034649000" lon="-2.177539000"><ele>198.6</ele><time>2018-04-17T13:58:44Z</time></trkpt>
<trkpt lat="55.034629000" lon="-2.177379000"><ele>198.7</ele><time>2018-04-17T13:58:53Z</time></trkpt>
<trkpt lat="55.034598000" lon="-2.177231000"><ele>198.7</ele><time>2018-04-17T13:59:02Z</time></trkpt>
<trkpt lat="55.034557000" lon="-2.177064000"><ele>198.7</ele><time>2018-04-17T13:59:11Z</time></trkpt>
<trkpt lat="55.034524000" lon="-2.176902000"><ele>198.8</ele><time>2018-04-17T13:59:21Z</time></trkpt>
<trkpt lat="55.034524000" lon="-2.176725000"><ele>198.9</ele><time>2018-04-17T13:59:31Z</time></trkpt>
<trkpt lat="55.034518000" lon="-2.176562000"><ele>198.9</ele><time>2018-04-17T13:59:42Z</time></trkpt>
<trkpt lat="55.034477000" lon="-2.176415000"><ele>198.9</ele><time>2018-04-17T13:59:51Z</time></trkpt>
<trkpt lat="55.034439000" lon="-2.176273000"><ele>199.0</ele><time>2018-04-17T14:00:00Z</time></trkpt>
<trkpt lat="55.034445000" lon="-2.176110000"><ele>199.1</ele><time>2018-04-17T14:00:09Z</time></trkpt>
<trkpt lat="55.034431000" lon="-2.175945000"><ele>199.3</ele><time>2018-04-17T14:00:23Z</time></trkpt>
<trkpt lat="55.034442000" lon="-2.175776000"><ele>199.5</ele><time>2018-04-17T14:00:33Z</time></trkpt>
<trkpt lat="55.034420000" lon="-2.175617000"><ele>199.9</ele><time>2018-04-17T14:00:42Z</time></trkpt>
<trkpt lat="55.034388000" lon="-2.175470000"><ele>200.2</ele><time>2018-04-17T14:00:50Z</time></trkpt>
<trkpt lat="55.034374000" lon="-2.175315000"><ele>200.3</ele><time>2018-04-17T14:00:57Z</time></trkpt>
<trkpt lat="55.034321000" lon="-2.175161000"><ele>200.4</ele><time>2018-04-17T14:01:07Z</time></trkpt>
<trkpt lat="55.034312000" lon="-2.175003000"><ele>200.5</ele><time>2018-04-17T14:01:15Z</time></trkpt>
<trkpt lat="55.034271000" lon="-2.174855000"><ele>200.7</ele><time>2018-04-17T14:01:34Z</time></trkpt>
<trkpt lat="55.034339000" lon="-2.174735000"><ele>201.0</ele><time>2018-04-17T14:03:16Z</time></trkpt>
<trkpt lat="55.034431000" lon="-2.174750000"><ele>201.3</ele><time>2018-04-17T14:05:23Z</time></trkpt>
<trkpt lat="55.034444000" lon="-2.174592000"><ele>201.5</ele><time>2018-04-17T14:05:42Z</time></trkpt>
<trkpt lat="55.034430000" lon="-2.174418000"><ele>201.5</ele><time>2018-04-17T14:05:49Z</time></trkpt>
<trkpt lat="55.034422000" lon="-2.174256000"><ele>201.5</ele><time>2018-04-17T14:05:55Z</time></trkpt>
<trkpt lat="55.034411000" lon="-2.174098000"><ele>201.4</ele><time>2018-04-17T14:05:59Z</time></trkpt>
<trkpt lat="55.034402000" lon="-2.173937000"><ele>201.3</ele><time>2018-04-17T14:06:04Z</time></trkpt>
<trkpt lat="55.034406000" lon="-2.173779000"><ele>201.4</ele><time>2018-04-17T14:06:10Z</time></trkpt>
<trkpt lat="55.034418000" lon="-2.173618000"><ele>201.4</ele><time>2018-04-17T14:06:16Z</time></trkpt>
<trkpt lat="55.034421000" lon="-2.173449000"><ele>201.2</ele><time>2018-04-17T14:06:24Z</time></trkpt>
<trkpt lat="55.034414000" lon="-2.173288000"><ele>201.0</ele><time>2018-04-17T14:06:30Z</time></trkpt>
<trkpt lat="55.034419000" lon="-2.173127000"><ele>200.6</ele><time>2018-04-17T14:06:38Z</time></trkpt>
<trkpt lat="55.034418000" lon="-2.172962000"><ele>200.3</ele><time>2018-04-17T14:06:46Z</time></trkpt>
<trkpt lat="55.034431000" lon="-2.172785000"><ele>199.9</ele><time>2018-04-17T14:06:53Z</time></trkpt>
<trkpt lat="55.034450000" lon="-2.172611000"><ele>199.5</ele><time>2018-04-17T14:07:01Z</time></trkpt>
<trkpt lat="55.034466000" lon="-2.172442000"><ele>199.1</ele><time>2018-04-17T14:07:06Z</time></trkpt>
<trkpt lat="55.034481000" lon="-2.172274000"><ele>198.6</ele><time>2018-04-17T14:07:13Z</time></trkpt>
<trkpt lat="55.034477000" lon="-2.172092000"><ele>198.3</ele><time>2018-04-17T14:07:21Z</time></trkpt>
<trkpt lat="55.034473000" lon="-2.171925000"><ele>197.9</ele><time>2018-04-17T14:07:28Z</time></trkpt>
<trkpt lat="55.034451000" lon="-2.171769000"><ele>197.6</ele><time>2018-04-17T14:07:36Z</time></trkpt>
<trkpt lat="55.034419000" lon="-2.171601000"><ele>197.5</ele><time>2018-04-17T14:07:44Z</time></trkpt>
<trkpt lat="55.034334000" lon="-2.171510000"><ele>197.3</ele><time>2018-04-17T14:07:50Z</time></trkpt>
<trkpt lat="55.034272000" lon="-2.171381000"><ele>197.2</ele><time>2018-04-17T14:07:56Z</time></trkpt>
<trkpt lat="55.034189000" lon="-2.171285000"><ele>197.0</ele><time>2018-04-17T14:08:02Z</time></trkpt>
<trkpt lat="55.034093000" lon="-2.171274000"><ele>196.8</ele><time>2018-04-17T14:08:08Z</time></trkpt>
<trkpt lat="55.033987000" lon="-2.171290000"><ele>196.7</ele><time>2018-04-17T14:08:14Z</time></trkpt>
<trkpt lat="55.033891000" lon="-2.171290000"><ele>196.5</ele><time>2018-04-17T14:08:26Z</time></trkpt>
<trkpt lat="55.033816000" lon="-2.171180000"><ele>196.3</ele><time>2018-04-17T14:08:38Z</time></trkpt>
<trkpt lat="55.033721000" lon="-2.171166000"><ele>195.9</ele><time>2018-04-17T14:08:47Z</time></trkpt>
<trkpt lat="55.033622000" lon="-2.171146000"><ele>195.5</ele><time>2018-04-17T14:08:54Z</time></trkpt>
<trkpt lat="55.033522000" lon="-2.171137000"><ele>195.1</ele><time>2018-04-17T14:09:01Z</time></trkpt>
<trkpt lat="55.033426000" lon="-2.171145000"><ele>194.6</ele><time>2018-04-17T14:09:08Z</time></trkpt>
<trkpt lat="55.033345000" lon="-2.171072000"><ele>194.1</ele><time>2018-04-17T14:09:19Z</time></trkpt>
<trkpt lat="55.033316000" lon="-2.170908000"><ele>193.5</ele><time>2018-04-17T14:09:34Z</time></trkpt>
<trkpt lat="55.033241000" lon="-2.170791000"><ele>192.8</ele><time>2018-04-17T14:09:42Z</time></trkpt>
<trkpt lat="55.033178000" lon="-2.170669000"><ele>192.1</ele><time>2018-04-17T14:09:51Z</time></trkpt>
<trkpt lat="55.033105000" lon="-2.170539000"><ele>191.3</ele><time>2018-04-17T14:10:05Z</time></trkpt>
<trkpt lat="55.033054000" lon="-2.170410000"><ele>190.5</ele><time>2018-04-17T14:10:12Z</time></trkpt>
<trkpt lat="55.033004000" lon="-2.170275000"><ele>189.5</ele><time>2018-04-17T14:10:20Z</time></trkpt>
<trkpt lat="55.032949000" lon="-2.170138000"><ele>188.6</ele><time>2018-04-17T14:10:30Z</time></trkpt>
<trkpt lat="55.032896000" lon="-2.170004000"><ele>187.6</ele><time>2018-04-17T14:10:38Z</time></trkpt>
<trkpt lat="55.032851000" lon="-2.169850000"><ele>186.7</ele><time>2018-04-17T14:10:46Z</time></trkpt>
<trkpt lat="55.032813000" lon="-2.169708000"><ele>185.7</ele><time>2018-04-17T14:10:54Z</time></trkpt>
<trkpt lat="55.032790000" lon="-2.169536000"><ele>184.8</ele><time>2018-04-17T14:11:01Z</time></trkpt>
<trkpt lat="55.032752000" lon="-2.169393000"><ele>184.0</ele><time>2018-04-17T14:11:09Z</time></trkpt>
<trkpt lat="55.032720000" lon="-2.169234000"><ele>183.3</ele><time>2018-04-17T14:11:17Z</time></trkpt>
<trkpt lat="55.032668000" lon="-2.169089000"><ele>182.5</ele><time>2018-04-17T14:11:25Z</time></trkpt>
<trkpt lat="55.032630000" lon="-2.168946000"><ele>181.9</ele><time>2018-04-17T14:11:33Z</time></trkpt>
<trkpt lat="55.032609000" lon="-2.168786000"><ele>181.5</ele><time>2018-04-17T14:11:42Z</time></trkpt>
<trkpt lat="55.032567000" lon="-2.168642000"><ele>181.1</ele><time>2018-04-17T14:11:50Z</time></trkpt>
<trkpt lat="55.032516000" lon="-2.168512000"><ele>180.8</ele><time>2018-04-17T14:11:58Z</time></trkpt>
<trkpt lat="55.032485000" lon="-2.168364000"><ele>180.6</ele><time>2018-04-17T14:12:06Z</time></trkpt>
<trkpt lat="55.032424000" lon="-2.168224000"><ele>180.5</ele><time>2018-04-17T14:12:16Z</time></trkpt>
<trkpt lat="55.032343000" lon="-2.168128000"><ele>180.4</ele><time>2018-04-17T14:12:26Z</time></trkpt>
<trkpt lat="55.032314000" lon="-2.167971000"><ele>180.3</ele><time>2018-04-17T14:12:39Z</time></trkpt>
<trkpt lat="55.032288000" lon="-2.167805000"><ele>180.2</ele><time>2018-04-17T14:12:47Z</time></trkpt>
<trkpt lat="55.032248000" lon="-2.167651000"><ele>180.1</ele><time>2018-04-17T14:12:53Z</time></trkpt>
<trkpt lat="55.032215000" lon="-2.167504000"><ele>180.1</ele><time>2018-04-17T14:13:00Z</time></trkpt>
<trkpt lat="55.032193000" lon="-2.167347000"><ele>180.1</ele><time>2018-04-17T14:13:10Z</time></trkpt>
<trkpt lat="55.032145000" lon="-2.167209000"><ele>180.0</ele><time>2018-04-17T14:13:28Z</time></trkpt>
<trkpt lat="55.032126000" lon="-2.167053000"><ele>179.9</ele><time>2018-04-17T14:14:05Z</time></trkpt>
<trkpt lat="55.032109000" lon="-2.166899000"><ele>179.7</ele><time>2018-04-17T14:14:13Z</time></trkpt>
<trkpt lat="55.032107000" lon="-2.166736000"><ele>179.5</ele><time>2018-04-17T14:14:26Z</time></trkpt>
<trkpt lat="55.032081000" lon="-2.166583000"><ele>179.2</ele><time>2018-04-17T14:14:35Z</time></trkpt>
<trkpt lat="55.032082000" lon="-2.166406000"><ele>178.8</ele><time>2018-04-17T14:14:44Z</time></trkpt>
<trkpt lat="55.032097000" lon="-2.166245000"><ele>178.5</ele><time>2018-04-17T14:14:53Z</time></trkpt>
<trkpt lat="55.032071000" lon="-2.166080000"><ele>178.1</ele><time>2018-04-17T14:15:01Z</time></trkpt>
<trkpt lat="55.032061000" lon="-2.165921000"><ele>177.5</ele><time>2018-04-17T14:15:09Z</time></trkpt>
<trkpt lat="55.032058000" lon="-2.165758000"><ele>177.0</ele><time>2018-04-17T14:15:16Z</time></trkpt>
<trkpt lat="55.032044000" lon="-2.165577000"><ele>176.5</ele><time>2018-04-17T14:15:24Z</time></trkpt>
<trkpt lat="55.032015000" lon="-2.165401000"><ele>175.9</ele><time>2018-04-17T14:15:32Z</time></trkpt>
<trkpt lat="55.031999000" lon="-2.165233000"><ele>175.5</ele><time>2018-04-17T14:15:41Z</time></trkpt>
<trkpt lat="55.032022000" lon="-2.165075000"><ele>175.1</ele><time>2018-04-17T14:15:50Z</time></trkpt>
<trkpt lat="55.032018000" lon="-2.164913000"><ele>174.8</ele><time>2018-04-17T14:15:59Z</time></trkpt>
<trkpt lat="55.032011000" lon="-2.164746000"><ele>174.5</ele><time>2018-04-17T14:16:07Z</time></trkpt>
<trkpt lat="55.032008000" lon="-2.164580000"><ele>174.4</ele><time>2018-04-17T14:16:14Z</time></trkpt>
<trkpt lat="55.031995000" lon="-2.164424000"><ele>174.2</ele><time>2018-04-17T14:16:21Z</time></trkpt>
<trkpt lat="55.031960000" lon="-2.164266000"><ele>174.0</ele><time>2018-04-17T14:16:29Z</time></trkpt>
<trkpt lat="55.031935000" lon="-2.164104000"><ele>174.0</ele><time>2018-04-17T14:16:37Z</time></trkpt>
<trkpt lat="55.031887000" lon="-2.163949000"><ele>174.0</ele><time>2018-04-17T14:16:44Z</time></trkpt>
<trkpt lat="55.031862000" lon="-2.163792000"><ele>174.0</ele><time>2018-04-17T14:16:51Z</time></trkpt>
<trkpt lat="55.031837000" lon="-2.163639000"><ele>174.1</ele><time>2018-04-17T14:16:59Z</time></trkpt>
<trkpt lat="55.031805000" lon="-2.163489000"><ele>174.1</ele><time>2018-04-17T14:17:07Z</time></trkpt>
<trkpt lat="55.031781000" lon="-2.163317000"><ele>174.2</ele><time>2018-04-17T14:17:17Z</time></trkpt>
<trkpt lat="55.031778000" lon="-2.163150000"><ele>174.2</ele><time>2018-04-17T14:17:30Z</time></trkpt>
<trkpt lat="55.031763000" lon="-2.162994000"><ele>174.2</ele><time>2018-04-17T14:17:42Z</time></trkpt>
<trkpt lat="55.031755000" lon="-2.162832000"><ele>174.1</ele><time>2018-04-17T14:17:52Z</time></trkpt>
<trkpt lat="55.031814000" lon="-2.162707000"><ele>174.0</ele><time>2018-04-17T14:18:15Z</time></trkpt>
<trkpt lat="55.031787000" lon="-2.162552000"><ele>173.9</ele><time>2018-04-17T14:18:48Z</time></trkpt>
<trkpt lat="55.031755000" lon="-2.162398000"><ele>173.7</ele><time>2018-04-17T14:18:58Z</time></trkpt>
<trkpt lat="55.031715000" lon="-2.162248000"><ele>173.5</ele><time>2018-04-17T14:19:05Z</time></trkpt>
<trkpt lat="55.031696000" lon="-2.162088000"><ele>173.4</ele><time>2018-04-17T14:19:13Z</time></trkpt>
<trkpt lat="55.031647000" lon="-2.161947000"><ele>173.1</ele><time>2018-04-17T14:19:21Z</time></trkpt>
<trkpt lat="55.031585000" lon="-2.161801000"><ele>172.8</ele><time>2018-04-17T14:19:32Z</time></trkpt>
<trkpt lat="55.031560000" lon="-2.161634000"><ele>172.5</ele><time>2018-04-17T14:19:40Z</time></trkpt>
<trkpt lat="55.031519000" lon="-2.161492000"><ele>172.1</ele><time>2018-04-17T14:19:50Z</time></trkpt>
<trkpt lat="55.031481000" lon="-2.161332000"><ele>171.7</ele><time>2018-04-17T14:19:58Z</time></trkpt>
<trkpt lat="55.031446000" lon="-2.161172000"><ele>171.5</ele><time>2018-04-17T14:20:06Z</time></trkpt>
<trkpt lat="55.031436000" lon="-2.161004000"><ele>171.1</ele><time>2018-04-17T14:20:14Z</time></trkpt>
<trkpt lat="55.031423000" lon="-2.160844000"><ele>170.6</ele><time>2018-04-17T14:20:23Z</time></trkpt>
<trkpt lat="55.031411000" lon="-2.160665000"><ele>170.2</ele><time>2018-04-17T14:20:33Z</time></trkpt>
<trkpt lat="55.031385000" lon="-2.160508000"><ele>169.6</ele><time>2018-04-17T14:20:39Z</time></trkpt>
<trkpt lat="55.031345000" lon="-2.160362000"><ele>169.0</ele><time>2018-04-17T14:20:55Z</time></trkpt>
<trkpt lat="55.031352000" lon="-2.160206000"><ele>168.3</ele><time>2018-04-17T14:21:37Z</time></trkpt>
<trkpt lat="55.031371000" lon="-2.160052000"><ele>167.5</ele><time>2018-04-17T14:21:46Z</time></trkpt>
<trkpt lat="55.031404000" lon="-2.159899000"><ele>166.8</ele><time>2018-04-17T14:21:51Z</time></trkpt>
<trkpt lat="55.031435000" lon="-2.159743000"><ele>166.1</ele><time>2018-04-17T14:21:58Z</time></trkpt>
<trkpt lat="55.031485000" lon="-2.159590000"><ele>165.3</ele><time>2018-04-17T14:22:04Z</time></trkpt>
<trkpt lat="55.031525000" lon="-2.159431000"><ele>164.4</ele><time>2018-04-17T14:22:12Z</time></trkpt>
<trkpt lat="55.031570000" lon="-2.159288000"><ele>163.5</ele><time>2018-04-17T14:22:18Z</time></trkpt>
<trkpt lat="55.031620000" lon="-2.159130000"><ele>162.6</ele><time>2018-04-17T14:22:25Z</time></trkpt>
<trkpt lat="55.031657000" lon="-2.158974000"><ele>161.8</ele><time>2018-04-17T14:22:32Z</time></trkpt>
<trkpt lat="55.031686000" lon="-2.158807000"><ele>161.1</ele><time>2018-04-17T14:22:40Z</time></trkpt>
<trkpt lat="55.031720000" lon="-2.158659000"><ele>160.4</ele><time>2018-04-17T14:22:48Z</time></trkpt>
<trkpt lat="55.031750000" lon="-2.158496000"><ele>159.6</ele><time>2018-04-17T14:22:56Z</time></trkpt>
<trkpt lat="55.031800000" lon="-2.158339000"><ele>159.0</ele><time>2018-04-17T14:23:03Z</time></trkpt>
<trkpt lat="55.031844000" lon="-2.158196000"><ele>158.3</ele><time>2018-04-17T14:23:10Z</time></trkpt>
<trkpt lat="55.031898000" lon="-2.158058000"><ele>157.5</ele><time>2018-04-17T14:23:18Z</time></trkpt>
<trkpt lat="55.031930000" lon="-2.157907000"><ele>156.8</ele><time>2018-04-17T14:23:25Z</time></trkpt>
<trkpt lat="55.031998000" lon="-2.157801000"><ele>156.2</ele><time>2018-04-17T14:23:33Z</time></trkpt>
<trkpt lat="55.032047000" lon="-2.157669000"><ele>155.5</ele><time>2018-04-17T14:23:42Z</time></trkpt>
<trkpt lat="55.032068000" lon="-2.157513000"><ele>154.9</ele><time>2018-04-17T14:23:49Z</time></trkpt>
<trkpt lat="55.032095000" lon="-2.157345000"><ele>154.4</ele><time>2018-04-17T14:23:57Z</time></trkpt>
<trkpt lat="55.032110000" lon="-2.157185000"><ele>153.8</ele><time>2018-04-17T14:24:04Z</time></trkpt>
<trkpt lat="55.032118000" lon="-2.157002000"><ele>153.3</ele><time>2018-04-17T14:24:17Z</time></trkpt>
<trkpt lat="55.032137000" lon="-2.156836000"><ele>152.8</ele><time>2018-04-17T14:24:24Z</time></trkpt>
<trkpt lat="55.032144000" lon="-2.156666000"><ele>152.3</ele><time>2018-04-17T14:24:31Z</time></trkpt>
<trkpt lat="55.032159000" lon="-2.156501000"><ele>151.7</ele><time>2018-04-17T14:24:38Z</time></trkpt>
<trkpt lat="55.032158000" lon="-2.156343000"><ele>151.2</ele><time>2018-04-17T14:24:59Z</time></trkpt>
<trkpt lat="55.032184000" lon="-2.156174000"><ele>150.6</ele><time>2018-04-17T14:25:07Z</time></trkpt>
<trkpt lat="55.032222000" lon="-2.156009000"><ele>150.1</ele><time>2018-04-17T14:25:16Z</time></trkpt>
<trkpt lat="55.032268000" lon="-2.155870000"><ele>149.5</ele><time>2018-04-17T14:25:31Z</time></trkpt>
<trkpt lat="55.032291000" lon="-2.155709000"><ele>148.9</ele><time>2018-04-17T14:25:39Z</time></trkpt>
<trkpt lat="55.032301000" lon="-2.155530000"><ele>148.3</ele><time>2018-04-17T14:25:47Z</time></trkpt>
<trkpt lat="55.032302000" lon="-2.155351000"><ele>147.5</ele><time>2018-04-17T14:25:54Z</time></trkpt>
<trkpt lat="55.032314000" lon="-2.155187000"><ele>146.8</ele><time>2018-04-17T14:26:01Z</time></trkpt>
<trkpt lat="55.032314000" lon="-2.155026000"><ele>146.1</ele><time>2018-04-17T14:26:09Z</time></trkpt>
<trkpt lat="55.032339000" lon="-2.154857000"><ele>145.3</ele><time>2018-04-17T14:26:17Z</time></trkpt>
<trkpt lat="55.032344000" lon="-2.154685000"><ele>144.5</ele><time>2018-04-17T14:26:29Z</time></trkpt>
<trkpt lat="55.032339000" lon="-2.154515000"><ele>143.6</ele><time>2018-04-17T14:26:36Z</time></trkpt>
<trkpt lat="55.032334000" lon="-2.154344000"><ele>142.9</ele><time>2018-04-17T14:26:43Z</time></trkpt>
<trkpt lat="55.032333000" lon="-2.154187000"><ele>142.0</ele><time>2018-04-17T14:26:49Z</time></trkpt>
<trkpt lat="55.032346000" lon="-2.154028000"><ele>141.2</ele><time>2018-04-17T14:26:55Z</time></trkpt>
<trkpt lat="55.032338000" lon="-2.153853000"><ele>140.4</ele><time>2018-04-17T14:27:04Z</time></trkpt>
<trkpt lat="55.032364000" lon="-2.153679000"><ele>139.5</ele><time>2018-04-17T14:27:11Z</time></trkpt>
<trkpt lat="55.032386000" lon="-2.153516000"><ele>138.6</ele><time>2018-04-17T14:27:17Z</time></trkpt>
<trkpt lat="55.032388000" lon="-2.153347000"><ele>137.8</ele><time>2018-04-17T14:27:25Z</time></trkpt>
<trkpt lat="55.032397000" lon="-2.153182000"><ele>137.0</ele><time>2018-04-17T14:27:44Z</time></trkpt>
<trkpt lat="55.032408000" lon="-2.153020000"><ele>136.4</ele><time>2018-04-17T14:27:54Z</time></trkpt>
<trkpt lat="55.032412000" lon="-2.152860000"><ele>135.8</ele><time>2018-04-17T14:28:01Z</time></trkpt>
<trkpt lat="55.032407000" lon="-2.152703000"><ele>135.4</ele><time>2018-04-17T14:28:10Z</time></trkpt>
<trkpt lat="55.032334000" lon="-2.152602000"><ele>134.9</ele><time>2018-04-17T14:28:32Z</time></trkpt>
<trkpt lat="55.032233000" lon="-2.152597000"><ele>134.5</ele><time>2018-04-17T14:28:53Z</time></trkpt>
<trkpt lat="55.032135000" lon="-2.152570000"><ele>134.2</ele><time>2018-04-17T14:29:00Z</time></trkpt>
<trkpt lat="55.032044000" lon="-2.152547000"><ele>133.9</ele><time>2018-04-17T14:29:07Z</time></trkpt>
<trkpt lat="55.031941000" lon="-2.152496000"><ele>133.7</ele><time>2018-04-17T14:29:15Z</time></trkpt>
<trkpt lat="55.031847000" lon="-2.152439000"><ele>133.5</ele><time>2018-04-17T14:29:22Z</time></trkpt>
<trkpt lat="55.031759000" lon="-2.152370000"><ele>133.4</ele><time>2018-04-17T14:29:31Z</time></trkpt>
<trkpt lat="55.031667000" lon="-2.152307000"><ele>133.3</ele><time>2018-04-17T14:29:39Z</time></trkpt>
<trkpt lat="55.031588000" lon="-2.152202000"><ele>133.2</ele><time>2018-04-17T14:29:46Z</time></trkpt>
<trkpt lat="55.031492000" lon="-2.152121000"><ele>133.2</ele><time>2018-04-17T14:29:53Z</time></trkpt>
<trkpt lat="55.031388000" lon="-2.152081000"><ele>133.3</ele><time>2018-04-17T14:29:59Z</time></trkpt>
<trkpt lat="55.031292000" lon="-2.152037000"><ele>133.4</ele><time>2018-04-17T14:30:06Z</time></trkpt>
<trkpt lat="55.031189000" lon="-2.152032000"><ele>133.6</ele><time>2018-04-17T14:30:13Z</time></trkpt>
<trkpt lat="55.031100000" lon="-2.152059000"><ele>133.9</ele><time>2018-04-17T14:30:19Z</time></trkpt>
<trkpt lat="55.031005000" lon="-2.152088000"><ele>134.3</ele><time>2018-04-17T14:30:26Z</time></trkpt>
<trkpt lat="55.030911000" lon="-2.152131000"><ele>134.6</ele><time>2018-04-17T14:30:33Z</time></trkpt>
<trkpt lat="55.030814000" lon="-2.152203000"><ele>135.2</ele><time>2018-04-17T14:30:40Z</time></trkpt>
<trkpt lat="55.030724000" lon="-2.152265000"><ele>135.6</ele><time>2018-04-17T14:30:47Z</time></trkpt>
<trkpt lat="55.030638000" lon="-2.152331000"><ele>136.2</ele><time>2018-04-17T14:30:55Z</time></trkpt>
<trkpt lat="55.030550000" lon="-2.152400000"><ele>136.6</ele><time>2018-04-17T14:31:05Z</time></trkpt>
<trkpt lat="55.030464000" lon="-2.152467000"><ele>137.0</ele><time>2018-04-17T14:31:12Z</time></trkpt>
<trkpt lat="55.030372000" lon="-2.152557000"><ele>137.3</ele><time>2018-04-17T14:31:20Z</time></trkpt>
<trkpt lat="55.030286000" lon="-2.152640000"><ele>137.5</ele><time>2018-04-17T14:31:27Z</time></trkpt>
<trkpt lat="55.030203000" lon="-2.152723000"><ele>137.7</ele><time>2018-04-17T14:31:41Z</time></trkpt>
<trkpt lat="55.030116000" lon="-2.152773000"><ele>137.9</ele><time>2018-04-17T14:31:49Z</time></trkpt>
<trkpt lat="55.030021000" lon="-2.152837000"><ele>138.0</ele><time>2018-04-17T14:31:56Z</time></trkpt>
<trkpt lat="55.029936000" lon="-2.152931000"><ele>138.1</ele><time>2018-04-17T14:32:04Z</time></trkpt>
<trkpt lat="55.029848000" lon="-2.153009000"><ele>138.1</ele><time>2018-04-17T14:32:11Z</time></trkpt>
<trkpt lat="55.029760000" lon="-2.153071000"><ele>138.0</ele><time>2018-04-17T14:32:18Z</time></trkpt>
<trkpt lat="55.029680000" lon="-2.153171000"><ele>137.7</ele><time>2018-04-17T14:32:27Z</time></trkpt>
<trkpt lat="55.029603000" lon="-2.153253000"><ele>137.5</ele><time>2018-04-17T14:32:34Z</time></trkpt>
<trkpt lat="55.029499000" lon="-2.153294000"><ele>137.4</ele><time>2018-04-17T14:32:41Z</time></trkpt>
<trkpt lat="55.029409000" lon="-2.153332000"><ele>137.1</ele><time>2018-04-17T14:32:49Z</time></trkpt>
<trkpt lat="55.029318000" lon="-2.153379000"><ele>136.7</ele><time>2018-04-17T14:32:56Z</time></trkpt>
<trkpt lat="55.029269000" lon="-2.153239000"><ele>136.3</ele><time>2018-04-17T14:33:05Z</time></trkpt>
<trkpt lat="55.029232000" lon="-2.153095000"><ele>135.8</ele><time>2018-04-17T14:33:15Z</time></trkpt>
<trkpt lat="55.029256000" lon="-2.152941000"><ele>135.2</ele><time>2018-04-17T14:33:32Z</time></trkpt>
<trkpt lat="55.029259000" lon="-2.152782000"><ele>134.5</ele><time>2018-04-17T14:33:37Z</time></trkpt>
<trkpt lat="55.029253000" lon="-2.152609000"><ele>133.5</ele><time>2018-04-17T14:33:45Z</time></trkpt>
<trkpt lat="55.029227000" lon="-2.152455000"><ele>132.6</ele><time>2018-04-17T14:33:52Z</time></trkpt>
<trkpt lat="55.029209000" lon="-2.152280000"><ele>131.6</ele><time>2018-04-17T14:34:00Z</time></trkpt>
<trkpt lat="55.029163000" lon="-2.152122000"><ele>130.5</ele><time>2018-04-17T14:34:07Z</time></trkpt>
<trkpt lat="55.029128000" lon="-2.151965000"><ele>129.3</ele><time>2018-04-17T14:34:14Z</time></trkpt>
<trkpt lat="55.029111000" lon="-2.151808000"><ele>128.0</ele><time>2018-04-17T14:34:20Z</time></trkpt>
<trkpt lat="55.029081000" lon="-2.151640000"><ele>126.7</ele><time>2018-04-17T14:34:26Z</time></trkpt>
<trkpt lat="55.029040000" lon="-2.151486000"><ele>125.5</ele><time>2018-04-17T14:34:33Z</time></trkpt>
<trkpt lat="55.028996000" lon="-2.151344000"><ele>124.1</ele><time>2018-04-17T14:34:39Z</time></trkpt>
<trkpt lat="55.028944000" lon="-2.151211000"><ele>122.8</ele><time>2018-04-17T14:34:46Z</time></trkpt>
<trkpt lat="55.028916000" lon="-2.151059000"><ele>121.5</ele><time>2018-04-17T14:34:53Z</time></trkpt>
<trkpt lat="55.028880000" lon="-2.150901000"><ele>120.4</ele><time>2018-04-17T14:35:01Z</time></trkpt>
<trkpt lat="55.028847000" lon="-2.150750000"><ele>119.1</ele><time>2018-04-17T14:35:07Z</time></trkpt>
<trkpt lat="55.028807000" lon="-2.150596000"><ele>117.9</ele><time>2018-04-17T14:35:14Z</time></trkpt>
<trkpt lat="55.028764000" lon="-2.150455000"><ele>116.6</ele><time>2018-04-17T14:35:20Z</time></trkpt>
<trkpt lat="55.028723000" lon="-2.150306000"><ele>115.5</ele><time>2018-04-17T14:35:27Z</time></trkpt>
<trkpt lat="55.028683000" lon="-2.150144000"><ele>114.3</ele><time>2018-04-17T14:35:34Z</time></trkpt>
<trkpt lat="55.028644000" lon="-2.150000000"><ele>113.1</ele><time>2018-04-17T14:35:41Z</time></trkpt>
<trkpt lat="55.028612000" lon="-2.149839000"><ele>111.9</ele><time>2018-04-17T14:35:49Z</time></trkpt>
<trkpt lat="55.028576000" lon="-2.149674000"><ele>110.7</ele><time>2018-04-17T14:35:57Z</time></trkpt>
<trkpt lat="55.028537000" lon="-2.149519000"><ele>109.5</ele><time>2018-04-17T14:36:04Z</time></trkpt>
<trkpt lat="55.028504000" lon="-2.149353000"><ele>108.3</ele><time>2018-04-17T14:36:11Z</time></trkpt>
<trkpt lat="55.028461000" lon="-2.149204000"><ele>107.0</ele><time>2018-04-17T14:36:18Z</time></trkpt>
<trkpt lat="55.028423000" lon="-2.149031000"><ele>105.8</ele><time>2018-04-17T14:36:24Z</time></trkpt>
<trkpt lat="55.028382000" lon="-2.148878000"><ele>104.6</ele><time>2018-04-17T14:36:31Z</time></trkpt>
<trkpt lat="55.028345000" lon="-2.148718000"><ele>103.5</ele><time>2018-04-17T14:36:51Z</time></trkpt>
<trkpt lat="55.028301000" lon="-2.148547000"><ele>102.5</ele><time>2018-04-17T14:36:59Z</time></trkpt>
<trkpt lat="55.028261000" lon="-2.148384000"><ele>101.5</ele><time>2018-04-17T14:37:06Z</time></trkpt>
<trkpt lat="55.028223000" lon="-2.148218000"><ele>100.5</ele><time>2018-04-17T14:37:13Z</time></trkpt>
<trkpt lat="55.028172000" lon="-2.148062000"><ele>99.6</ele><time>2018-04-17T14:37:20Z</time></trkpt>
<trkpt lat="55.028148000" lon="-2.147893000"><ele>98.8</ele><time>2018-04-17T14:37:26Z</time></trkpt>
<trkpt lat="55.028129000" lon="-2.147725000"><ele>98.1</ele><time>2018-04-17T14:37:33Z</time></trkpt>
<trkpt lat="55.028101000" lon="-2.147562000"><ele>97.5</ele><time>2018-04-17T14:37:40Z</time></trkpt>
<trkpt lat="55.028098000" lon="-2.147385000"><ele>96.9</ele><time>2018-04-17T14:37:48Z</time></trkpt>
<trkpt lat="55.028098000" lon="-2.147221000"><ele>96.4</ele><time>2018-04-17T14:37:56Z</time></trkpt>
<trkpt lat="55.028109000" lon="-2.147042000"><ele>95.9</ele><time>2018-04-17T14:38:04Z</time></trkpt>
<trkpt lat="55.028115000" lon="-2.146866000"><ele>95.5</ele><time>2018-04-17T14:38:11Z</time></trkpt>
<trkpt lat="55.028141000" lon="-2.146696000"><ele>95.2</ele><time>2018-04-17T14:38:18Z</time></trkpt>
<trkpt lat="55.028184000" lon="-2.146532000"><ele>94.7</ele><time>2018-04-17T14:38:25Z</time></trkpt>
<trkpt lat="55.028191000" lon="-2.146363000"><ele>94.2</ele><time>2018-04-17T14:38:32Z</time></trkpt>
<trkpt lat="55.028196000" lon="-2.146187000"><ele>93.7</ele><time>2018-04-17T14:38:39Z</time></trkpt>
<trkpt lat="55.028206000" lon="-2.146011000"><ele>93.2</ele><time>2018-04-17T14:38:46Z</time></trkpt>
<trkpt lat="55.028237000" lon="-2.145863000"><ele>92.6</ele><time>2018-04-17T14:38:54Z</time></trkpt>
<trkpt lat="55.028254000" lon="-2.145709000"><ele>92.1</ele><time>2018-04-17T14:39:01Z</time></trkpt>
<trkpt lat="55.028257000" lon="-2.145544000"><ele>91.5</ele><time>2018-04-17T14:39:07Z</time></trkpt>
<trkpt lat="55.028257000" lon="-2.145387000"><ele>91.1</ele><time>2018-04-17T14:39:13Z</time></trkpt>
<trkpt lat="55.028265000" lon="-2.145229000"><ele>90.5</ele><time>2018-04-17T14:39:19Z</time></trkpt>
<trkpt lat="55.028252000" lon="-2.145067000"><ele>90.0</ele><time>2018-04-17T14:39:27Z</time></trkpt>
<trkpt lat="55.028278000" lon="-2.144887000"><ele>89.5</ele><time>2018-04-17T14:39:34Z</time></trkpt>
<trkpt lat="55.028277000" lon="-2.144725000"><ele>89.1</ele><time>2018-04-17T14:39:40Z</time></trkpt>
<trkpt lat="55.028321000" lon="-2.144577000"><ele>88.6</ele><time>2018-04-17T14:40:12Z</time></trkpt>
<trkpt lat="55.028321000" lon="-2.144419000"><ele>88.2</ele><time>2018-04-17T14:40:23Z</time></trkpt>
<trkpt lat="55.028333000" lon="-2.144260000"><ele>87.8</ele><time>2018-04-17T14:40:31Z</time></trkpt>
<trkpt lat="55.028369000" lon="-2.144109000"><ele>87.4</ele><time>2018-04-17T14:40:37Z</time></trkpt>
<trkpt lat="55.028403000" lon="-2.143950000"><ele>87.0</ele><time>2018-04-17T14:40:44Z</time></trkpt>
<trkpt lat="55.028415000" lon="-2.143785000"><ele>86.6</ele><time>2018-04-17T14:40:52Z</time></trkpt>
<trkpt lat="55.028424000" lon="-2.143620000"><ele>86.3</ele><time>2018-04-17T14:40:59Z</time></trkpt>
<trkpt lat="55.028427000" lon="-2.143458000"><ele>86.0</ele><time>2018-04-17T14:41:05Z</time></trkpt>
<trkpt lat="55.028437000" lon="-2.143291000"><ele>85.7</ele><time>2018-04-17T14:41:11Z</time></trkpt>
<trkpt lat="55.028470000" lon="-2.143136000"><ele>85.5</ele><time>2018-04-17T14:41:18Z</time></trkpt>
<trkpt lat="55.028477000" lon="-2.142964000"><ele>85.2</ele><time>2018-04-17T14:41:25Z</time></trkpt>
<trkpt lat="55.028492000" lon="-2.142784000"><ele>85.0</ele><time>2018-04-17T14:41:31Z</time></trkpt>
<trkpt lat="55.028518000" lon="-2.142606000"><ele>84.8</ele><time>2018-04-17T14:41:39Z</time></trkpt>
<trkpt lat="55.028527000" lon="-2.142440000"><ele>84.5</ele><time>2018-04-17T14:41:45Z</time></trkpt>
<trkpt lat="55.028523000" lon="-2.142279000"><ele>84.3</ele><time>2018-04-17T14:41:52Z</time></trkpt>
<trkpt lat="55.028526000" lon="-2.142097000"><ele>83.9</ele><time>2018-04-17T14:41:59Z</time></trkpt>
<trkpt lat="55.028545000" lon="-2.141933000"><ele>83.5</ele><time>2018-04-17T14:42:07Z</time></trkpt>
<trkpt lat="55.028551000" lon="-2.141758000"><ele>82.9</ele><time>2018-04-17T14:42:14Z</time></trkpt>
<trkpt lat="55.028561000" lon="-2.141580000"><ele>82.3</ele><time>2018-04-17T14:42:21Z</time></trkpt>
<trkpt lat="55.028576000" lon="-2.141419000"><ele>81.5</ele><time>2018-04-17T14:42:27Z</time></trkpt>
<trkpt lat="55.028600000" lon="-2.141256000"><ele>80.8</ele><time>2018-04-17T14:42:33Z</time></trkpt>
<trkpt lat="55.028604000" lon="-2.141083000"><ele>80.1</ele><time>2018-04-17T14:42:40Z</time></trkpt>
<trkpt lat="55.028607000" lon="-2.140908000"><ele>79.4</ele><time>2018-04-17T14:42:46Z</time></trkpt>
<trkpt lat="55.028633000" lon="-2.140747000"><ele>78.5</ele><time>2018-04-17T14:42:53Z</time></trkpt>
<trkpt lat="55.028682000" lon="-2.140613000"><ele>77.8</ele><time>2018-04-17T14:43:02Z</time></trkpt>
<trkpt lat="55.028646000" lon="-2.140445000"><ele>77.2</ele><time>2018-04-17T14:43:12Z</time></trkpt>
<trkpt lat="55.028598000" lon="-2.140312000"><ele>76.6</ele><time>2018-04-17T14:43:27Z</time></trkpt>
<trkpt lat="55.028666000" lon="-2.140182000"><ele>76.2</ele><time>2018-04-17T14:44:09Z</time></trkpt>
<trkpt lat="55.028704000" lon="-2.140007000"><ele>75.7</ele><time>2018-04-17T14:44:16Z</time></trkpt>
<trkpt lat="55.028738000" lon="-2.139854000"><ele>75.4</ele><time>2018-04-17T14:44:22Z</time></trkpt>
<trkpt lat="55.028764000" lon="-2.139701000"><ele>75.1</ele><time>2018-04-17T14:44:28Z</time></trkpt>
<trkpt lat="55.028789000" lon="-2.139527000"><ele>74.7</ele><time>2018-04-17T14:44:35Z</time></trkpt>
<trkpt lat="55.028804000" lon="-2.139346000"><ele>74.4</ele><time>2018-04-17T14:44:42Z</time></trkpt>
<trkpt lat="55.028823000" lon="-2.139185000"><ele>73.9</ele><time>2018-04-17T14:44:49Z</time></trkpt>
<trkpt lat="55.028842000" lon="-2.139012000"><ele>73.5</ele><time>2018-04-17T14:44:56Z</time></trkpt>
<trkpt lat="55.028855000" lon="-2.138843000"><ele>73.1</ele><time>2018-04-17T14:45:02Z</time></trkpt>
<trkpt lat="55.028864000" lon="-2.138678000"><ele>72.7</ele><time>2018-04-17T14:45:09Z</time></trkpt>
<trkpt lat="55.028872000" lon="-2.138521000"><ele>72.5</ele><time>2018-04-17T14:45:18Z</time></trkpt>
<trkpt lat="55.028808000" lon="-2.138410000"><ele>72.4</ele><time>2018-04-17T14:45:26Z</time></trkpt>
<trkpt lat="55.028718000" lon="-2.138355000"><ele>72.5</ele><time>2018-04-17T14:45:32Z</time></trkpt>
<trkpt lat="55.028618000" lon="-2.138363000"><ele>72.5</ele><time>2018-04-17T14:45:39Z</time></trkpt>
<trkpt lat="55.028524000" lon="-2.138392000"><ele>72.6</ele><time>2018-04-17T14:45:46Z</time></trkpt>
<trkpt lat="55.028455000" lon="-2.138503000"><ele>72.8</ele><time>2018-04-17T14:45:55Z</time></trkpt>
<trkpt lat="55.028428000" lon="-2.138683000"><ele>72.9</ele><time>2018-04-17T14:46:02Z</time></trkpt>
<trkpt lat="55.028424000" lon="-2.138842000"><ele>73.1</ele><time>2018-04-17T14:46:11Z</time></trkpt>
<trkpt lat="55.028448000" lon="-2.139010000"><ele>73.4</ele><time>2018-04-17T14:46:38Z</time></trkpt>
<trkpt lat="55.028530000" lon="-2.138940000"><ele>73.9</ele><time>2018-04-17T14:47:04Z</time></trkpt>
<trkpt lat="55.028534000" lon="-2.139018000"><ele>74.3</ele><time>2018-04-17T14:48:01Z</time></trkpt>
</trkseg>
</trk>
</gpx>
